Zarling — WDD7883 — position and weather

sailwx.info

Track history (hours):
 
Tides and Currents Weather Stations Pressure Air Temp Water Temp Dewpoint Dewpoint Depression Visibility Wind Speed Wind Dir Waves Ship Positions

Zarling

Owner: Clean Rivers Co-op, Portland, OR. More information available from US FCC via Universal Licensing System.

Last reported at 2017-Apr-28 06:00 UTC. Time now 2017-Apr-28 06:19 UTC.
Position N 45°52' W 122°48'.

Length 12 m.

Type: Pollution control. MMSI: 3699126.

Date/timePositionNaut miles runAvg speedWind from/ knotsBaromVisibWave heightAir tempDewpointWater temp
2017-Apr-28 06:00N 45°52' W 122°48'211500.7
2017-Apr-28 05:59N 46°10' W 123°03'401847.9
2017-Apr-28 05:58N 45°33' W 122°42'4014415.9
2017-Apr-28 05:58N 46°10' W 123°03'1499.3
2017-Apr-28 05:49N 46°12' W 123°23'3299.8
2017-Apr-28 05:30N 45°52' W 122°48'211471.9
2017-Apr-28 05:29N 46°10' W 123°03'14930.5
2017-Apr-28 05:28N 46°12' W 123°23'497613.4
2017-Apr-28 05:28N 45°33' W 122°42'4016017.6
2017-Apr-28 05:28N 46°10' W 123°03'2146.1
2017-Apr-28 05:00N 45°52' W 122°48'211471.5
2017-Apr-28 04:59N 46°10' W 123°03'401871.9
2017-Apr-28 04:58N 45°33' W 122°42'4013105.3
2017-Apr-28 04:58N 46°10' W 123°03'14348.9
2017-Apr-28 04:55N 46°12' W 123°23'3275.9
2017-Apr-28 04:30N 45°52' W 122°48'211530.7
2017-Apr-28 04:29N 46°10' W 123°03'14948.0
2017-Apr-28 04:28N 46°12' W 123°23'49850.0
2017-Apr-28 04:25N 45°33' W 122°42'40762.7
2017-Apr-28 04:22N 46°10' W 123°03'0 0.0
2017-Apr-28 03:59N 46°10' W 123°03'401921.8
2017-Apr-28 03:58N 45°33' W 122°42'4016017.6
2017-Apr-28 03:58N 46°10' W 123°03'14337.2
2017-Apr-28 03:55N 46°12' W 123°23'321516.6
2017-Apr-28 03:54N 45°52' W 122°48'2151.3
2017-Apr-28 03:29N 46°10' W 123°03'401871.9
2017-Apr-28 03:28N 45°33' W 122°42'4018019.8
2017-Apr-28 03:28N 46°10' W 123°03'21343.3
2017-Apr-28 03:24N 45°52' W 122°48'32405.8
2017-Apr-28 03:19N 46°12' W 123°23'3299.6
2017-Apr-28 03:00N 45°52' W 122°48'321108.3
2017-Apr-28 02:58N 46°12' W 123°23'141477.7
2017-Apr-28 02:58N 46°10' W 123°03'0 0.2
2017-Apr-28 02:56N 46°10' W 123°03'401824.5
2017-Apr-28 02:55N 45°33' W 122°42'0 0.0
2017-Apr-28 02:28N 45°33' W 122°42'4020594.1
2017-Apr-28 02:28N 46°10' W 123°03'0 0.2
2017-Apr-28 02:26N 46°10' W 123°03'21588.7
2017-Apr-28 02:24N 45°52' W 122°48'32411.6
2017-Apr-28 02:19N 46°12' W 123°23'3299.3
2017-Apr-28 02:00N 45°52' W 122°48'21334.2
2017-Apr-28 01:56N 46°10' W 123°03'401871.7
2017-Apr-28 01:55N 45°33' W 122°42'4013103.5
2017-Apr-28 01:55N 46°10' W 123°03'14339.5
2017-Apr-28 01:52N 46°12' W 123°23'3286.3
2017-Apr-28 01:30N 45°52' W 122°48'211500.7
2017-Apr-28 01:29N 46°10' W 123°03'401847.9
2017-Apr-28 01:28N 45°33' W 122°42'4024026.4
2017-Apr-28 01:28N 46°10' W 123°03'1435.8
2017-Apr-28 01:04N 46°12' W 123°23'32445.0
2017-Apr-28 01:00N 45°52' W 122°48'211500.7
2017-Apr-28 00:59N 46°10' W 123°03'401847.9
2017-Apr-28 00:58N 45°33' W 122°42'491144.5
2017-Apr-28 00:55N 46°12' W 123°23'14127.2
2017-Apr-28 00:49N 46°10' W 123°03'0 0.0
2017-Apr-28 00:29N 46°10' W 123°03'401871.9
2017-Apr-28 00:28N 45°33' W 122°42'4020594.1
2017-Apr-28 00:28N 46°10' W 123°03'211739.9
2017-Apr-28 00:27N 45°52' W 122°48'321087.4
2017-Apr-28 00:25N 46°12' W 123°23'3276.1
2017-Apr-28 00:00N 45°52' W 122°48'21332.8
2017-Apr-27 23:56N 46°10' W 123°03'14948.0
2017-Apr-27 23:55N 46°12' W 123°23'497295.4
2017-Apr-27 23:55N 45°33' W 122°42'40770.8
2017-Apr-27 23:52N 46°10' W 123°03'0 0.0
2017-Apr-27 23:29N 46°10' W 123°03'14866.3
2017-Apr-27 23:28N 46°12' W 123°23'141860.9
2017-Apr-27 23:28N 46°10' W 123°03'211628.8
2017-Apr-27 23:27N 45°52' W 122°48'19142.0
2017-Apr-27 23:19N 45°33' W 122°42'40122.3
2017-Apr-27 22:59N 46°10' W 123°03'14913.6
2017-Apr-27 22:58N 46°12' W 123°23'497004.3
2017-Apr-27 22:58N 45°33' W 122°42'4024026.4
2017-Apr-27 22:58N 46°10' W 123°03'211664.3
2017-Apr-27 22:57N 45°52' W 122°48'2145.8
2017-Apr-27 22:29N 46°10' W 123°03'141004.9
2017-Apr-27 22:28N 46°12' W 123°23'321440.7
2017-Apr-27 22:27N 45°52' W 122°48'21580.0
2017-Apr-27 22:25N 46°10' W 123°03'40833.3
2017-Apr-27 22:22N 45°33' W 122°42'1953.0
2017-Apr-27 22:00N 45°52' W 122°48'21571.3
2017-Apr-27 21:58N 46°10' W 123°03'0 0.2
2017-Apr-27 21:56N 46°10' W 123°03'401871.9
2017-Apr-27 21:55N 45°33' W 122°42'49524.3
2017-Apr-27 21:49N 46°12' W 123°23'3299.5
2017-Apr-27 21:30N 45°52' W 122°48'211471.9
2017-Apr-27 21:29N 46°10' W 123°03'401871.9
2017-Apr-27 21:28N 45°33' W 122°42'49524.3
2017-Apr-27 21:22N 46°12' W 123°23'14235.9
2017-Apr-27 21:19N 46°10' W 123°03'2158.6
2017-Apr-27 20:57N 45°52' W 122°48'321108.3
2017-Apr-27 20:55N 46°12' W 123°23'497613.4
2017-Apr-27 20:55N 45°33' W 122°42'401413.1
2017-Apr-27 20:53N 46°10' W 123°03'0 0.0
2017-Apr-27 20:46N 46°10' W 123°03'0 0.0
2017-Apr-27 20:29N 46°10' W 123°03'0 0.3
2017-Apr-27 20:28N 46°10' W 123°03'40202.4
2017-Apr-27 20:16N 45°33' W 122°42'491108.2
2017-Apr-27 20:13N 46°12' W 123°23'321516.6
2017-Apr-27 20:12N 45°52' W 122°48'0 0.0
2017-Apr-27 20:00N 45°52' W 122°48'321097.7
2017-Apr-27 19:58N 46°12' W 123°23'14402.0
2017-Apr-27 19:56N 46°10' W 123°03'401871.9
2017-Apr-27 19:55N 45°33' W 122°42'4020594.1
2017-Apr-27 19:55N 46°10' W 123°03'2151.5
2017-Apr-27 19:30N 45°52' W 122°48'321002.3
2017-Apr-27 19:28N 46°12' W 123°23'4913469.8
2017-Apr-27 19:28N 45°33' W 122°42'4036039.6
2017-Apr-27 19:28N 46°10' W 123°03'0 0.0
2017-Apr-27 19:20N 46°10' W 123°03'2163.0
2017-Apr-27 19:00N 45°52' W 122°48'321011.1
2017-Apr-27 18:58N 46°12' W 123°23'4913468.5
2017-Apr-27 18:58N 45°33' W 122°42'401399.2
2017-Apr-27 18:56N 46°10' W 123°03'0 0.0
2017-Apr-27 18:49N 46°10' W 123°03'2167.9
2017-Apr-27 18:30N 45°52' W 122°48'21580.0
2017-Apr-27 18:28N 46°10' W 123°03'0 0.2
2017-Apr-27 18:26N 46°10' W 123°03'14203.4
2017-Apr-27 18:22N 46°12' W 123°23'4915918.9
2017-Apr-27 18:22N 45°33' W 122°42'40105.8
2017-Apr-27 17:59N 46°10' W 123°03'401871.9
2017-Apr-27 17:58N 45°33' W 122°42'191313.2
2017-Apr-27 17:57N 45°52' W 122°48'21580.0
2017-Apr-27 17:55N 46°10' W 123°03'14146.5
2017-Apr-27 17:49N 46°12' W 123°23'0 0.0
2017-Apr-27 17:28N 46°12' W 123°23'4914592.3
2017-Apr-27 17:28N 45°33' W 122°42'40144158.5
2017-Apr-27 17:28N 46°10' W 123°03'0 0.2
2017-Apr-27 17:26N 46°10' W 123°03'21593.3
2017-Apr-27 17:24N 45°52' W 122°48'0 0.0
2017-Apr-27 17:00N 45°52' W 122°48'211562.0
2017-Apr-27 16:59N 46°10' W 123°03'401847.9
2017-Apr-27 16:58N 45°33' W 122°42'4036039.6
2017-Apr-27 16:58N 46°10' W 123°03'14300.9
2017-Apr-27 16:55N 46°12' W 123°23'3276.7
2017-Apr-27 16:30N 45°52' W 122°48'19539.4
2017-Apr-27 16:28N 45°33' W 122°42'40144138.4
2017-Apr-27 16:28N 46°10' W 123°03'0 0.2
2017-Apr-27 16:26N 46°10' W 123°03'14728.2
2017-Apr-27 16:25N 46°12' W 123°23'0 0.0
2017-Apr-27 15:58N 46°12' W 123°23'321800.9
2017-Apr-27 15:57N 45°52' W 122°48'211562.0
2017-Apr-27 15:56N 46°10' W 123°03'0 0.3
2017-Apr-27 15:55N 46°10' W 123°03'40269.0
2017-Apr-27 15:46N 45°33' W 122°42'1973.0
2017-Apr-27 15:30N 45°52' W 122°48'321002.3
2017-Apr-27 15:28N 46°12' W 123°23'143349.5
2017-Apr-27 15:28N 46°10' W 123°03'0 0.2
2017-Apr-27 15:26N 46°10' W 123°03'40554.4
2017-Apr-27 15:22N 45°33' W 122°42'1953.1
2017-Apr-27 15:00N 45°52' W 122°48'211530.7
2017-Apr-27 14:59N 46°10' W 123°03'401824.5
2017-Apr-27 14:58N 45°33' W 122°42'491067.7
2017-Apr-27 14:55N 46°12' W 123°23'14253.8
2017-Apr-27 14:52N 46°10' W 123°03'4044.5
2017-Apr-27 13:58N 45°33' W 122°42'40144158.5
2017-Apr-27 13:58N 46°10' W 123°03'211159.7
2017-Apr-27 13:57N 45°52' W 122°48'212068.1
2017-Apr-27 13:56N 46°10' W 123°03'14749.9
2017-Apr-27 13:55N 46°12' W 123°23'3276.0
2017-Apr-27 13:30N 45°52' W 122°48'212186.2
2017-Apr-27 13:29N 46°10' W 123°03'14203.4
2017-Apr-27 13:25N 46°12' W 123°23'4915917.3
2017-Apr-27 13:25N 45°33' W 122°42'4048046.1
2017-Apr-27 13:25N 46°10' W 123°03'2150.9
2017-Apr-27 13:00N 45°52' W 122°48'212319.3
2017-Apr-27 12:59N 46°10' W 123°03'401757.8
2017-Apr-27 12:58N 45°33' W 122°42'4072079.3
2017-Apr-27 12:58N 46°10' W 123°03'14304.5
2017-Apr-27 12:55N 46°12' W 123°23'1432.3
2017-Apr-27 12:29N 46°10' W 123°03'14728.3
2017-Apr-27 12:28N 46°12' W 123°23'146280.8
2017-Apr-27 12:28N 46°10' W 123°03'211142.6
2017-Apr-27 12:27N 45°52' W 122°48'19621.4
2017-Apr-27 12:25N 45°33' W 122°42'0 0.0
2017-Apr-27 11:58N 45°33' W 122°42'191038.8
2017-Apr-27 11:57N 45°52' W 122°48'21689.7
2017-Apr-27 11:55N 46°10' W 123°03'14143.6
2017-Apr-27 11:49N 46°12' W 123°23'14105.6
2017-Apr-27 11:41N 46°10' W 123°03'0 0.0
2017-Apr-27 11:29N 46°10' W 123°03'0 0.3
2017-Apr-27 11:28N 46°10' W 123°03'40144158.5
2017-Apr-27 11:28N 45°33' W 122°42'191070.8
2017-Apr-27 11:27N 45°52' W 122°48'32248.4
2017-Apr-27 11:19N 46°12' W 123°23'3299.6
2017-Apr-27 11:00N 45°52' W 122°48'212126.0
2017-Apr-27 10:59N 46°10' W 123°03'14761.3
2017-Apr-27 10:58N 46°12' W 123°23'49470.7
2017-Apr-27 10:52N 45°33' W 122°42'40400.4
2017-Apr-27 10:46N 46°10' W 123°03'2179.3
2017-Apr-27 10:30N 45°52' W 122°48'212125.5
2017-Apr-27 10:29N 46°10' W 123°03'0 0.3
2017-Apr-27 10:28N 46°10' W 123°03'4072079.3
2017-Apr-27 10:28N 45°33' W 122°42'491042.3
2017-Apr-27 10:25N 46°12' W 123°23'0 0.0
2017-Apr-27 09:58N 46°12' W 123°23'147177.6
2017-Apr-27 09:58N 46°10' W 123°03'211159.7
2017-Apr-27 09:57N 45°52' W 122°48'212125.5
2017-Apr-27 09:56N 46°10' W 123°03'401779.5
2017-Apr-27 09:55N 45°33' W 122°42'4093.5
2017-Apr-27 09:29N 46°10' W 123°03'14738.9
2017-Apr-27 09:28N 46°12' W 123°23'145582.6
2017-Apr-27 09:28N 46°10' W 123°03'21180.1
2017-Apr-27 09:21N 45°52' W 122°48'19234.3
2017-Apr-27 09:16N 45°33' W 122°42'40144.0
2017-Apr-27 08:59N 46°10' W 123°03'14738.9
2017-Apr-27 08:58N 46°12' W 123°23'146280.4
2017-Apr-27 08:58N 46°10' W 123°03'40787.8
2017-Apr-27 08:55N 45°33' W 122°42'191087.5
2017-Apr-27 08:54N 45°52' W 122°48'0 0.0
2017-Apr-27 08:30N 45°52' W 122°48'321119.2
2017-Apr-27 08:28N 46°12' W 123°23'145024.6
2017-Apr-27 08:28N 46°10' W 123°03'0 0.1
2017-Apr-27 08:23N 46°10' W 123°03'2154.5
2017-Apr-27 08:00N 45°52' W 122°48'212068.6
2017-Apr-27 07:59N 46°10' W 123°03'14749.9
2017-Apr-27 07:58N 46°12' W 123°23'146280.4
2017-Apr-27 07:58N 46°10' W 123°03'4072069.2
2017-Apr-27 07:58N 45°33' W 122°42'1941.3
2017-Apr-27 07:30N 45°52' W 122°48'321141.2
2017-Apr-27 07:28N 46°12' W 123°23'4913469.8
2017-Apr-27 07:28N 45°33' W 122°42'401427.1
2017-Apr-27 07:26N 46°10' W 123°03'0 0.1
2017-Apr-27 07:22N 46°10' W 123°03'1435.0
2017-Apr-27 06:58N 46°12' W 123°23'147177.6
2017-Apr-27 06:58N 46°10' W 123°03'211125.8
2017-Apr-27 06:57N 45°52' W 122°48'19600.0
2017-Apr-27 06:55N 45°33' W 122°42'401413.1
2017-Apr-27 06:53N 46°10' W 123°03'2154.6
2017-Apr-27 06:30N 45°52' W 122°48'212126.0
2017-Apr-27 06:29N 46°10' W 123°03'401824.5
2017-Apr-27 06:28N 45°33' W 122°42'491036.1
2017-Apr-27 06:25N 46°12' W 123°23'14137.3
2017-Apr-27 06:19N 46°10' W 123°03'0 0.0
2017-Apr-27 05:59N 46°10' W 123°03'0 0.3
2017-Apr-27 05:58N 46°10' W 123°03'211125.8
2017-Apr-27 05:57N 45°52' W 122°48'321164.2
2017-Apr-27 05:55N 46°12' W 123°23'49315.5
2017-Apr-27 05:46N 45°33' W 122°42'40134.1
2017-Apr-27 05:28N 46°10' W 123°03'211078.3
2017-Apr-27 05:27N 45°52' W 122°48'212186.8
2017-Apr-27 05:26N 46°10' W 123°03'14773.0
2017-Apr-27 05:25N 46°12' W 123°23'4911673.9
2017-Apr-27 05:25N 45°33' W 122°42'49108.8
2017-Apr-27 04:58N 46°12' W 123°23'1412560.8
2017-Apr-27 04:58N 46°10' W 123°03'40779.2
2017-Apr-27 04:55N 45°33' W 122°42'191023.5
2017-Apr-27 04:54N 45°52' W 122°48'212186.8
2017-Apr-27 04:53N 46°10' W 123°03'2154.5
2017-Apr-27 04:30N 45°52' W 122°48'212186.2
2017-Apr-27 04:29N 46°10' W 123°03'14738.9
2017-Apr-27 04:28N 46°12' W 123°23'145024.3
2017-Apr-27 04:28N 46°10' W 123°03'40796.5
2017-Apr-27 04:25N 45°33' W 122°42'1946.2
2017-Apr-27 04:00N 45°52' W 122°48'212126.0
2017-Apr-27 03:59N 46°10' W 123°03'14749.9
2017-Apr-27 03:58N 46°12' W 123°23'49239.2
2017-Apr-27 03:46N 45°33' W 122°42'40819.0
2017-Apr-27 03:43N 46°10' W 123°03'2197.0
2017-Apr-27 03:30N 45°52' W 122°48'212014.1
2017-Apr-27 03:29N 46°10' W 123°03'0 0.3
2017-Apr-27 03:28N 46°10' W 123°03'4036039.6
2017-Apr-27 03:28N 45°33' W 122°42'49503.2
2017-Apr-27 03:22N 46°12' W 123°23'0 0.0
2017-Apr-27 02:58N 46°12' W 123°23'148373.9
2017-Apr-27 02:58N 46°10' W 123°03'211063.0
2017-Apr-27 02:57N 45°52' W 122°48'19605.4
2017-Apr-27 02:55N 45°33' W 122°42'401427.1
2017-Apr-27 02:53N 46°10' W 123°03'2154.6
2017-Apr-27 02:30N 45°52' W 122°48'21265.8
2017-Apr-27 02:25N 46°10' W 123°03'0 0.2
2017-Apr-27 02:23N 46°10' W 123°03'14761.3
2017-Apr-27 02:22N 46°12' W 123°23'4917510.8
2017-Apr-27 02:22N 45°33' W 122°42'40105.9
2017-Apr-27 01:59N 46°10' W 123°03'14707.7
2017-Apr-27 01:58N 46°12' W 123°23'321536.6
2017-Apr-27 01:57N 45°52' W 122°48'21689.5
2017-Apr-27 01:55N 46°10' W 123°03'40800.8
2017-Apr-27 01:52N 45°33' W 122°42'1952.3
2017-Apr-27 01:30N 45°52' W 122°48'321108.3
2017-Apr-27 01:28N 46°12' W 123°23'4917510.8
2017-Apr-27 01:28N 45°33' W 122°42'40819.1
2017-Apr-27 01:25N 46°10' W 123°03'0 0.0
2017-Apr-27 01:17N 46°10' W 123°03'2173.4
2017-Apr-27 01:00N 45°52' W 122°48'212186.8
2017-Apr-27 00:59N 46°10' W 123°03'14761.3
2017-Apr-27 00:58N 46°12' W 123°23'14268.7
2017-Apr-27 00:55N 46°10' W 123°03'40775.0
2017-Apr-27 00:52N 45°33' W 122°42'1952.5
2017-Apr-27 00:30N 45°52' W 122°48'212014.1
2017-Apr-27 00:29N 46°10' W 123°03'0 0.3
2017-Apr-27 00:28N 46°10' W 123°03'4028831.7
2017-Apr-27 00:28N 45°33' W 122°42'491042.3
2017-Apr-27 00:25N 46°12' W 123°23'3275.9
2017-Apr-27 00:00N 45°52' W 122°48'212068.6
2017-Apr-26 23:59N 46°10' W 123°03'14797.6
2017-Apr-26 23:58N 46°12' W 123°23'145582.6
2017-Apr-26 23:58N 46°10' W 123°03'4024026.4
2017-Apr-26 23:58N 45°33' W 122°42'1941.3
2017-Apr-26 23:30N 45°52' W 122°48'212068.6
2017-Apr-26 23:29N 46°10' W 123°03'0 0.3
2017-Apr-26 23:28N 46°10' W 123°03'4028831.7
2017-Apr-26 23:28N 45°33' W 122°42'49331.0
2017-Apr-26 23:19N 46°12' W 123°23'3299.6
2017-Apr-26 23:00N 45°52' W 122°48'19610.5
2017-Apr-26 22:58N 45°33' W 122°42'401399.4
2017-Apr-26 22:56N 46°10' W 123°03'0 0.1
2017-Apr-26 22:52N 46°10' W 123°03'14142.3
2017-Apr-26 22:46N 46°12' W 123°23'32118.0
2017-Apr-26 22:30N 45°52' W 122°48'212068.6
2017-Apr-26 22:29N 46°10' W 123°03'40556.5
2017-Apr-26 22:25N 45°33' W 122°42'491042.3
2017-Apr-26 22:22N 46°12' W 123°23'14271.6
2017-Apr-26 22:19N 46°10' W 123°03'0 0.0
2017-Apr-26 21:59N 46°10' W 123°03'14761.3
2017-Apr-26 21:58N 46°12' W 123°23'1416747.7
2017-Apr-26 21:58N 46°10' W 123°03'40762.7
2017-Apr-26 21:55N 45°33' W 122°42'191054.6
2017-Apr-26 21:54N 45°52' W 122°48'0 0.0
2017-Apr-26 21:30N 45°52' W 122°48'212068.6
2017-Apr-26 21:29N 46°10' W 123°03'14761.3
2017-Apr-26 21:28N 46°12' W 123°23'4915918.9
2017-Apr-26 21:28N 45°33' W 122°42'40828.5
2017-Apr-26 21:25N 46°10' W 123°03'0 0.0
2017-Apr-26 20:58N 46°10' W 123°03'211034.5
2017-Apr-26 20:57N 45°52' W 122°48'19605.2
2017-Apr-26 20:55N 45°33' W 122°42'40224.9
2017-Apr-26 20:44N 46°10' W 123°03'0 0.0
2017-Apr-26 20:29N 46°10' W 123°03'0 0.3
2017-Apr-26 20:28N 46°10' W 123°03'4013103.5
2017-Apr-26 20:28N 45°33' W 122°42'19284.0
2017-Apr-26 20:24N 45°52' W 122°48'0 0.0
2017-Apr-26 20:00N 45°52' W 122°48'212068.6
2017-Apr-26 19:59N 46°10' W 123°03'0 0.3
2017-Apr-26 19:58N 46°10' W 123°03'14140.7
2017-Apr-26 19:52N 46°12' W 123°23'4913469.8
2017-Apr-26 19:52N 45°33' W 122°42'1952.5
2017-Apr-26 19:30N 45°52' W 122°48'21758.0
2017-Apr-26 19:28N 46°10' W 123°03'4010297.0
2017-Apr-26 19:28N 45°33' W 122°42'401413.1
2017-Apr-26 19:26N 46°10' W 123°03'0 0.0
2017-Apr-26 18:59N 46°10' W 123°03'14761.3
2017-Apr-26 18:58N 46°12' W 123°23'4925015.4
2017-Apr-26 18:58N 45°33' W 122°42'19953.4
2017-Apr-26 18:57N 45°52' W 122°48'21268.6
2017-Apr-26 18:52N 46°10' W 123°03'2157.5
2017-Apr-26 18:30N 45°52' W 122°48'21715.5
2017-Apr-26 18:28N 46°10' W 123°03'0 0.9
2017-Apr-26 18:28N 46°10' W 123°03'14332.8
2017-Apr-26 18:25N 46°12' W 123°23'4913469.8
2017-Apr-26 18:25N 45°33' W 122°42'1946.2
2017-Apr-26 18:00N 45°52' W 122°48'321097.7
2017-Apr-26 17:58N 46°12' W 123°23'142184.6
2017-Apr-26 17:58N 46°10' W 123°03'40863.1
2017-Apr-26 17:55N 45°33' W 122°42'40848.0
2017-Apr-26 17:52N 46°10' W 123°03'2157.3
2017-Apr-26 17:30N 45°52' W 122°48'21750.4
2017-Apr-26 17:28N 46°10' W 123°03'1416747.7
2017-Apr-26 17:28N 46°12' W 123°23'142392.7
2017-Apr-26 17:28N 46°10' W 123°03'40852.9
2017-Apr-26 17:25N 45°33' W 122°42'4089.5
2017-Apr-26 16:58N 46°10' W 123°03'211007.3
2017-Apr-26 16:57N 45°52' W 122°48'321119.0
2017-Apr-26 16:55N 46°12' W 123°23'142093.6
2017-Apr-26 16:55N 46°10' W 123°03'40204.1
2017-Apr-26 16:43N 45°33' W 122°42'1988.5
2017-Apr-26 16:30N 45°52' W 122°48'21729.1
2017-Apr-26 16:28N 46°10' W 123°03'4014415.9
2017-Apr-26 16:28N 45°33' W 122°42'4013103.5
2017-Apr-26 16:28N 46°10' W 123°03'14316.0
2017-Apr-26 16:25N 46°12' W 123°23'3276.1
2017-Apr-26 16:00N 45°52' W 122°48'21758.0
2017-Apr-26 15:58N 46°10' W 123°03'1412560.8
2017-Apr-26 15:58N 46°12' W 123°23'4915918.9
2017-Apr-26 15:58N 45°33' W 122°42'4010295.6
2017-Apr-26 15:58N 46°10' W 123°03'2145.8
2017-Apr-26 15:30N 45°52' W 122°48'21758.0
2017-Apr-26 15:28N 46°10' W 123°03'0 0.8
2017-Apr-26 15:28N 46°10' W 123°03'14326.3
2017-Apr-26 15:25N 46°12' W 123°23'49912.0
2017-Apr-26 15:22N 45°33' W 122°42'1952.5
2017-Apr-26 15:00N 45°52' W 122°48'21750.5
2017-Apr-26 14:58N 46°10' W 123°03'4012013.2
2017-Apr-26 14:58N 45°33' W 122°42'4010295.6
2017-Apr-26 14:58N 46°10' W 123°03'0 0.0
2017-Apr-26 14:28N 46°10' W 123°03'0 0.8
2017-Apr-26 14:28N 46°10' W 123°03'14326.3
2017-Apr-26 14:25N 46°12' W 123°23'4913469.8
2017-Apr-26 14:25N 45°33' W 122°42'1972.1
2017-Apr-26 14:09N 45°52' W 122°48'0 0.0
2017-Apr-26 13:30N 45°52' W 122°48'21607.4
2017-Apr-26 13:28N 46°10' W 123°03'14335.0
2017-Apr-26 13:25N 46°12' W 123°23'146280.4
2017-Apr-26 13:25N 46°10' W 123°03'40754.7
2017-Apr-26 13:22N 45°33' W 122°42'40100.9
2017-Apr-26 12:58N 46°10' W 123°03'1425121.6
2017-Apr-26 12:58N 46°12' W 123°23'4921886.3
2017-Apr-26 12:58N 45°33' W 122°42'40746.7
2017-Apr-26 12:55N 46°10' W 123°03'211417.4
2017-Apr-26 12:54N 45°52' W 122°48'0 0.0
2017-Apr-26 12:30N 45°52' W 122°48'321119.0
2017-Apr-26 12:28N 46°12' W 123°23'141932.6
2017-Apr-26 12:28N 46°10' W 123°03'40274.0
2017-Apr-26 12:19N 45°33' W 122°42'40115.7
2017-Apr-26 11:58N 46°10' W 123°03'1450243.2
2017-Apr-26 11:58N 46°12' W 123°23'4914590.9
2017-Apr-26 11:58N 45°33' W 122°42'4010294.2
2017-Apr-26 11:58N 46°10' W 123°03'21185.8
2017-Apr-26 11:51N 45°52' W 122°48'0 0.0
2017-Apr-26 11:30N 45°52' W 122°48'21765.6
2017-Apr-26 11:28N 46°10' W 123°03'1416747.7
2017-Apr-26 11:28N 46°12' W 123°23'4914592.3
2017-Apr-26 11:28N 45°33' W 122°42'4013103.5
2017-Apr-26 11:28N 46°10' W 123°03'2145.7
2017-Apr-26 11:00N 45°52' W 122°48'21765.6
2017-Apr-26 10:58N 46°10' W 123°03'0 0.7
2017-Apr-26 10:58N 46°10' W 123°03'14332.8
2017-Apr-26 10:55N 46°12' W 123°23'49470.7
2017-Apr-26 10:49N 45°33' W 122°42'1960.6
2017-Apr-26 10:30N 45°52' W 122°48'21765.6
2017-Apr-26 10:28N 46°10' W 123°03'0 0.8
2017-Apr-26 10:28N 46°10' W 123°03'1498.3
2017-Apr-26 10:19N 46°12' W 123°23'499728.2
2017-Apr-26 10:19N 45°33' W 122°42'40116.0
2017-Apr-26 09:58N 46°10' W 123°03'148373.9
2017-Apr-26 09:58N 46°12' W 123°23'4921888.5
2017-Apr-26 09:58N 45°33' W 122°42'191054.6
2017-Apr-26 09:57N 45°52' W 122°48'21602.7
2017-Apr-26 09:55N 46°10' W 123°03'0 0.0
2017-Apr-26 09:28N 46°10' W 123°03'1425121.6
2017-Apr-26 09:28N 46°12' W 123°23'141861.0
2017-Apr-26 09:28N 46°10' W 123°03'21329.9
2017-Apr-26 09:24N 45°52' W 122°48'19146.8
2017-Apr-26 09:16N 45°33' W 122°42'1972.3
2017-Apr-26 09:00N 45°52' W 122°48'21750.5
2017-Apr-26 08:58N 46°10' W 123°03'1412560.8
2017-Apr-26 08:58N 46°12' W 123°23'142009.9
2017-Apr-26 08:58N 46°10' W 123°03'40416.5
2017-Apr-26 08:52N 45°33' W 122°42'1952.6
2017-Apr-26 08:30N 45°52' W 122°48'21773.3
2017-Apr-26 08:28N 46°10' W 123°03'0 0.7
2017-Apr-26 08:28N 46°10' W 123°03'40868.3
2017-Apr-26 08:25N 45°33' W 122°42'49501.7
2017-Apr-26 08:19N 46°12' W 123°23'1440.0
2017-Apr-26 07:58N 46°10' W 123°03'1416747.7
2017-Apr-26 07:58N 46°12' W 123°23'14245.1
2017-Apr-26 07:55N 46°10' W 123°03'211500.7
2017-Apr-26 07:54N 45°52' W 122°48'19105.9
2017-Apr-26 07:43N 45°33' W 122°42'1988.7
2017-Apr-26 07:30N 45°52' W 122°48'21273.4
2017-Apr-26 07:25N 46°10' W 123°03'409609.2
2017-Apr-26 07:25N 45°33' W 122°42'40746.7
2017-Apr-26 07:22N 46°10' W 123°03'14150.4
2017-Apr-26 07:16N 46°12' W 123°23'32117.9
2017-Apr-26 07:00N 45°52' W 122°48'21773.3
2017-Apr-26 06:58N 46°10' W 123°03'409610.6
2017-Apr-26 06:58N 45°33' W 122°42'4010295.6
2017-Apr-26 06:58N 46°10' W 123°03'14149.5
2017-Apr-26 06:52N 46°12' W 123°23'3286.3
2017-Apr-26 06:30N 45°52' W 122°48'21602.7
2017-Apr-26 06:28N 46°10' W 123°03'0 0.1
2017-Apr-26 06:25N 46°10' W 123°03'1425121.6
2017-Apr-26 06:25N 46°12' W 123°23'4913469.8
2017-Apr-26 06:25N 45°33' W 122°42'1946.4
2017-Apr-26 06:00N 45°52' W 122°48'321097.6
2017-Apr-26 05:58N 46°12' W 123°23'49921.5
2017-Apr-26 05:55N 45°33' W 122°42'409607.9
2017-Apr-26 05:55N 46°10' W 123°03'0 0.1
2017-Apr-26 05:52N 46°10' W 123°03'2157.0
2017-Apr-26 05:30N 45°52' W 122°48'21781.2
2017-Apr-26 05:28N 46°10' W 123°03'1416747.7
2017-Apr-26 05:28N 46°12' W 123°23'49239.2
2017-Apr-26 05:16N 45°33' W 122°42'40758.5
2017-Apr-26 05:13N 46°10' W 123°03'0 0.0
2017-Apr-26 04:58N 46°10' W 123°03'1410048.6
2017-Apr-26 04:58N 46°12' W 123°23'141932.6
2017-Apr-26 04:58N 46°10' W 123°03'21329.9
2017-Apr-26 04:54N 45°52' W 122°48'1968.6
2017-Apr-26 04:37N 45°33' W 122°42'40276.2
2017-Apr-26 04:28N 46°10' W 123°03'1410048.6
2017-Apr-26 04:28N 46°12' W 123°23'142093.6
2017-Apr-26 04:28N 46°10' W 123°03'21328.5
2017-Apr-26 04:24N 45°52' W 122°48'19146.5
2017-Apr-26 04:16N 45°33' W 122°42'1972.0
2017-Apr-26 04:00N 45°52' W 122°48'21797.5
2017-Apr-26 03:58N 46°10' W 123°03'1410048.6
2017-Apr-26 03:58N 46°12' W 123°23'14245.1
2017-Apr-26 03:55N 46°10' W 123°03'40873.6
2017-Apr-26 03:52N 45°33' W 122°42'1952.5
2017-Apr-26 03:30N 45°52' W 122°48'321077.2
2017-Apr-26 03:28N 46°12' W 123°23'4915918.9
2017-Apr-26 03:28N 45°33' W 122°42'4011087.6
2017-Apr-26 03:28N 46°10' W 123°03'0 0.1
2017-Apr-26 03:25N 46°10' W 123°03'2150.2
2017-Apr-26 03:00N 45°52' W 122°48'21773.3
2017-Apr-26 02:58N 46°10' W 123°03'1416747.7
2017-Apr-26 02:58N 46°12' W 123°23'4914592.3
2017-Apr-26 02:58N 45°33' W 122°42'4010295.6
2017-Apr-26 02:58N 46°10' W 123°03'2145.8
2017-Apr-26 02:30N 45°52' W 122°48'21781.2
2017-Apr-26 02:28N 46°10' W 123°03'0 0.7
2017-Apr-26 02:28N 46°10' W 123°03'14330.6
2017-Apr-26 02:25N 46°12' W 123°23'49473.2
2017-Apr-26 02:19N 45°33' W 122°42'1960.6
2017-Apr-26 02:00N 45°52' W 122°48'321129.9
2017-Apr-26 01:58N 46°12' W 123°23'141932.6
2017-Apr-26 01:58N 46°10' W 123°03'0 0.1
2017-Apr-26 01:55N 46°10' W 123°03'40260.6
2017-Apr-26 01:46N 45°33' W 122°42'1971.5
2017-Apr-26 01:30N 45°52' W 122°48'19615.8
2017-Apr-26 01:28N 45°33' W 122°42'409607.9
2017-Apr-26 01:28N 46°10' W 123°03'0 0.1
2017-Apr-26 01:25N 46°10' W 123°03'1410048.6
2017-Apr-26 01:25N 46°12' W 123°23'1431.1
2017-Apr-26 00:58N 46°10' W 123°03'407587.3
2017-Apr-26 00:58N 45°33' W 122°42'4012011.5
2017-Apr-26 00:58N 46°10' W 123°03'211417.4
2017-Apr-26 00:57N 45°52' W 122°48'321130.0
2017-Apr-26 00:55N 46°12' W 123°23'3275.9
2017-Apr-26 00:30N 45°52' W 122°48'19615.9
2017-Apr-26 00:28N 45°33' W 122°42'4012011.5
2017-Apr-26 00:28N 46°10' W 123°03'0 0.1
2017-Apr-26 00:25N 46°10' W 123°03'1450243.2
2017-Apr-26 00:25N 46°12' W 123°23'3275.7
2017-Apr-26 00:00N 45°52' W 122°48'21814.4
2017-Apr-25 23:58N 46°10' W 123°03'146280.4
2017-Apr-25 23:58N 46°12' W 123°23'49921.6
2017-Apr-25 23:55N 45°33' W 122°42'4010295.6
2017-Apr-25 23:55N 46°10' W 123°03'2151.3
2017-Apr-25 23:30N 45°52' W 122°48'32407.3
2017-Apr-25 23:25N 46°12' W 123°23'4914590.9
2017-Apr-25 23:25N 45°33' W 122°42'4014411.8
2017-Apr-25 23:25N 46°10' W 123°03'0 0.1
2017-Apr-25 23:22N 46°10' W 123°03'1434.7
2017-Apr-25 22:58N 46°12' W 123°23'4935018.1
2017-Apr-25 22:58N 45°33' W 122°42'408477.5
2017-Apr-25 22:58N 46°10' W 123°03'21328.5
2017-Apr-25 22:54N 45°52' W 122°48'21797.5
2017-Apr-25 22:52N 46°10' W 123°03'2157.0
2017-Apr-25 22:30N 45°52' W 122°48'321097.7
2017-Apr-25 22:28N 46°12' W 123°23'4917510.8
2017-Apr-25 22:28N 45°33' W 122°42'409609.2
2017-Apr-25 22:28N 46°10' W 123°03'0 0.2
2017-Apr-25 22:25N 46°10' W 123°03'2150.2
2017-Apr-25 22:00N 45°52' W 122°48'321077.2
2017-Apr-25 21:58N 46°12' W 123°23'4919456.4
2017-Apr-25 21:58N 45°33' W 122°42'40261.6
2017-Apr-25 21:49N 46°10' W 123°03'0 0.1
2017-Apr-25 21:46N 46°10' W 123°03'2177.6
2017-Apr-25 21:30N 45°52' W 122°48'21805.9
2017-Apr-25 21:28N 46°10' W 123°03'144186.9
2017-Apr-25 21:28N 46°12' W 123°23'4917510.8
2017-Apr-25 21:28N 45°33' W 122°42'40259.7
2017-Apr-25 21:19N 46°10' W 123°03'2167.7
2017-Apr-25 21:00N 45°52' W 122°48'21823.2
2017-Apr-25 20:58N 46°10' W 123°03'407207.9
2017-Apr-25 20:58N 45°33' W 122°42'491048.6
2017-Apr-25 20:55N 46°12' W 123°23'141794.5
2017-Apr-25 20:55N 46°10' W 123°03'2151.3
2017-Apr-25 20:30N 45°52' W 122°48'21823.2
2017-Apr-25 20:28N 46°10' W 123°03'145024.3
2017-Apr-25 20:28N 46°12' W 123°23'142009.9
2017-Apr-25 20:28N 46°10' W 123°03'40873.4
2017-Apr-25 20:25N 45°33' W 122°42'1946.2
2017-Apr-25 20:00N 45°52' W 122°48'21823.2
2017-Apr-25 19:58N 46°10' W 123°03'407586.2
2017-Apr-25 19:58N 45°33' W 122°42'409007.4
2017-Apr-25 19:58N 46°10' W 123°03'14324.2
2017-Apr-25 19:55N 46°12' W 123°23'49107.4
2017-Apr-25 19:28N 45°33' W 122°42'191038.5
2017-Apr-25 19:27N 45°52' W 122°48'21860.2
2017-Apr-25 19:25N 46°10' W 123°03'0 0.6
2017-Apr-25 19:25N 46°10' W 123°03'14149.5
2017-Apr-25 19:19N 46°12' W 123°23'3299.6
2017-Apr-25 19:00N 45°52' W 122°48'321141.2
2017-Apr-25 18:58N 46°12' W 123°23'4913469.8
2017-Apr-25 18:58N 45°33' W 122°42'40746.8
2017-Apr-25 18:55N 46°10' W 123°03'0 0.1
2017-Apr-25 18:49N 46°10' W 123°03'2165.5
2017-Apr-25 18:30N 45°52' W 122°48'321141.2
2017-Apr-25 18:28N 46°12' W 123°23'142009.9
2017-Apr-25 18:28N 46°10' W 123°03'0 0.1
2017-Apr-25 18:25N 46°10' W 123°03'40720.8
2017-Apr-25 18:22N 45°33' W 122°42'40101.7
2017-Apr-25 17:58N 46°10' W 123°03'406864.7
2017-Apr-25 17:58N 45°33' W 122°42'4010295.6
2017-Apr-25 17:58N 46°10' W 123°03'211471.9
2017-Apr-25 17:57N 45°52' W 122°48'321141.2
2017-Apr-25 17:55N 46°12' W 123°23'1431.2
2017-Apr-25 17:28N 46°10' W 123°03'406267.8
2017-Apr-25 17:28N 45°33' W 122°42'191070.8
2017-Apr-25 17:27N 45°52' W 122°48'321119.0
2017-Apr-25 17:25N 46°12' W 123°23'142283.9
2017-Apr-25 17:25N 46°10' W 123°03'0 0.0
2017-Apr-25 16:58N 46°10' W 123°03'0 0.6
2017-Apr-25 16:58N 46°10' W 123°03'211530.7
2017-Apr-25 16:57N 45°52' W 122°48'19599.8
2017-Apr-25 16:55N 45°33' W 122°42'49332.9
2017-Apr-25 16:46N 46°12' W 123°23'32117.7
2017-Apr-25 16:30N 45°52' W 122°48'21841.3
2017-Apr-25 16:28N 46°10' W 123°03'406006.6
2017-Apr-25 16:28N 45°33' W 122°42'491087.6
2017-Apr-25 16:25N 46°12' W 123°23'141674.9
2017-Apr-25 16:25N 46°10' W 123°03'2151.3
2017-Apr-25 16:00N 45°52' W 122°48'21870.0
2017-Apr-25 15:58N 46°10' W 123°03'405339.2
2017-Apr-25 15:58N 45°33' W 122°42'491054.9
2017-Apr-25 15:55N 46°12' W 123°23'141861.0
2017-Apr-25 15:55N 46°10' W 123°03'2151.3
2017-Apr-25 15:30N 45°52' W 122°48'21841.3
2017-Apr-25 15:28N 46°10' W 123°03'144567.6
2017-Apr-25 15:28N 46°12' W 123°23'142093.6
2017-Apr-25 15:28N 46°10' W 123°03'40858.0
2017-Apr-25 15:25N 45°33' W 122°42'4090.4
2017-Apr-25 14:58N 46°10' W 123°03'405766.3
2017-Apr-25 14:58N 45°33' W 122°42'4014413.8
2017-Apr-25 14:58N 46°10' W 123°03'211366.4
2017-Apr-25 14:57N 45°52' W 122°48'321188.1
2017-Apr-25 14:55N 46°12' W 123°23'3275.7
2017-Apr-25 14:30N 45°52' W 122°48'321130.0
2017-Apr-25 14:28N 46°12' W 123°23'141861.0
2017-Apr-25 14:28N 46°10' W 123°03'40275.1
2017-Apr-25 14:19N 45°33' W 122°42'40101.7
2017-Apr-25 13:55N 46°10' W 123°03'2150.0
2017-Apr-25 13:30N 45°52' W 122°48'19610.5
2017-Apr-25 13:28N 45°33' W 122°42'40918.2
2017-Apr-25 13:25N 46°10' W 123°03'0 0.6
2017-Apr-25 13:25N 46°10' W 123°03'14150.4
2017-Apr-25 13:19N 46°12' W 123°23'3299.5
2017-Apr-25 13:00N 45°52' W 122°48'21850.6
2017-Apr-25 12:58N 46°10' W 123°03'143140.2
2017-Apr-25 12:58N 46°12' W 123°23'4929184.7
2017-Apr-25 12:58N 45°33' W 122°42'409008.7
2017-Apr-25 12:58N 46°10' W 123°03'2145.8
2017-Apr-25 12:30N 45°52' W 122°48'21832.1
2017-Apr-25 12:28N 46°10' W 123°03'405543.8
2017-Apr-25 12:28N 45°33' W 122°42'4011086.0
2017-Apr-25 12:28N 46°10' W 123°03'14324.2
2017-Apr-25 12:25N 46°12' W 123°23'3276.1
2017-Apr-25 12:00N 45°52' W 122°48'21870.0
2017-Apr-25 11:58N 46°10' W 123°03'143140.2
2017-Apr-25 11:58N 46°12' W 123°23'4914592.3
2017-Apr-25 11:58N 45°33' W 122°42'40385.4
2017-Apr-25 11:52N 46°10' W 123°03'2158.5
2017-Apr-25 11:30N 45°52' W 122°48'21841.3
2017-Apr-25 11:28N 46°10' W 123°03'405339.2
2017-Apr-25 11:28N 45°33' W 122°42'4011087.6
2017-Apr-25 11:28N 46°10' W 123°03'14335.0
2017-Apr-25 11:25N 46°12' W 123°23'3267.7
2017-Apr-25 10:57N 45°52' W 122°48'21880.0
2017-Apr-25 10:55N 46°10' W 123°03'0 0.5
2017-Apr-25 10:55N 46°10' W 123°03'14328.4
2017-Apr-25 10:52N 46°12' W 123°23'4915918.9
2017-Apr-25 10:52N 45°33' W 122°42'49122.4
2017-Apr-25 10:28N 46°12' W 123°23'142283.9
2017-Apr-25 10:28N 46°10' W 123°03'21327.1
2017-Apr-25 10:24N 45°52' W 122°48'21870.0
2017-Apr-25 10:22N 46°10' W 123°03'405766.3
2017-Apr-25 10:22N 45°33' W 122°42'40101.9
2017-Apr-25 09:58N 46°10' W 123°03'143588.8
2017-Apr-25 09:58N 46°12' W 123°23'141932.6
2017-Apr-25 09:58N 46°10' W 123°03'211444.1
2017-Apr-25 09:57N 45°52' W 122°48'1950.7
2017-Apr-25 09:34N 45°33' W 122°42'40432.9
2017-Apr-25 09:28N 46°10' W 123°03'21832.1
2017-Apr-25 09:27N 45°52' W 122°48'21597.9
2017-Apr-25 09:25N 46°10' W 123°03'14322.1
2017-Apr-25 09:22N 46°12' W 123°23'4917510.8
2017-Apr-25 09:22N 45°33' W 122°42'1952.6
2017-Apr-25 09:00N 45°52' W 122°48'21841.3
2017-Apr-25 08:58N 46°10' W 123°03'14257.7
2017-Apr-25 08:55N 46°12' W 123°23'4915917.3
2017-Apr-25 08:55N 45°33' W 122°42'4012009.9
2017-Apr-25 08:55N 46°10' W 123°03'2151.3
2017-Apr-25 08:30N 45°52' W 122°48'321087.4
2017-Apr-25 08:28N 46°12' W 123°23'4919454.5
2017-Apr-25 08:28N 45°33' W 122°42'4011086.0
2017-Apr-25 08:28N 46°10' W 123°03'0 0.2
2017-Apr-25 08:25N 46°10' W 123°03'2150.1
2017-Apr-25 08:00N 45°52' W 122°48'321097.7
2017-Apr-25 07:58N 46°12' W 123°23'14146.1
2017-Apr-25 07:52N 46°10' W 123°03'0 0.5
2017-Apr-25 07:52N 46°10' W 123°03'0 0.0
2017-Apr-25 07:28N 46°10' W 123°03'211500.7
2017-Apr-25 07:27N 45°52' W 122°48'21284.6
2017-Apr-25 07:22N 46°10' W 123°03'143588.8
2017-Apr-25 07:22N 46°12' W 123°23'49470.7
2017-Apr-25 07:16N 45°33' W 122°42'49163.8
2017-Apr-25 06:58N 46°12' W 123°23'144186.9
2017-Apr-25 06:58N 46°10' W 123°03'0 1.8
2017-Apr-25 06:58N 46°10' W 123°03'21329.9
2017-Apr-25 06:54N 45°52' W 122°48'1958.3
2017-Apr-25 06:34N 45°33' W 122°42'49497.5
2017-Apr-25 06:28N 46°12' W 123°23'14260.3
2017-Apr-25 06:25N 46°10' W 123°03'0 2.4
2017-Apr-25 06:25N 46°10' W 123°03'211471.5
2017-Apr-25 06:24N 45°52' W 122°48'19600.0
2017-Apr-25 06:22N 45°33' W 122°42'1952.6
2017-Apr-25 06:00N 45°52' W 122°48'19610.4
2017-Apr-25 05:58N 45°33' W 122°42'4072069.2
2017-Apr-25 05:58N 46°10' W 123°03'14299.1
2017-Apr-25 05:55N 46°12' W 123°23'14246.3
2017-Apr-25 05:52N 46°10' W 123°03'2158.4
2017-Apr-25 05:30N 45°52' W 122°48'19605.2
2017-Apr-25 05:28N 45°33' W 122°42'409008.7
2017-Apr-25 05:28N 46°10' W 123°03'14335.0
2017-Apr-25 05:25N 46°12' W 123°23'14259.0
2017-Apr-25 05:22N 46°10' W 123°03'0 0.0
2017-Apr-25 04:58N 46°10' W 123°03'211214.9
2017-Apr-25 04:57N 45°52' W 122°48'32405.8
2017-Apr-25 04:52N 46°12' W 123°23'142009.9
2017-Apr-25 04:52N 46°10' W 123°03'40274.0
2017-Apr-25 04:43N 45°33' W 122°42'1988.5
2017-Apr-25 04:30N 45°52' W 122°48'321097.7
2017-Apr-25 04:28N 46°12' W 123°23'4917509.0
2017-Apr-25 04:28N 45°33' W 122°42'409607.9
2017-Apr-25 04:28N 46°10' W 123°03'0 0.1
2017-Apr-25 04:25N 46°10' W 123°03'2150.8
2017-Apr-25 04:00N 45°52' W 122°48'321108.3
2017-Apr-25 03:58N 46°12' W 123°23'144567.6
2017-Apr-25 03:58N 46°10' W 123°03'0 1.5
2017-Apr-25 03:58N 46°10' W 123°03'2145.8
2017-Apr-25 03:30N 45°52' W 122°48'321119.0
2017-Apr-25 03:28N 46°12' W 123°23'14243.9
2017-Apr-25 03:25N 46°10' W 123°03'0 0.1
2017-Apr-25 03:22N 46°10' W 123°03'40133.6
2017-Apr-25 03:04N 45°33' W 122°42'40399.3
2017-Apr-25 02:58N 46°10' W 123°03'211196.2
2017-Apr-25 02:57N 45°52' W 122°48'21597.9
2017-Apr-25 02:55N 46°10' W 123°03'14324.2
2017-Apr-25 02:52N 46°12' W 123°23'3276.0
2017-Apr-25 02:27N 45°52' W 122°48'321097.7
2017-Apr-25 02:25N 46°12' W 123°23'142093.6
2017-Apr-25 02:25N 46°10' W 123°03'0 0.1
2017-Apr-25 02:19N 46°10' W 123°03'0 0.0
2017-Apr-25 01:55N 46°10' W 123°03'14324.2
2017-Apr-25 01:52N 46°12' W 123°23'144567.6
2017-Apr-25 01:52N 46°10' W 123°03'211142.6
2017-Apr-25 01:51N 45°52' W 122°48'2155.8
2017-Apr-25 01:28N 46°10' W 123°03'211125.8
2017-Apr-25 01:27N 45°52' W 122°48'321141.2
2017-Apr-25 01:25N 46°12' W 123°23'141932.6
2017-Apr-25 01:25N 46°10' W 123°03'40868.3
2017-Apr-25 01:22N 45°33' W 122°42'0 0.0
2017-Apr-25 00:58N 45°33' W 122°42'191087.5
2017-Apr-25 00:57N 45°52' W 122°48'21911.4
2017-Apr-25 00:55N 46°10' W 123°03'14256.3
2017-Apr-25 00:52N 46°12' W 123°23'14240.4
2017-Apr-25 00:49N 46°10' W 123°03'40115.8
2017-Apr-25 00:28N 45°33' W 122°42'409609.2
2017-Apr-25 00:28N 46°10' W 123°03'211530.7
2017-Apr-25 00:27N 45°52' W 122°48'321130.0
2017-Apr-25 00:25N 46°12' W 123°23'14147.3
2017-Apr-25 00:19N 46°10' W 123°03'0 0.0
2017-Apr-24 23:58N 46°10' W 123°03'404804.6
2017-Apr-24 23:58N 45°33' W 122°42'4013101.7
2017-Apr-24 23:58N 46°10' W 123°03'211417.4
2017-Apr-24 23:57N 45°52' W 122°48'32251.1
2017-Apr-24 23:49N 46°12' W 123°23'1435.2
2017-Apr-24 23:25N 46°10' W 123°03'0 0.5
2017-Apr-24 23:25N 46°10' W 123°03'14150.9
2017-Apr-24 23:19N 46°12' W 123°23'32448.5
2017-Apr-24 23:15N 45°52' W 122°48'19234.3
2017-Apr-24 23:10N 45°33' W 122°42'0 0.0
2017-Apr-24 22:58N 45°33' W 122°42'401008.0
2017-Apr-24 22:55N 46°10' W 123°03'0 0.4
2017-Apr-24 22:55N 46°10' W 123°03'211444.1
2017-Apr-24 22:54N 45°52' W 122°48'3297.4
2017-Apr-24 22:34N 46°12' W 123°23'32446.7
2017-Apr-24 22:30N 45°52' W 122°48'21933.6
2017-Apr-24 22:28N 46°10' W 123°03'142392.5
2017-Apr-24 22:28N 46°12' W 123°23'4915918.9
2017-Apr-24 22:28N 45°33' W 122°42'4012011.5
2017-Apr-24 22:28N 46°10' W 123°03'2145.7
2017-Apr-24 22:00N 45°52' W 122°48'19610.5
2017-Apr-24 21:58N 45°33' W 122°42'4010295.6
2017-Apr-24 21:58N 46°10' W 123°03'0 0.2
2017-Apr-24 21:55N 46°10' W 123°03'14253.8
2017-Apr-24 21:52N 46°12' W 123°23'3286.1
2017-Apr-24 21:30N 45°52' W 122°48'321141.2
2017-Apr-24 21:28N 46°12' W 123°23'144186.9
2017-Apr-24 21:28N 46°10' W 123°03'0 0.0
2017-Apr-24 21:19N 46°10' W 123°03'40852.8
2017-Apr-24 21:16N 45°33' W 122°42'1972.1
2017-Apr-24 21:00N 45°52' W 122°48'21689.7
2017-Apr-24 20:58N 46°10' W 123°03'4036034.6
2017-Apr-24 20:58N 45°33' W 122°42'491042.2
2017-Apr-24 20:55N 46°12' W 123°23'14130.2
2017-Apr-24 20:49N 46°10' W 123°03'2167.6
2017-Apr-24 20:30N 45°52' W 122°48'321130.0
2017-Apr-24 20:28N 46°12' W 123°23'1410048.6
2017-Apr-24 20:28N 46°10' W 123°03'0 1.1
2017-Apr-24 20:28N 46°10' W 123°03'40272.5
2017-Apr-24 20:19N 45°33' W 122°42'1960.8
2017-Apr-24 20:00N 45°52' W 122°48'21696.0
2017-Apr-24 19:58N 46°10' W 123°03'14290.4
2017-Apr-24 19:55N 46°12' W 123°23'142184.6
2017-Apr-24 19:55N 46°10' W 123°03'40858.0
2017-Apr-24 19:52N 45°33' W 122°42'40105.7
2017-Apr-24 19:29N 46°10' W 123°03'401921.8
2017-Apr-24 19:28N 45°33' W 122°42'191054.6
2017-Apr-24 19:27N 45°52' W 122°48'321108.3
2017-Apr-24 19:25N 46°12' W 123°23'14137.3
2017-Apr-24 19:19N 46°10' W 123°03'2166.5
2017-Apr-24 19:00N 45°52' W 122°48'19621.4
2017-Apr-24 18:58N 45°33' W 122°42'401171.9
2017-Apr-24 18:56N 46°10' W 123°03'14123.5
2017-Apr-24 18:49N 46°12' W 123°23'148373.9
2017-Apr-24 18:49N 46°10' W 123°03'2157.6
2017-Apr-24 18:27N 45°52' W 122°48'19605.2
2017-Apr-24 18:25N 45°33' W 122°42'401181.5
2017-Apr-24 18:23N 46°10' W 123°03'141069.1
2017-Apr-24 18:22N 46°12' W 123°23'146280.4
2017-Apr-24 18:22N 46°10' W 123°03'0 0.0
2017-Apr-24 17:59N 46°10' W 123°03'14219.4
2017-Apr-24 17:55N 46°12' W 123°23'4912507.7
2017-Apr-24 17:55N 45°33' W 122°42'191087.5
2017-Apr-24 17:54N 45°52' W 122°48'21708.9
2017-Apr-24 17:52N 46°10' W 123°03'2157.5
2017-Apr-24 17:30N 45°52' W 122°48'321141.2
2017-Apr-24 17:28N 46°12' W 123°23'145024.3
2017-Apr-24 17:28N 46°10' W 123°03'0 0.2
2017-Apr-24 17:26N 46°10' W 123°03'402217.5
2017-Apr-24 17:25N 45°33' W 122°42'4092.4
2017-Apr-24 16:59N 46°10' W 123°03'141004.9
2017-Apr-24 16:58N 46°12' W 123°23'1410048.6
2017-Apr-24 16:58N 46°10' W 123°03'211078.3
2017-Apr-24 16:57N 45°52' W 122°48'0 0.0
2017-Apr-24 16:30N 45°52' W 122°48'321108.1
2017-Apr-24 16:28N 46°12' W 123°23'147177.6
2017-Apr-24 16:28N 46°10' W 123°03'0 0.0
2017-Apr-24 16:20N 46°10' W 123°03'4085.8
2017-Apr-24 15:52N 45°33' W 122°42'191054.6
2017-Apr-24 15:51N 45°52' W 122°48'211297.2
2017-Apr-24 15:50N 46°10' W 123°03'0 0.4
2017-Apr-24 15:49N 46°10' W 123°03'14288.8
2017-Apr-24 15:46N 46°12' W 123°23'32117.9
2017-Apr-24 15:30N 45°52' W 122°48'321164.2
2017-Apr-24 15:28N 46°12' W 123°23'4910300.5
2017-Apr-24 15:28N 45°33' W 122°42'401008.1
2017-Apr-24 15:25N 46°10' W 123°03'0 0.1
2017-Apr-24 15:23N 46°10' W 123°03'2155.3
2017-Apr-24 15:00N 45°52' W 122°48'211391.6
2017-Apr-24 14:59N 46°10' W 123°03'0 0.9
2017-Apr-24 14:58N 46°10' W 123°03'404003.8
2017-Apr-24 14:58N 45°33' W 122°42'491036.0
2017-Apr-24 14:55N 46°12' W 123°23'1431.9
2017-Apr-24 14:29N 46°10' W 123°03'141225.5
2017-Apr-24 14:28N 46°12' W 123°23'144567.6
2017-Apr-24 14:28N 46°10' W 123°03'21306.2
2017-Apr-24 14:24N 45°52' W 122°48'19600.0
2017-Apr-24 14:22N 45°33' W 122°42'4045.4
2017-Apr-24 13:29N 46°10' W 123°03'0 0.9
2017-Apr-24 13:28N 46°10' W 123°03'141932.4
2017-Apr-24 13:28N 46°12' W 123°23'321477.5
2017-Apr-24 13:27N 45°52' W 122°48'19605.2
2017-Apr-24 13:25N 45°33' W 122°42'1946.3
2017-Apr-24 13:00N 45°52' W 122°48'211342.8
2017-Apr-24 12:59N 46°10' W 123°03'0 1.0
2017-Apr-24 12:58N 46°10' W 123°03'141932.4
2017-Apr-24 12:58N 46°12' W 123°23'4915918.9
2017-Apr-24 12:58N 45°33' W 122°42'1941.4
2017-Apr-24 12:30N 45°52' W 122°48'211319.6
2017-Apr-24 12:29N 46°10' W 123°03'0 1.1
2017-Apr-24 12:29N 46°10' W 123°03'141794.4
2017-Apr-24 12:28N 46°12' W 123°23'49472.0
2017-Apr-24 12:22N 45°33' W 122°42'1952.5
2017-Apr-24 12:00N 45°52' W 122°48'321097.7
2017-Apr-24 11:58N 46°12' W 123°23'4935021.6
2017-Apr-24 11:58N 45°33' W 122°42'40471.0
2017-Apr-24 11:53N 46°10' W 123°03'0 0.1
2017-Apr-24 11:49N 46°10' W 123°03'2166.4
2017-Apr-24 11:30N 45°52' W 122°48'211391.6
2017-Apr-24 11:29N 46°10' W 123°03'40598.1
2017-Apr-24 11:25N 45°33' W 122°42'40853.0
2017-Apr-24 11:22N 46°10' W 123°03'14279.1
2017-Apr-24 11:19N 46°12' W 123°23'3299.8
2017-Apr-24 11:00N 45°52' W 122°48'21325.7
2017-Apr-24 10:56N 46°10' W 123°03'141116.6
2017-Apr-24 10:55N 46°12' W 123°23'147177.6
2017-Apr-24 10:55N 46°10' W 123°03'4016015.4
2017-Apr-24 10:55N 45°33' W 122°42'49109.0
2017-Apr-24 10:28N 46°12' W 123°23'1410048.6
2017-Apr-24 10:28N 46°10' W 123°03'21302.6
2017-Apr-24 10:24N 45°52' W 122°48'211366.7
2017-Apr-24 10:23N 46°10' W 123°03'402485.1
2017-Apr-24 10:22N 45°33' W 122°42'1952.5
2017-Apr-24 10:00N 45°52' W 122°48'321119.0
2017-Apr-24 09:58N 46°12' W 123°23'1450243.2
2017-Apr-24 09:58N 46°10' W 123°03'4014415.9
2017-Apr-24 09:58N 45°33' W 122°42'401181.5
2017-Apr-24 09:56N 46°10' W 123°03'2148.9
2017-Apr-24 09:30N 45°52' W 122°48'211391.6
2017-Apr-24 09:29N 46°10' W 123°03'0 1.0
2017-Apr-24 09:28N 46°10' W 123°03'403895.6
2017-Apr-24 09:28N 45°33' W 122°42'491054.8
2017-Apr-24 09:25N 46°12' W 123°23'3275.8
2017-Apr-24 09:00N 45°52' W 122°48'211391.2
2017-Apr-24 08:59N 46°10' W 123°03'0 1.1
2017-Apr-24 08:59N 46°10' W 123°03'14248.7
2017-Apr-24 08:55N 46°12' W 123°23'49190.9
2017-Apr-24 08:40N 45°33' W 122°42'40217.4
2017-Apr-24 08:29N 46°10' W 123°03'0 1.2
2017-Apr-24 08:29N 46°10' W 123°03'21729.1
2017-Apr-24 08:27N 45°52' W 122°48'321130.0
2017-Apr-24 08:25N 46°12' W 123°23'3275.9
2017-Apr-24 08:00N 45°52' W 122°48'211391.6
2017-Apr-24 07:59N 46°10' W 123°03'0 1.2
2017-Apr-24 07:59N 46°10' W 123°03'141674.8
2017-Apr-24 07:58N 46°12' W 123°23'49317.8
2017-Apr-24 07:49N 45°33' W 122°42'40120.0
2017-Apr-24 07:29N 46°10' W 123°03'0 0.5
2017-Apr-24 07:28N 46°10' W 123°03'211020.7
2017-Apr-24 07:27N 45°52' W 122°48'321130.0
2017-Apr-24 07:25N 46°12' W 123°23'4910944.2
2017-Apr-24 07:25N 45°33' W 122°42'1946.2
2017-Apr-24 07:00N 45°52' W 122°48'211342.8
2017-Apr-24 06:59N 46°10' W 123°03'141092.3
2017-Apr-24 06:58N 46°12' W 123°23'1450243.2
2017-Apr-24 06:58N 46°10' W 123°03'4012013.2
2017-Apr-24 06:58N 45°33' W 122°42'1941.4
2017-Apr-24 06:30N 45°52' W 122°48'211275.6
2017-Apr-24 06:29N 46°10' W 123°03'14220.4
2017-Apr-24 06:25N 46°12' W 123°23'14282.3
2017-Apr-24 06:22N 46°10' W 123°03'40387.5
2017-Apr-24 06:16N 45°33' W 122°42'1972.3
2017-Apr-24 06:00N 45°52' W 122°48'211391.2
2017-Apr-24 05:59N 46°10' W 123°03'0 0.1
2017-Apr-24 05:55N 46°10' W 123°03'40743.0
2017-Apr-24 05:52N 45°33' W 122°42'491042.2
2017-Apr-24 05:49N 46°12' W 123°23'1441.4
2017-Apr-24 05:29N 46°10' W 123°03'141046.8
2017-Apr-24 05:28N 46°12' W 123°23'321516.6
2017-Apr-24 05:27N 45°52' W 122°48'19236.7
2017-Apr-24 05:22N 45°33' W 122°42'40858.0
2017-Apr-24 05:19N 46°10' W 123°03'0 0.0
2017-Apr-24 04:59N 46°10' W 123°03'0 0.5
2017-Apr-24 04:58N 46°10' W 123°03'211007.3
2017-Apr-24 04:57N 45°52' W 122°48'1983.3
2017-Apr-24 04:43N 45°33' W 122°42'491024.0
2017-Apr-24 04:40N 46°12' W 123°23'1474.9
2017-Apr-24 04:29N 46°10' W 123°03'0 0.5
2017-Apr-24 04:28N 46°10' W 123°03'4013105.3
2017-Apr-24 04:28N 45°33' W 122°42'49503.2
2017-Apr-24 04:22N 46°12' W 123°23'1428.6
2017-Apr-24 03:53N 46°10' W 123°03'0 0.5
2017-Apr-24 03:52N 46°10' W 123°03'1450243.2
2017-Apr-24 03:52N 46°12' W 123°23'321477.7
2017-Apr-24 03:51N 45°52' W 122°48'0 0.0
2017-Apr-24 03:30N 45°52' W 122°48'211366.7
2017-Apr-24 03:29N 46°10' W 123°03'141092.3
2017-Apr-24 03:28N 46°12' W 123°23'14279.1
2017-Apr-24 03:25N 46°10' W 123°03'0 0.0
2017-Apr-24 02:59N 46°10' W 123°03'402485.1
2017-Apr-24 02:58N 45°33' W 122°42'191038.8
2017-Apr-24 02:57N 45°52' W 122°48'21773.3
2017-Apr-24 02:55N 46°10' W 123°03'1416747.7
2017-Apr-24 02:55N 46°12' W 123°23'1432.0
2017-Apr-24 02:29N 46°10' W 123°03'0 0.5
2017-Apr-24 02:28N 46°10' W 123°03'1412560.8
2017-Apr-24 02:28N 46°12' W 123°23'49317.2
2017-Apr-24 02:19N 45°33' W 122°42'19285.2
2017-Apr-24 02:15N 45°52' W 122°48'2176.4
2017-Apr-24 01:58N 46°10' W 123°03'1416747.7
2017-Apr-24 01:58N 46°12' W 123°23'14380.7
2017-Apr-24 01:56N 46°10' W 123°03'0 0.0
2017-Apr-24 01:22N 46°10' W 123°03'0 0.2
2017-Apr-24 01:20N 46°10' W 123°03'2174.9
2017-Apr-24 01:03N 45°52' W 122°48'21325.7
2017-Apr-24 00:59N 46°10' W 123°03'0 0.5
2017-Apr-24 00:58N 46°10' W 123°03'21969.1
2017-Apr-24 00:57N 45°52' W 122°48'19146.2
2017-Apr-24 00:49N 45°33' W 122°42'491061.3
2017-Apr-24 00:46N 46°12' W 123°23'32117.9
2017-Apr-24 00:30N 45°52' W 122°48'211342.8
2017-Apr-24 00:29N 46°10' W 123°03'0 0.5
2017-Apr-24 00:28N 46°10' W 123°03'148373.9
2017-Apr-24 00:28N 46°12' W 123°23'49477.1
2017-Apr-24 00:22N 45°33' W 122°42'40100.9
2017-Apr-23 23:58N 46°10' W 123°03'14273.1
2017-Apr-23 23:55N 46°12' W 123°23'4917510.8
2017-Apr-23 23:55N 45°33' W 122°42'191070.8
2017-Apr-23 23:54N 45°52' W 122°48'211391.6
2017-Apr-23 23:53N 46°10' W 123°03'0 0.0
2017-Apr-23 23:29N 46°10' W 123°03'21632.5
2017-Apr-23 23:27N 45°52' W 122°48'21789.2
2017-Apr-23 23:25N 46°10' W 123°03'40720.7
2017-Apr-23 23:22N 45°33' W 122°42'491054.8
2017-Apr-23 23:19N 46°12' W 123°23'3299.4
2017-Apr-23 23:00N 45°52' W 122°48'211530.7
2017-Apr-23 22:59N 46°10' W 123°03'0 0.4
2017-Apr-23 22:58N 46°10' W 123°03'4013105.3
2017-Apr-23 22:58N 45°33' W 122°42'491042.3
2017-Apr-23 22:55N 46°12' W 123°23'3275.8
2017-Apr-23 22:30N 45°52' W 122°48'211391.6
2017-Apr-23 22:29N 46°10' W 123°03'0 0.5
2017-Apr-23 22:28N 46°10' W 123°03'1412560.8
2017-Apr-23 22:28N 46°12' W 123°23'49470.7
2017-Apr-23 22:22N 45°33' W 122°42'1952.5
2017-Apr-23 22:00N 45°52' W 122°48'21781.2
2017-Apr-23 21:58N 46°10' W 123°03'1410048.6
2017-Apr-23 21:58N 46°12' W 123°23'14375.0
2017-Apr-23 21:56N 46°10' W 123°03'0 0.0
2017-Apr-23 21:29N 46°10' W 123°03'0 0.5
2017-Apr-23 21:28N 46°10' W 123°03'1412560.8
2017-Apr-23 21:28N 46°12' W 123°23'1425.4
2017-Apr-23 20:55N 46°10' W 123°03'1450243.2
2017-Apr-23 20:55N 46°12' W 123°23'49902.5
2017-Apr-23 20:52N 45°33' W 122°42'1960.8
2017-Apr-23 20:33N 45°52' W 122°48'211366.7
2017-Apr-23 20:32N 46°10' W 123°03'21622.3
2017-Apr-23 20:30N 45°52' W 122°48'211342.8
2017-Apr-23 20:29N 46°10' W 123°03'141046.8
2017-Apr-23 20:28N 46°12' W 123°23'4915917.3
2017-Apr-23 20:28N 45°33' W 122°42'40884.3
2017-Apr-23 20:25N 46°10' W 123°03'0 0.0
2017-Apr-23 19:59N 46°10' W 123°03'141025.4
2017-Apr-23 19:58N 46°12' W 123°23'4917510.8
2017-Apr-23 19:58N 45°33' W 122°42'191038.8
2017-Apr-23 19:57N 45°52' W 122°48'21805.9
2017-Apr-23 19:55N 46°10' W 123°03'2150.2
2017-Apr-23 19:30N 45°52' W 122°48'211444.1
2017-Apr-23 19:29N 46°10' W 123°03'0 0.5
2017-Apr-23 19:28N 46°10' W 123°03'1450243.2
2017-Apr-23 19:28N 46°12' W 123°23'4911673.9
2017-Apr-23 19:28N 45°33' W 122°42'1941.3
2017-Apr-23 19:00N 45°52' W 122°48'211366.7
2017-Apr-23 18:59N 46°10' W 123°03'0 0.5
2017-Apr-23 18:58N 46°10' W 123°03'409009.9
2017-Apr-23 18:58N 45°33' W 122°42'491048.6
2017-Apr-23 18:55N 46°12' W 123°23'49107.2
2017-Apr-23 18:28N 45°33' W 122°42'191070.8
2017-Apr-23 18:27N 45°52' W 122°48'321119.0
2017-Apr-23 18:25N 46°12' W 123°23'14377.8
2017-Apr-23 18:23N 46°10' W 123°03'0 0.1
2017-Apr-23 18:19N 46°10' W 123°03'40112.9
2017-Apr-23 17:58N 45°33' W 122°42'191122.6
2017-Apr-23 17:57N 45°52' W 122°48'211342.8
2017-Apr-23 17:56N 46°10' W 123°03'141046.8
2017-Apr-23 17:55N 46°12' W 123°23'14142.7
2017-Apr-23 17:49N 46°10' W 123°03'0 0.0
2017-Apr-23 17:29N 46°10' W 123°03'0 0.5
2017-Apr-23 17:28N 46°10' W 123°03'408008.8
2017-Apr-23 17:28N 45°33' W 122°42'191070.8
2017-Apr-23 17:27N 45°52' W 122°48'32248.4
2017-Apr-23 17:19N 46°12' W 123°23'3299.6
2017-Apr-23 17:00N 45°52' W 122°48'211342.4
2017-Apr-23 16:59N 46°10' W 123°03'0 0.1
2017-Apr-23 16:55N 46°10' W 123°03'1416747.7
2017-Apr-23 16:55N 46°12' W 123°23'49902.5
2017-Apr-23 16:52N 45°33' W 122°42'1952.6
2017-Apr-23 16:30N 45°52' W 122°48'211275.6
2017-Apr-23 16:29N 46°10' W 123°03'0 0.0
2017-Apr-23 16:20N 46°10' W 123°03'141395.6
2017-Apr-23 16:19N 46°12' W 123°23'49912.0
2017-Apr-23 16:16N 45°33' W 122°42'1972.2
2017-Apr-23 16:00N 45°52' W 122°48'19615.9
2017-Apr-23 15:58N 45°33' W 122°42'401092.1
2017-Apr-23 15:56N 46°10' W 123°03'141395.6
2017-Apr-23 15:55N 46°12' W 123°23'14377.8
2017-Apr-23 15:53N 46°10' W 123°03'2155.1
2017-Apr-23 15:30N 45°52' W 122°48'211366.7
2017-Apr-23 15:29N 46°10' W 123°03'402620.7
2017-Apr-23 15:28N 45°33' W 122°42'401092.1
2017-Apr-23 15:26N 46°10' W 123°03'141357.9
2017-Apr-23 15:25N 46°12' W 123°23'3275.9
2017-Apr-23 15:00N 45°52' W 122°48'211366.4
2017-Apr-23 14:59N 46°10' W 123°03'0 2.2
2017-Apr-23 14:59N 46°10' W 123°03'141288.3
2017-Apr-23 14:58N 46°12' W 123°23'4917510.8
2017-Apr-23 14:58N 45°33' W 122°42'4082.6
2017-Apr-23 14:29N 46°10' W 123°03'0 0.0
2017-Apr-23 13:59N 46°10' W 123°03'141092.3
2017-Apr-23 13:58N 46°12' W 123°23'4911672.7
2017-Apr-23 13:58N 45°33' W 122°42'19163.4
2017-Apr-23 13:51N 45°52' W 122°48'0 0.0
2017-Apr-23 13:30N 45°52' W 122°48'211443.7
2017-Apr-23 13:29N 46°10' W 123°03'141092.3
2017-Apr-23 13:28N 46°12' W 123°23'4911672.7
2017-Apr-23 13:28N 45°33' W 122°42'40462.0
2017-Apr-23 13:23N 46°10' W 123°03'0 0.0
2017-Apr-23 12:58N 46°10' W 123°03'144567.6
2017-Apr-23 12:58N 46°12' W 123°23'4917510.8
2017-Apr-23 12:58N 45°33' W 122°42'19163.4
2017-Apr-23 12:51N 45°52' W 122°48'21184.9
2017-Apr-23 12:44N 46°10' W 123°03'2190.6
2017-Apr-23 12:30N 45°52' W 122°48'211319.6
2017-Apr-23 12:29N 46°10' W 123°03'0 0.1
2017-Apr-23 12:25N 46°10' W 123°03'40717.2
2017-Apr-23 12:22N 45°33' W 122°42'491042.4
2017-Apr-23 12:19N 46°12' W 123°23'1440.2
2017-Apr-23 11:58N 46°10' W 123°03'146281.2
2017-Apr-23 11:58N 46°12' W 123°23'4914592.3
2017-Apr-23 11:58N 45°33' W 122°42'191070.5
2017-Apr-23 11:57N 45°52' W 122°48'21184.4
2017-Apr-23 11:50N 46°10' W 123°03'0 0.0
2017-Apr-23 11:29N 46°10' W 123°03'0 0.1
2017-Apr-23 11:25N 46°10' W 123°03'21880.0
2017-Apr-23 11:24N 45°52' W 122°48'32413.1
2017-Apr-23 11:19N 46°12' W 123°23'1441.4
2017-Apr-23 10:59N 46°10' W 123°03'0 0.6
2017-Apr-23 10:58N 46°10' W 123°03'144567.6
2017-Apr-23 10:58N 46°12' W 123°23'321496.9
2017-Apr-23 10:57N 45°52' W 122°48'3247.2
2017-Apr-23 10:16N 46°12' W 123°23'321536.8
2017-Apr-23 10:15N 45°52' W 122°48'211391.6
2017-Apr-23 10:14N 46°10' W 123°03'0 0.1
2017-Apr-23 10:10N 46°10' W 123°03'40713.7
2017-Apr-23 10:07N 45°33' W 122°42'40279.4
2017-Apr-23 09:58N 46°10' W 123°03'143588.8
2017-Apr-23 09:58N 46°12' W 123°23'321578.9
2017-Apr-23 09:57N 45°52' W 122°48'211391.6
2017-Apr-23 09:56N 46°10' W 123°03'40184.6
2017-Apr-23 09:43N 45°33' W 122°42'40164.0
2017-Apr-23 09:28N 46°10' W 123°03'144567.6
2017-Apr-23 09:28N 46°12' W 123°23'4915918.9
2017-Apr-23 09:28N 45°33' W 122°42'191054.6
2017-Apr-23 09:27N 45°52' W 122°48'211500.7
2017-Apr-23 09:26N 46°10' W 123°03'2148.8
2017-Apr-23 09:00N 45°52' W 122°48'211366.7
2017-Apr-23 08:59N 46°10' W 123°03'0 0.6
2017-Apr-23 08:58N 46°10' W 123°03'406267.8
2017-Apr-23 08:58N 45°33' W 122°42'491036.1
2017-Apr-23 08:55N 46°12' W 123°23'3276.1
2017-Apr-23 08:30N 45°52' W 122°48'211342.8
2017-Apr-23 08:29N 46°10' W 123°03'141116.6
2017-Apr-23 08:28N 46°12' W 123°23'4911672.7
2017-Apr-23 08:28N 45°33' W 122°42'40918.1
2017-Apr-23 08:25N 46°10' W 123°03'0 0.0
2017-Apr-23 07:59N 46°10' W 123°03'0 0.6
2017-Apr-23 07:58N 46°10' W 123°03'145582.6
2017-Apr-23 07:58N 46°12' W 123°23'4912507.7
2017-Apr-23 07:58N 45°33' W 122°42'1988.6
2017-Apr-23 07:45N 45°52' W 122°48'2177.3
2017-Apr-23 07:28N 46°10' W 123°03'405766.3
2017-Apr-23 07:28N 45°33' W 122°42'491061.3
2017-Apr-23 07:25N 46°12' W 123°23'321440.7
2017-Apr-23 07:24N 45°52' W 122°48'211471.9
2017-Apr-23 07:23N 46°10' W 123°03'0 0.0
2017-Apr-23 06:58N 46°10' W 123°03'144567.6
2017-Apr-23 06:58N 46°12' W 123°23'4914592.3
2017-Apr-23 06:58N 45°33' W 122°42'401181.5
2017-Apr-23 06:56N 46°10' W 123°03'21617.2
2017-Apr-23 06:54N 45°52' W 122°48'2151.2
2017-Apr-23 06:29N 46°10' W 123°03'0 0.6
2017-Apr-23 06:28N 46°10' W 123°03'144186.9
2017-Apr-23 06:28N 46°12' W 123°23'4915918.9
2017-Apr-23 06:28N 45°33' W 122°42'191070.8
2017-Apr-23 06:27N 45°52' W 122°48'0 0.0
2017-Apr-23 06:00N 45°52' W 122°48'211366.7
2017-Apr-23 05:59N 46°10' W 123°03'0 0.1
2017-Apr-23 05:55N 46°10' W 123°03'143588.8
2017-Apr-23 05:55N 46°12' W 123°23'4917509.0
2017-Apr-23 05:55N 45°33' W 122°42'4090.3
2017-Apr-23 05:28N 46°10' W 123°03'144186.9
2017-Apr-23 05:28N 46°12' W 123°23'4915917.3
2017-Apr-23 05:28N 45°33' W 122°42'191070.5
2017-Apr-23 05:27N 45°52' W 122°48'211391.6
2017-Apr-23 05:26N 46°10' W 123°03'2148.8
2017-Apr-23 05:00N 45°52' W 122°48'211391.6
2017-Apr-23 04:59N 46°10' W 123°03'0 0.7
2017-Apr-23 04:58N 46°10' W 123°03'143588.8
2017-Apr-23 04:58N 46°12' W 123°23'49907.2
2017-Apr-23 04:55N 45°33' W 122°42'1946.3
2017-Apr-23 04:30N 45°52' W 122°48'211417.4
2017-Apr-23 04:29N 46°10' W 123°03'0 0.6
2017-Apr-23 04:28N 46°10' W 123°03'143588.8
2017-Apr-23 04:28N 46°12' W 123°23'4914592.3
2017-Apr-23 04:28N 45°33' W 122°42'1941.3
2017-Apr-23 04:00N 45°52' W 122°48'211391.6
2017-Apr-23 03:59N 46°10' W 123°03'0 0.1
2017-Apr-23 03:52N 46°10' W 123°03'405543.8
2017-Apr-23 03:52N 45°33' W 122°42'49501.7
2017-Apr-23 03:46N 46°12' W 123°23'1447.2
2017-Apr-23 03:28N 46°10' W 123°03'405543.8
2017-Apr-23 03:28N 45°33' W 122°42'191038.5
2017-Apr-23 03:27N 45°52' W 122°48'321141.2
2017-Apr-23 03:25N 46°12' W 123°23'14380.7
2017-Apr-23 03:23N 46°10' W 123°03'2155.3
2017-Apr-23 03:00N 45°52' W 122°48'211779.9
2017-Apr-23 02:59N 46°10' W 123°03'1465.0
2017-Apr-23 02:46N 46°12' W 123°23'14293.8
2017-Apr-23 02:43N 46°10' W 123°03'40377.4
2017-Apr-23 02:37N 45°33' W 122°42'19164.2
2017-Apr-23 02:30N 45°52' W 122°48'321152.6
2017-Apr-23 02:28N 46°12' W 123°23'14366.8
2017-Apr-23 02:26N 46°10' W 123°03'0 0.5
2017-Apr-23 02:25N 46°10' W 123°03'407207.9
2017-Apr-23 02:25N 45°33' W 122°42'1946.1
2017-Apr-23 02:00N 45°52' W 122°48'211530.7
2017-Apr-23 01:59N 46°10' W 123°03'0 0.5
2017-Apr-23 01:58N 46°10' W 123°03'145024.3
2017-Apr-23 01:58N 46°12' W 123°23'3251.4
2017-Apr-23 01:21N 45°52' W 122°48'21870.0
2017-Apr-23 01:19N 46°10' W 123°03'143588.8
2017-Apr-23 01:19N 46°12' W 123°23'14380.7
2017-Apr-23 01:17N 46°10' W 123°03'40240.2
2017-Apr-23 01:07N 45°33' W 122°42'19163.4
2017-Apr-23 01:00N 45°52' W 122°48'211391.6
2017-Apr-23 00:59N 46°10' W 123°03'0 0.7
2017-Apr-23 00:58N 46°10' W 123°03'143349.5
2017-Apr-23 00:58N 46°12' W 123°23'49926.5
2017-Apr-23 00:55N 45°33' W 122°42'4092.2
2017-Apr-23 00:29N 46°10' W 123°03'0 0.7
2017-Apr-23 00:28N 46°10' W 123°03'143588.8
2017-Apr-23 00:28N 46°12' W 123°23'321496.9
2017-Apr-23 00:27N 45°52' W 122°48'19599.8
2017-Apr-23 00:25N 45°33' W 122°42'1946.3
2017-Apr-23 00:00N 45°52' W 122°48'211342.8
2017-Apr-22 23:59N 46°10' W 123°03'0 0.7
2017-Apr-22 23:58N 46°10' W 123°03'405147.8
2017-Apr-22 23:58N 45°33' W 122°42'491048.4
2017-Apr-22 23:55N 46°12' W 123°23'1431.9
2017-Apr-22 23:29N 46°10' W 123°03'0 0.7
2017-Apr-22 23:28N 46°10' W 123°03'21823.2
2017-Apr-22 23:27N 45°52' W 122°48'19627.0
2017-Apr-22 23:25N 45°33' W 122°42'491030.1
2017-Apr-22 23:22N 46°12' W 123°23'3286.1
2017-Apr-22 23:00N 45°52' W 122°48'21860.0
2017-Apr-22 22:58N 46°10' W 123°03'0 0.1
2017-Apr-22 22:56N 46°10' W 123°03'141196.3
2017-Apr-22 22:55N 46°12' W 123°23'49314.9
2017-Apr-22 22:46N 45°33' W 122°42'1972.1
2017-Apr-22 22:30N 45°52' W 122°48'211417.4
2017-Apr-22 22:29N 46°10' W 123°03'14219.4
2017-Apr-22 22:25N 46°12' W 123°23'49470.7
2017-Apr-22 22:19N 45°33' W 122°42'40948.4
2017-Apr-22 22:16N 46°10' W 123°03'2177.2
2017-Apr-22 22:00N 45°52' W 122°48'211366.7
2017-Apr-22 21:59N 46°10' W 123°03'0 0.7
2017-Apr-22 21:58N 46°10' W 123°03'143864.9
2017-Apr-22 21:58N 46°12' W 123°23'4910944.2
2017-Apr-22 21:58N 45°33' W 122°42'4082.9
2017-Apr-22 21:29N 46°10' W 123°03'0 0.6
2017-Apr-22 21:28N 46°10' W 123°03'142955.5
2017-Apr-22 21:28N 46°12' W 123°23'4917510.8
2017-Apr-22 21:28N 45°33' W 122°42'19164.2
2017-Apr-22 21:21N 45°52' W 122°48'2158.0
2017-Apr-22 20:59N 46°10' W 123°03'0 0.7
2017-Apr-22 20:58N 46°10' W 123°03'405147.8
2017-Apr-22 20:58N 45°33' W 122°42'491029.9
2017-Apr-22 20:55N 46°12' W 123°23'321496.9
2017-Apr-22 20:54N 45°52' W 122°48'0 0.0
2017-Apr-22 20:30N 45°52' W 122°48'211342.8
2017-Apr-22 20:29N 46°10' W 123°03'0 0.1
2017-Apr-22 20:25N 46°10' W 123°03'404804.6
2017-Apr-22 20:25N 45°33' W 122°42'49509.0
2017-Apr-22 20:19N 46°12' W 123°23'1440.3
2017-Apr-22 19:58N 46°10' W 123°03'404971.0
2017-Apr-22 19:58N 45°33' W 122°42'191087.5
2017-Apr-22 19:57N 45°52' W 122°48'21183.1
2017-Apr-22 19:50N 46°10' W 123°03'141322.3
2017-Apr-22 19:49N 46°12' W 123°23'3298.9
2017-Apr-22 19:30N 45°52' W 122°48'21324.3
2017-Apr-22 19:26N 46°10' W 123°03'0 0.7
2017-Apr-22 19:25N 46°10' W 123°03'143140.2
2017-Apr-22 19:25N 46°12' W 123°23'49316.7
2017-Apr-22 19:16N 45°33' W 122°42'40117.1
2017-Apr-22 18:55N 46°10' W 123°03'143349.5
2017-Apr-22 18:55N 46°12' W 123°23'4911673.9
2017-Apr-22 18:55N 45°33' W 122°42'191070.8
2017-Apr-22 18:54N 45°52' W 122°48'21327.1
2017-Apr-22 18:50N 46°10' W 123°03'2163.5
2017-Apr-22 18:30N 45°52' W 122°48'211417.4
2017-Apr-22 18:29N 46°10' W 123°03'0 0.7
2017-Apr-22 18:28N 46°10' W 123°03'40686.5
2017-Apr-22 18:25N 45°33' W 122°42'49509.0
2017-Apr-22 18:19N 46°12' W 123°23'3299.4
2017-Apr-22 18:00N 45°52' W 122°48'21290.0
2017-Apr-22 17:55N 46°10' W 123°03'142955.5
2017-Apr-22 17:55N 46°12' W 123°23'4911673.9
2017-Apr-22 17:55N 45°33' W 122°42'401201.2
2017-Apr-22 17:53N 46°10' W 123°03'0 0.0
2017-Apr-22 17:29N 46°10' W 123°03'402442.7
2017-Apr-22 17:28N 45°33' W 122°42'491023.9
2017-Apr-22 17:25N 46°12' W 123°23'321516.6
2017-Apr-22 17:24N 45°52' W 122°48'21922.4
2017-Apr-22 17:22N 46°10' W 123°03'2156.5
2017-Apr-22 17:00N 45°52' W 122°48'211319.6
2017-Apr-22 16:59N 46°10' W 123°03'0 0.8
2017-Apr-22 16:58N 46°10' W 123°03'404970.3
2017-Apr-22 16:58N 45°33' W 122°42'491054.8
2017-Apr-22 16:55N 46°12' W 123°23'3275.8
2017-Apr-22 16:30N 45°52' W 122°48'211471.9
2017-Apr-22 16:29N 46°10' W 123°03'141004.9
2017-Apr-22 16:28N 46°12' W 123°23'14314.0
2017-Apr-22 16:25N 46°10' W 123°03'404367.8
2017-Apr-22 16:25N 45°33' W 122°42'4092.4
2017-Apr-22 15:59N 46°10' W 123°03'0 0.8
2017-Apr-22 15:58N 46°10' W 123°03'142644.4
2017-Apr-22 15:58N 46°12' W 123°23'49902.6
2017-Apr-22 15:55N 45°33' W 122°42'191087.5
2017-Apr-22 15:54N 45°52' W 122°48'0 0.0
2017-Apr-22 15:30N 45°52' W 122°48'21933.6
2017-Apr-22 15:28N 46°10' W 123°03'404650.3
2017-Apr-22 15:28N 45°33' W 122°42'401191.2
2017-Apr-22 15:26N 46°10' W 123°03'141092.3
2017-Apr-22 15:25N 46°12' W 123°23'1431.9
2017-Apr-22 14:59N 46°10' W 123°03'0 0.9
2017-Apr-22 14:58N 46°10' W 123°03'21765.4
2017-Apr-22 14:57N 45°52' W 122°48'321152.5
2017-Apr-22 14:55N 46°12' W 123°23'49902.6
2017-Apr-22 14:52N 45°33' W 122°42'1952.5
2017-Apr-22 14:30N 45°52' W 122°48'21945.1
2017-Apr-22 14:28N 46°10' W 123°03'404368.4
2017-Apr-22 14:28N 45°33' W 122°42'491042.3
2017-Apr-22 14:25N 46°12' W 123°23'14380.7
2017-Apr-22 14:23N 46°10' W 123°03'0 0.0
2017-Apr-22 13:29N 46°10' W 123°03'0 0.9
2017-Apr-22 13:28N 46°10' W 123°03'404240.0
2017-Apr-22 13:28N 45°33' W 122°42'191070.8
2017-Apr-22 13:27N 45°52' W 122°48'321176.1
2017-Apr-22 13:25N 46°12' W 123°23'3275.7
2017-Apr-22 13:00N 45°52' W 122°48'211417.4
2017-Apr-22 12:59N 46°10' W 123°03'0 0.8
2017-Apr-22 12:58N 46°10' W 123°03'14255.0
2017-Apr-22 12:55N 46°12' W 123°23'4910943.1
2017-Apr-22 12:55N 45°33' W 122°42'1946.2
2017-Apr-22 12:30N 45°52' W 122°48'211366.7
2017-Apr-22 12:29N 46°10' W 123°03'0 0.0
2017-Apr-22 12:28N 46°10' W 123°03'143349.8
2017-Apr-22 12:28N 46°12' W 123°23'49884.4
2017-Apr-22 12:25N 45°33' W 122°42'1946.2
2017-Apr-22 12:00N 45°52' W 122°48'21327.0
2017-Apr-22 11:56N 46°10' W 123°03'141142.0
2017-Apr-22 11:55N 46°12' W 123°23'4910300.5
2017-Apr-22 11:55N 45°33' W 122°42'40446.3
2017-Apr-22 11:49N 46°10' W 123°03'2164.8
2017-Apr-22 11:30N 45°52' W 122°48'211391.2
2017-Apr-22 11:29N 46°10' W 123°03'0 0.9
2017-Apr-22 11:28N 46°10' W 123°03'404118.8
2017-Apr-22 11:28N 45°33' W 122°42'49500.3
2017-Apr-22 11:22N 46°12' W 123°23'1436.1
2017-Apr-22 10:59N 46°10' W 123°03'21622.3
2017-Apr-22 10:57N 45°52' W 122°48'21956.9
2017-Apr-22 10:55N 46°10' W 123°03'142283.8
2017-Apr-22 10:55N 46°12' W 123°23'4911673.9
2017-Apr-22 10:55N 45°33' W 122°42'4082.8
2017-Apr-22 10:26N 46°10' W 123°03'0 0.8
2017-Apr-22 10:25N 46°10' W 123°03'142955.5
2017-Apr-22 10:25N 46°12' W 123°23'4911673.9
2017-Apr-22 10:25N 45°33' W 122°42'191071.1
2017-Apr-22 10:24N 45°52' W 122°48'0 0.0
2017-Apr-22 10:00N 45°52' W 122°48'211417.4
2017-Apr-22 09:59N 46°10' W 123°03'14221.4
2017-Apr-22 09:55N 46°12' W 123°23'4912507.7
2017-Apr-22 09:55N 45°33' W 122°42'40987.4
2017-Apr-22 09:52N 46°10' W 123°03'0 0.0
2017-Apr-22 09:28N 46°10' W 123°03'21773.3
2017-Apr-22 09:27N 45°52' W 122°48'211319.6
2017-Apr-22 09:26N 46°10' W 123°03'14837.4
2017-Apr-22 09:25N 46°12' W 123°23'49121.7
2017-Apr-22 09:01N 45°33' W 122°42'401201.2
2017-Apr-22 08:59N 46°10' W 123°03'0 0.9
2017-Apr-22 08:58N 46°10' W 123°03'141225.4
2017-Apr-22 08:58N 46°12' W 123°23'321921.0
2017-Apr-22 08:57N 45°52' W 122°48'1983.3
2017-Apr-22 08:43N 45°33' W 122°42'1988.8
2017-Apr-22 08:30N 45°52' W 122°48'211366.7
2017-Apr-22 08:29N 46°10' W 123°03'0 0.9
2017-Apr-22 08:28N 46°10' W 123°03'14228.4
2017-Apr-22 08:25N 46°12' W 123°23'49491.9
2017-Apr-22 08:19N 45°33' W 122°42'1960.8
2017-Apr-22 08:00N 45°52' W 122°48'211391.2
2017-Apr-22 07:59N 46°10' W 123°03'40608.1
2017-Apr-22 07:55N 45°33' W 122°42'4943772.6
2017-Apr-22 07:55N 46°12' W 123°23'14156.0
2017-Apr-22 07:49N 46°10' W 123°03'2164.7
2017-Apr-22 07:30N 45°52' W 122°48'32392.0
2017-Apr-22 07:25N 46°12' W 123°23'14166.9
2017-Apr-22 07:20N 46°10' W 123°03'0 0.1
2017-Apr-22 07:16N 46°10' W 123°03'40153.9
2017-Apr-22 07:01N 45°33' W 122°42'401221.5
2017-Apr-22 06:59N 46°10' W 123°03'0 0.9
2017-Apr-22 06:58N 46°10' W 123°03'21758.0
2017-Apr-22 06:57N 45°52' W 122°48'32240.1
2017-Apr-22 06:49N 46°12' W 123°23'1442.0
2017-Apr-22 06:29N 46°10' W 123°03'0 1.0
2017-Apr-22 06:28N 46°10' W 123°03'21268.6
2017-Apr-22 06:24N 45°52' W 122°48'32388.0
2017-Apr-22 06:19N 46°12' W 123°23'49162.9
2017-Apr-22 06:01N 45°33' W 122°42'191054.2
2017-Apr-22 06:00N 45°52' W 122°48'211444.1
2017-Apr-22 05:59N 46°10' W 123°03'0 0.9
2017-Apr-22 05:58N 46°10' W 123°03'14124.4
2017-Apr-22 05:52N 46°12' W 123°23'49327.3
2017-Apr-22 05:43N 45°33' W 122°42'1989.1
2017-Apr-22 05:30N 45°52' W 122°48'211297.2
2017-Apr-22 05:29N 46°10' W 123°03'0 1.0
2017-Apr-22 05:28N 46°10' W 123°03'141168.5
2017-Apr-22 05:28N 46°12' W 123°23'49195.5
2017-Apr-22 05:13N 45°33' W 122°42'40171.4
2017-Apr-22 04:59N 46°10' W 123°03'14785.1
2017-Apr-22 04:58N 46°12' W 123°23'321921.0
2017-Apr-22 04:57N 45°52' W 122°48'211006.3
2017-Apr-22 04:55N 46°10' W 123°03'403695.0
2017-Apr-22 04:55N 45°33' W 122°42'4092.5
2017-Apr-22 04:29N 46°10' W 123°03'21602.5
2017-Apr-22 04:27N 45°52' W 122°48'21301.3
2017-Apr-22 04:23N 46°10' W 123°03'14227.3
2017-Apr-22 04:19N 46°12' W 123°23'49486.4
2017-Apr-22 04:13N 45°33' W 122°42'40171.6
2017-Apr-22 03:59N 46°10' W 123°03'0 1.0
2017-Apr-22 03:58N 46°10' W 123°03'21736.1
2017-Apr-22 03:57N 45°52' W 122°48'19605.2
2017-Apr-22 03:55N 45°33' W 122°42'4935021.6
2017-Apr-22 03:55N 46°12' W 123°23'3276.9
2017-Apr-22 03:30N 45°52' W 122°48'21981.5
2017-Apr-22 03:28N 46°10' W 123°03'0 0.0
2017-Apr-22 03:17N 46°10' W 123°03'14210.2
2017-Apr-22 03:13N 46°12' W 123°23'32146.6
2017-Apr-22 03:00N 45°52' W 122°48'211391.2
2017-Apr-22 02:59N 46°10' W 123°03'14810.4
2017-Apr-22 02:58N 46°12' W 123°23'14100.9
2017-Apr-22 02:49N 46°10' W 123°03'40189.9
2017-Apr-22 02:37N 45°33' W 122°42'19163.7
2017-Apr-22 02:30N 45°52' W 122°48'211417.4
2017-Apr-22 02:29N 46°10' W 123°03'0 0.1
2017-Apr-22 02:26N 46°10' W 123°03'40359.4
2017-Apr-22 02:19N 45°33' W 122°42'4987545.2
2017-Apr-22 02:19N 46°12' W 123°23'32100.8
2017-Apr-22 02:00N 45°52' W 122°48'211063.3
2017-Apr-22 01:59N 46°10' W 123°03'141168.4
2017-Apr-22 01:58N 46°12' W 123°23'14168.0
2017-Apr-22 01:53N 46°10' W 123°03'2155.3
2017-Apr-22 01:30N 45°52' W 122°48'211366.7
2017-Apr-22 01:29N 46°10' W 123°03'0 0.1
2017-Apr-22 01:26N 46°10' W 123°03'141046.7
2017-Apr-22 01:25N 46°12' W 123°23'3276.8
2017-Apr-22 01:00N 45°52' W 122°48'211034.5
2017-Apr-22 00:59N 46°10' W 123°03'0 0.1
2017-Apr-22 00:56N 46°10' W 123°03'14823.7
2017-Apr-22 00:55N 46°12' W 123°23'49983.8
2017-Apr-22 00:52N 45°33' W 122°42'1952.5
2017-Apr-22 00:30N 45°52' W 122°48'211444.1
2017-Apr-22 00:29N 46°10' W 123°03'14203.4
2017-Apr-22 00:25N 46°12' W 123°23'14372.2
2017-Apr-22 00:23N 46°10' W 123°03'40362.2
2017-Apr-22 00:16N 45°33' W 122°42'40141.5
2017-Apr-21 23:59N 46°10' W 123°03'0 1.0
2017-Apr-21 23:59N 46°10' W 123°03'21735.9
2017-Apr-21 23:57N 45°52' W 122°48'19146.3
2017-Apr-21 23:49N 45°33' W 122°42'49241.5
2017-Apr-21 23:37N 46°12' W 123°23'14107.8
2017-Apr-21 23:29N 46°10' W 123°03'0 2.0
2017-Apr-21 23:29N 46°10' W 123°03'21622.3
2017-Apr-21 23:27N 45°52' W 122°48'0 0.0
2017-Apr-21 23:00N 45°52' W 122°48'21343.3
2017-Apr-21 22:56N 46°10' W 123°03'0 1.7
2017-Apr-21 22:56N 46°10' W 123°03'40603.1
2017-Apr-21 22:52N 45°33' W 122°42'40104.5
2017-Apr-21 22:29N 46°10' W 123°03'21612.3
2017-Apr-21 22:27N 45°52' W 122°48'211780.4
2017-Apr-21 22:26N 46°10' W 123°03'14116.6
2017-Apr-21 22:19N 46°12' W 123°23'1441.8
2017-Apr-21 21:59N 46°10' W 123°03'21612.3
2017-Apr-21 21:57N 45°52' W 122°48'211701.2
2017-Apr-21 21:56N 46°10' W 123°03'1433.1
2017-Apr-21 21:31N 46°12' W 123°23'321889.5
2017-Apr-21 21:30N 45°52' W 122°48'21324.3
2017-Apr-21 21:26N 46°10' W 123°03'14823.7
2017-Apr-21 21:25N 46°12' W 123°23'14487.8
2017-Apr-21 21:23N 46°10' W 123°03'0 0.0
2017-Apr-21 20:59N 46°10' W 123°03'211562.4
2017-Apr-21 20:58N 45°52' W 122°48'32556.8
2017-Apr-21 20:55N 46°12' W 123°23'14105.3
2017-Apr-21 20:47N 46°10' W 123°03'1444.0
2017-Apr-21 20:28N 46°12' W 123°23'14422.2
2017-Apr-21 20:26N 46°10' W 123°03'212126.0
2017-Apr-21 20:25N 45°52' W 122°48'21584.4
2017-Apr-21 20:23N 46°10' W 123°03'2151.4
2017-Apr-21 19:58N 45°52' W 122°48'21531.5
2017-Apr-21 19:56N 46°10' W 123°03'14118.5
2017-Apr-21 19:49N 46°12' W 123°23'14177.5
2017-Apr-21 19:44N 46°10' W 123°03'0 0.0
2017-Apr-21 19:29N 46°10' W 123°03'0 1.4
2017-Apr-21 19:29N 46°10' W 123°03'14209.4
2017-Apr-21 19:25N 46°12' W 123°23'32738.8
2017-Apr-21 19:22N 45°52' W 122°48'2154.5
2017-Apr-21 18:59N 46°10' W 123°03'212126.0
2017-Apr-21 18:58N 45°52' W 122°48'21588.9
2017-Apr-21 18:56N 46°10' W 123°03'14115.8
2017-Apr-21 18:49N 46°12' W 123°23'49243.9
2017-Apr-21 18:37N 45°33' W 122°42'40300.9
2017-Apr-21 18:29N 46°10' W 123°03'211962.5
2017-Apr-21 18:28N 45°52' W 122°48'325011.3
2017-Apr-21 18:28N 46°12' W 123°23'14469.6
2017-Apr-21 18:26N 46°10' W 123°03'40332.9
2017-Apr-21 18:19N 45°33' W 122°42'40120.2
2017-Apr-21 17:59N 46°10' W 123°03'212014.1
2017-Apr-21 17:58N 45°52' W 122°48'21481.5
2017-Apr-21 17:56N 46°10' W 123°03'14225.3
2017-Apr-21 17:52N 46°12' W 123°23'49972.8
2017-Apr-21 17:49N 45°33' W 122°42'40120.0
2017-Apr-21 17:29N 46°10' W 123°03'0 1.3
2017-Apr-21 17:29N 46°10' W 123°03'21384.7
2017-Apr-21 17:25N 45°52' W 122°48'324802.5
2017-Apr-21 17:25N 46°12' W 123°23'1432.2
2017-Apr-21 16:59N 46°10' W 123°03'0 1.4
2017-Apr-21 16:59N 46°10' W 123°03'21380.9
2017-Apr-21 16:55N 45°52' W 122°48'32203.3
2017-Apr-21 16:46N 46°12' W 123°23'1449.6
2017-Apr-21 16:29N 46°10' W 123°03'0 1.4
2017-Apr-21 16:29N 46°10' W 123°03'213062.2
2017-Apr-21 16:28N 45°52' W 122°48'324802.5
2017-Apr-21 16:28N 46°12' W 123°23'49325.5
2017-Apr-21 16:19N 45°33' W 122°42'40120.0
2017-Apr-21 15:59N 46°10' W 123°03'0 1.7
2017-Apr-21 15:59N 46°10' W 123°03'14985.2
2017-Apr-21 15:58N 46°12' W 123°23'32225.6
2017-Apr-21 15:49N 45°52' W 122°48'1993.7
2017-Apr-21 15:37N 45°33' W 122°42'40300.3
2017-Apr-21 15:29N 46°10' W 123°03'14773.0
2017-Apr-21 15:28N 46°12' W 123°23'14380.6
2017-Apr-21 15:26N 46°10' W 123°03'213645.5
2017-Apr-21 15:25N 45°52' W 122°48'2148.3
2017-Apr-21 14:59N 46°10' W 123°03'0 2.2
2017-Apr-21 14:59N 46°10' W 123°03'213061.5
2017-Apr-21 14:58N 45°52' W 122°48'192784.9
2017-Apr-21 14:58N 45°33' W 122°42'49951.7
2017-Apr-21 14:55N 46°12' W 123°23'1432.1
2017-Apr-21 14:29N 46°10' W 123°03'14913.5
2017-Apr-21 14:28N 46°12' W 123°23'14422.2
2017-Apr-21 14:26N 46°10' W 123°03'212551.2
2017-Apr-21 14:25N 45°52' W 122°48'2122.6
2017-Apr-21 13:29N 46°10' W 123°03'0 1.8
2017-Apr-21 13:29N 46°10' W 123°03'403133.4
2017-Apr-21 13:28N 45°33' W 122°42'4929181.7
2017-Apr-21 13:28N 46°12' W 123°23'32748.4
2017-Apr-21 13:25N 45°52' W 122°48'2148.0
2017-Apr-21 12:59N 46°10' W 123°03'213189.8
2017-Apr-21 12:58N 45°52' W 122°48'193480.1
2017-Apr-21 12:58N 45°33' W 122°42'4987554.0
2017-Apr-21 12:58N 46°12' W 123°23'14415.3
2017-Apr-21 12:56N 46°10' W 123°03'0 0.0
2017-Apr-21 12:29N 46°10' W 123°03'0 1.8
2017-Apr-21 12:29N 46°10' W 123°03'213062.2
2017-Apr-21 12:28N 45°52' W 122°48'193163.7
2017-Apr-21 12:28N 45°33' W 122°42'49951.7
2017-Apr-21 12:25N 46°12' W 123°23'1432.4
2017-Apr-21 11:59N 46°10' W 123°03'211822.3
2017-Apr-21 11:58N 45°52' W 122°48'324268.9
2017-Apr-21 11:58N 46°12' W 123°23'14395.6
2017-Apr-21 11:56N 46°10' W 123°03'403066.8
2017-Apr-21 11:55N 45°33' W 122°42'4092.3
2017-Apr-21 11:29N 46°10' W 123°03'212468.9
2017-Apr-21 11:28N 45°52' W 122°48'21475.5
2017-Apr-21 11:26N 46°10' W 123°03'403203.5
2017-Apr-21 11:25N 45°33' W 122°42'49951.7
2017-Apr-21 11:22N 46°12' W 123°23'1436.2
2017-Apr-21 10:59N 46°10' W 123°03'403133.9
2017-Apr-21 10:58N 45°33' W 122°42'4935021.6
2017-Apr-21 10:58N 46°12' W 123°23'1476.5
2017-Apr-21 10:47N 46°10' W 123°03'21349.4
2017-Apr-21 10:43N 45°52' W 122°48'2188.8
2017-Apr-21 10:29N 46°10' W 123°03'402485.1
2017-Apr-21 10:28N 45°33' W 122°42'49936.4
2017-Apr-21 10:25N 46°12' W 123°23'14395.6
2017-Apr-21 10:23N 46°10' W 123°03'21371.6
2017-Apr-21 10:19N 45°52' W 122°48'2162.6
2017-Apr-21 09:59N 46°10' W 123°03'212068.6
2017-Apr-21 09:58N 45°52' W 122°48'19348.0
2017-Apr-21 09:55N 45°33' W 122°42'4935021.6
2017-Apr-21 09:55N 46°12' W 123°23'14507.5
2017-Apr-21 09:53N 46°10' W 123°03'0 0.0
2017-Apr-21 09:29N 46°10' W 123°03'0 1.1
2017-Apr-21 09:29N 46°10' W 123°03'211962.5
2017-Apr-21 09:28N 45°52' W 122°48'324268.9
2017-Apr-21 09:28N 46°12' W 123°23'1428.9
2017-Apr-21 08:59N 46°10' W 123°03'0 2.0
2017-Apr-21 08:59N 46°10' W 123°03'213062.2
2017-Apr-21 08:58N 45°52' W 122°48'32562.2
2017-Apr-21 08:55N 46°12' W 123°23'49326.1
2017-Apr-21 08:46N 45°33' W 122°42'40141.6
2017-Apr-21 08:29N 46°10' W 123°03'0 1.7
2017-Apr-21 08:29N 46°10' W 123°03'212944.5
2017-Apr-21 08:28N 45°52' W 122°48'324433.1
2017-Apr-21 08:28N 46°12' W 123°23'1429.0
2017-Apr-21 07:59N 46°10' W 123°03'0 0.1
2017-Apr-21 07:56N 46°10' W 123°03'14598.1
2017-Apr-21 07:55N 46°12' W 123°23'32345.1
2017-Apr-21 07:49N 45°52' W 122°48'19344.5
2017-Apr-21 07:46N 45°33' W 122°42'40141.3
2017-Apr-21 07:29N 46°10' W 123°03'0 2.4
2017-Apr-21 07:29N 46°10' W 123°03'141069.0
2017-Apr-21 07:28N 46°12' W 123°23'4958369.3
2017-Apr-21 07:28N 45°33' W 122°42'19206.5
2017-Apr-21 07:22N 45°52' W 122°48'2154.7
2017-Apr-21 06:59N 46°10' W 123°03'211962.5
2017-Apr-21 06:58N 45°52' W 122°48'323842.0
2017-Apr-21 06:58N 46°12' W 123°23'1449.2
2017-Apr-21 06:41N 46°10' W 123°03'0 0.0
2017-Apr-21 06:29N 46°10' W 123°03'0 1.5
2017-Apr-21 06:29N 46°10' W 123°03'21131.7
2017-Apr-21 06:19N 45°52' W 122°48'32104.2
2017-Apr-21 06:01N 46°12' W 123°23'14425.8
2017-Apr-21 05:59N 46°10' W 123°03'0 2.2
2017-Apr-21 05:59N 46°10' W 123°03'14966.2
2017-Apr-21 05:58N 46°12' W 123°23'32223.4
2017-Apr-21 05:49N 45°52' W 122°48'2162.6
2017-Apr-21 05:29N 46°10' W 123°03'0 0.1
2017-Apr-21 05:26N 46°10' W 123°03'212469.5
2017-Apr-21 05:25N 45°52' W 122°48'324802.5
2017-Apr-21 05:25N 46°12' W 123°23'49983.7
2017-Apr-21 05:22N 45°33' W 122°42'40104.5
2017-Apr-21 04:59N 46°10' W 123°03'0 2.0
2017-Apr-21 04:59N 46°10' W 123°03'402941.6
2017-Apr-21 04:58N 45°33' W 122°42'4929181.7
2017-Apr-21 04:58N 46°12' W 123°23'32225.1
2017-Apr-21 04:49N 45°52' W 122°48'2162.6
2017-Apr-21 04:29N 46°10' W 123°03'0 2.2
2017-Apr-21 04:29N 46°10' W 123°03'402942.0
2017-Apr-21 04:28N 45°33' W 122°42'19437.7
2017-Apr-21 04:25N 45°52' W 122°48'324268.9
2017-Apr-21 04:25N 46°12' W 123°23'1432.1
2017-Apr-21 03:59N 46°10' W 123°03'14866.3
2017-Apr-21 03:58N 46°12' W 123°23'14171.5
2017-Apr-21 03:53N 46°10' W 123°03'212014.1
2017-Apr-21 03:52N 45°52' W 122°48'2154.6
2017-Apr-21 03:29N 46°10' W 123°03'211913.4
2017-Apr-21 03:28N 45°52' W 122°48'21256.0
2017-Apr-21 03:23N 46°10' W 123°03'14570.9
2017-Apr-21 03:22N 46°12' W 123°23'1437.1
2017-Apr-21 02:59N 46°10' W 123°03'0 0.1
2017-Apr-21 02:56N 46°10' W 123°03'14210.2
2017-Apr-21 02:52N 46°12' W 123°23'1437.2
2017-Apr-21 02:29N 46°10' W 123°03'0 0.8
2017-Apr-21 02:29N 46°10' W 123°03'21193.8
2017-Apr-21 02:22N 45°52' W 122°48'32203.3
2017-Apr-21 02:13N 46°12' W 123°23'1461.8
2017-Apr-21 01:59N 46°10' W 123°03'14584.2
2017-Apr-21 01:58N 46°12' W 123°23'14422.2
2017-Apr-21 01:56N 46°10' W 123°03'0 0.0
2017-Apr-21 01:29N 46°10' W 123°03'0 0.9
2017-Apr-21 01:29N 46°10' W 123°03'211962.5
2017-Apr-21 01:28N 45°52' W 122°48'324433.1
2017-Apr-21 01:28N 46°12' W 123°23'49162.6
2017-Apr-21 01:10N 45°33' W 122°42'40217.7
2017-Apr-21 00:59N 46°10' W 123°03'0 3.6
2017-Apr-21 00:59N 46°10' W 123°03'212469.5
2017-Apr-21 00:58N 45°52' W 122°48'193314.3
2017-Apr-21 00:58N 45°33' W 122°42'4929184.7
2017-Apr-21 00:58N 46°12' W 123°23'1429.0
2017-Apr-21 00:29N 46°10' W 123°03'211962.5
2017-Apr-21 00:28N 45°52' W 122°48'193313.3
2017-Apr-21 00:28N 45°33' W 122°42'40472.6
2017-Apr-21 00:23N 46°10' W 123°03'14866.3
2017-Apr-21 00:22N 46°12' W 123°23'1436.3
2017-Apr-20 23:59N 46°10' W 123°03'21362.7
2017-Apr-20 23:55N 45°52' W 122°48'325010.7
2017-Apr-20 23:55N 46°12' W 123°23'14104.5
2017-Apr-20 23:47N 46°10' W 123°03'0 0.0
2017-Apr-20 23:29N 46°10' W 123°03'212639.9
2017-Apr-20 23:28N 45°52' W 122°48'324116.4
2017-Apr-20 23:28N 46°12' W 123°23'14425.8
2017-Apr-20 23:26N 46°10' W 123°03'40150.6
2017-Apr-20 23:10N 45°33' W 122°42'40216.5
2017-Apr-20 22:59N 46°10' W 123°03'402574.3
2017-Apr-20 22:58N 45°33' W 122°42'19440.5
2017-Apr-20 22:55N 45°52' W 122°48'21238.4
2017-Apr-20 22:50N 46°10' W 123°03'14785.1
2017-Apr-20 22:49N 46°12' W 123°23'3293.4
2017-Apr-20 22:28N 45°52' W 122°48'193164.7
2017-Apr-20 22:28N 45°33' W 122°42'401172.0
2017-Apr-20 22:26N 46°10' W 123°03'14866.3
2017-Apr-20 22:25N 46°12' W 123°23'14425.8
2017-Apr-20 22:23N 46°10' W 123°03'0 0.0
2017-Apr-20 21:59N 46°10' W 123°03'212469.5
2017-Apr-20 21:58N 45°52' W 122°48'192900.1
2017-Apr-20 21:58N 45°33' W 122°42'401221.5
2017-Apr-20 21:56N 46°10' W 123°03'14204.3
2017-Apr-20 21:52N 46°12' W 123°23'1436.5
2017-Apr-20 21:29N 46°10' W 123°03'0 4.3
2017-Apr-20 21:29N 46°10' W 123°03'212469.5
2017-Apr-20 21:28N 45°52' W 122°48'19348.0
2017-Apr-20 21:25N 45°33' W 122°42'4925015.4
2017-Apr-20 21:25N 46°12' W 123°23'3272.4
2017-Apr-20 20:58N 45°52' W 122°48'324115.9
2017-Apr-20 20:58N 46°12' W 123°23'14169.2
2017-Apr-20 20:53N 46°10' W 123°03'0 0.1
2017-Apr-20 20:50N 46°10' W 123°03'40618.6
2017-Apr-20 20:46N 45°33' W 122°42'40141.0
2017-Apr-20 20:29N 46°10' W 123°03'0 5.4
2017-Apr-20 20:29N 46°10' W 123°03'212392.4
2017-Apr-20 20:28N 45°52' W 122°48'324433.1
2017-Apr-20 20:28N 46°12' W 123°23'49326.1
2017-Apr-20 20:19N 45°33' W 122°42'1956.3
2017-Apr-20 19:58N 45°52' W 122°48'192899.2
2017-Apr-20 19:58N 45°33' W 122°42'4987545.2
2017-Apr-20 19:58N 46°12' W 123°23'14169.2
2017-Apr-20 19:53N 46°10' W 123°03'0 0.1
2017-Apr-20 19:50N 46°10' W 123°03'0 0.0
2017-Apr-20 19:29N 46°10' W 123°03'402528.7
2017-Apr-20 19:28N 45°33' W 122°42'40471.1
2017-Apr-20 19:23N 46°10' W 123°03'14212.9
2017-Apr-20 19:19N 46°12' W 123°23'32343.0
2017-Apr-20 19:13N 45°52' W 122°48'2188.6
2017-Apr-20 18:59N 46°10' W 123°03'0 7.2
2017-Apr-20 18:59N 46°10' W 123°03'212319.9
2017-Apr-20 18:58N 45°52' W 122°48'193314.3
2017-Apr-20 18:58N 45°33' W 122°42'4935021.6
2017-Apr-20 18:58N 46°12' W 123°23'1429.0
2017-Apr-20 18:29N 46°10' W 123°03'402402.0
2017-Apr-20 18:28N 45°33' W 122°42'19437.6
2017-Apr-20 18:25N 45°52' W 122°48'32203.3
2017-Apr-20 18:16N 46°12' W 123°23'1449.5
2017-Apr-20 17:59N 46°10' W 123°03'021.6
2017-Apr-20 17:59N 46°10' W 123°03'402529.1
2017-Apr-20 17:58N 45°33' W 122°42'19440.5
2017-Apr-20 17:55N 45°52' W 122°48'324116.4
2017-Apr-20 17:55N 46°12' W 123°23'3272.4
2017-Apr-20 17:28N 45°52' W 122°48'192783.2
2017-Apr-20 17:28N 45°33' W 122°42'401211.1
2017-Apr-20 17:26N 46°10' W 123°03'14810.4
2017-Apr-20 17:25N 46°12' W 123°23'14104.7
2017-Apr-20 17:17N 46°10' W 123°03'1429.9
2017-Apr-20 16:49N 46°12' W 123°23'14415.2
2017-Apr-20 16:47N 46°10' W 123°03'0 0.1
2017-Apr-20 16:44N 46°10' W 123°03'0 0.0
2017-Apr-20 16:29N 46°10' W 123°03'14205.9
2017-Apr-20 16:25N 46°12' W 123°23'32345.1
2017-Apr-20 16:19N 45°52' W 122°48'19124.3
2017-Apr-20 16:10N 45°33' W 122°42'40218.1
2017-Apr-20 15:59N 46°10' W 123°03'021.6
2017-Apr-20 15:59N 46°10' W 123°03'219569.5
2017-Apr-20 15:59N 45°52' W 122°48'32494.7
2017-Apr-20 15:55N 46°12' W 123°23'49983.8
2017-Apr-20 15:52N 45°33' W 122°42'40104.4
2017-Apr-20 15:29N 46°10' W 123°03'212069.1
2017-Apr-20 15:28N 45°52' W 122°48'32567.8
2017-Apr-20 15:25N 46°12' W 123°23'14418.7
2017-Apr-20 15:23N 46°10' W 123°03'40345.6
2017-Apr-20 15:16N 45°33' W 122°42'40140.7
2017-Apr-20 14:59N 46°10' W 123°03'021.6
2017-Apr-20 14:59N 46°10' W 123°03'21356.1
2017-Apr-20 14:55N 45°52' W 122°48'324433.1
2017-Apr-20 14:55N 46°12' W 123°23'49195.4
2017-Apr-20 14:40N 45°33' W 122°42'4058.5
2017-Apr-20 13:59N 46°10' W 123°03'21359.3
2017-Apr-20 13:55N 45°52' W 122°48'192783.2
2017-Apr-20 13:55N 45°33' W 122°42'4958363.5
2017-Apr-20 13:55N 46°12' W 123°23'14105.1
2017-Apr-20 13:47N 46°10' W 123°03'0 0.0
2017-Apr-20 13:29N 46°10' W 123°03'212068.6
2017-Apr-20 13:28N 45°52' W 122°48'324269.4
2017-Apr-20 13:28N 46°12' W 123°23'14169.8
2017-Apr-20 13:23N 46°10' W 123°03'40151.0
2017-Apr-20 13:07N 45°33' W 122°42'40297.2
2017-Apr-20 12:59N 46°10' W 123°03'14866.3
2017-Apr-20 12:58N 46°12' W 123°23'4987545.2
2017-Apr-20 12:58N 45°33' W 122°42'19443.2
2017-Apr-20 12:55N 45°52' W 122°48'21535.2
2017-Apr-20 12:53N 46°10' W 123°03'0 0.0
2017-Apr-20 12:29N 46°10' W 123°03'402217.5
2017-Apr-20 12:28N 45°33' W 122°42'4943777.0
2017-Apr-20 12:28N 46°12' W 123°23'14169.2
2017-Apr-20 12:23N 46°10' W 123°03'212187.3
2017-Apr-20 12:22N 45°52' W 122°48'2154.6
2017-Apr-20 11:59N 46°10' W 123°03'010.8
2017-Apr-20 11:59N 46°10' W 123°03'212068.6
2017-Apr-20 11:58N 45°52' W 122°48'193480.1
2017-Apr-20 11:58N 45°33' W 122°42'4935021.6
2017-Apr-20 11:58N 46°12' W 123°23'1428.9
2017-Apr-20 11:29N 46°10' W 123°03'0 0.7
2017-Apr-20 11:28N 46°10' W 123°03'405338.5
2017-Apr-20 11:28N 45°33' W 122°42'4987545.2
2017-Apr-20 11:28N 46°12' W 123°23'32729.5
2017-Apr-20 11:25N 45°52' W 122°48'2147.5
2017-Apr-20 10:58N 46°10' W 123°03'21402.9
2017-Apr-20 10:55N 45°52' W 122°48'324802.5
2017-Apr-20 10:55N 46°12' W 123°23'14425.8
2017-Apr-20 10:53N 46°10' W 123°03'40600.6
2017-Apr-20 10:49N 45°33' W 122°42'1956.2
2017-Apr-20 10:28N 45°52' W 122°48'21550.6
2017-Apr-20 10:26N 46°10' W 123°03'0 0.8
2017-Apr-20 10:25N 46°10' W 123°03'141322.2
2017-Apr-20 10:25N 46°12' W 123°23'49163.0
2017-Apr-20 10:07N 45°33' W 122°42'40298.4
2017-Apr-20 09:59N 46°10' W 123°03'0 0.8
2017-Apr-20 09:58N 46°10' W 123°03'2110933.9
2017-Apr-20 09:58N 45°52' W 122°48'324432.5
2017-Apr-20 09:58N 46°12' W 123°23'49983.8
2017-Apr-20 09:55N 45°33' W 122°42'1943.6
2017-Apr-20 09:28N 45°52' W 122°48'324116.4
2017-Apr-20 09:28N 46°12' W 123°23'14425.8
2017-Apr-20 09:26N 46°10' W 123°03'402528.7
2017-Apr-20 09:25N 45°33' W 122°42'40967.5
2017-Apr-20 09:22N 46°10' W 123°03'0 0.0
2017-Apr-20 08:59N 46°10' W 123°03'212391.8
2017-Apr-20 08:59N 45°52' W 122°48'213328.5
2017-Apr-20 08:58N 46°10' W 123°03'14297.3
2017-Apr-20 08:56N 46°12' W 123°23'49118.0
2017-Apr-20 08:31N 45°33' W 122°42'491636.5
2017-Apr-20 08:29N 46°12' W 123°23'143865.1
2017-Apr-20 08:29N 46°10' W 123°03'0 0.7
2017-Apr-20 08:28N 46°10' W 123°03'2110936.5
2017-Apr-20 08:28N 45°52' W 122°48'19346.3
2017-Apr-20 08:25N 45°33' W 122°42'4092.4
2017-Apr-20 07:59N 46°10' W 123°03'212069.1
2017-Apr-20 07:58N 45°52' W 122°48'196960.1
2017-Apr-20 07:58N 45°33' W 122°42'4919456.4
2017-Apr-20 07:58N 46°12' W 123°23'14395.6
2017-Apr-20 07:56N 46°10' W 123°03'0 0.0
2017-Apr-20 07:29N 46°10' W 123°03'212014.1
2017-Apr-20 07:28N 45°52' W 122°48'215468.3
2017-Apr-20 07:28N 46°10' W 123°03'144186.9
2017-Apr-20 07:28N 46°12' W 123°23'3265.0
2017-Apr-20 06:58N 45°52' W 122°48'21531.4
2017-Apr-20 06:56N 46°10' W 123°03'14851.6
2017-Apr-20 06:55N 46°12' W 123°23'14344.1
2017-Apr-20 06:52N 46°10' W 123°03'0 0.0
2017-Apr-20 06:28N 46°10' W 123°03'218506.2
2017-Apr-20 06:28N 45°52' W 122°48'21531.5
2017-Apr-20 06:26N 46°10' W 123°03'14823.7
2017-Apr-20 06:25N 46°12' W 123°23'1432.2
2017-Apr-20 05:59N 46°10' W 123°03'0 0.9
2017-Apr-20 05:58N 46°10' W 123°03'215102.5
2017-Apr-20 05:58N 45°52' W 122°48'32570.5
2017-Apr-20 05:55N 46°12' W 123°23'1432.2
2017-Apr-20 05:29N 46°10' W 123°03'0 6.3
2017-Apr-20 05:28N 46°10' W 123°03'141326.1
2017-Apr-20 05:28N 46°12' W 123°23'32748.4
2017-Apr-20 05:25N 45°52' W 122°48'1993.6
2017-Apr-20 05:13N 45°33' W 122°42'40171.8
2017-Apr-20 04:59N 46°10' W 123°03'0 6.3
2017-Apr-20 04:58N 46°10' W 123°03'215461.5
2017-Apr-20 04:58N 45°52' W 122°48'324801.9
2017-Apr-20 04:58N 46°12' W 123°23'49194.8
2017-Apr-20 04:43N 45°33' W 122°42'40171.6
2017-Apr-20 04:29N 46°10' W 123°03'212186.8
2017-Apr-20 04:28N 45°52' W 122°48'192899.2
2017-Apr-20 04:28N 45°33' W 122°42'4929181.7
2017-Apr-20 04:28N 46°12' W 123°23'14359.9
2017-Apr-20 04:25N 46°10' W 123°03'0 0.1
2017-Apr-20 03:59N 46°10' W 123°03'0 0.9
2017-Apr-20 03:58N 46°10' W 123°03'404368.4
2017-Apr-20 03:58N 45°33' W 122°42'19443.3
2017-Apr-20 03:55N 45°52' W 122°48'325239.1
2017-Apr-20 03:55N 46°12' W 123°23'1432.1
2017-Apr-20 03:29N 46°10' W 123°03'212126.0
2017-Apr-20 03:28N 45°52' W 122°48'21458.4
2017-Apr-20 03:25N 46°10' W 123°03'141288.3
2017-Apr-20 03:25N 46°12' W 123°23'49494.6
2017-Apr-20 03:19N 45°33' W 122°42'40119.9
2017-Apr-20 02:59N 46°10' W 123°03'0 1.0
2017-Apr-20 02:58N 46°10' W 123°03'214784.7
2017-Apr-20 02:58N 45°52' W 122°48'32559.5
2017-Apr-20 02:55N 46°12' W 123°23'49490.5
2017-Apr-20 02:49N 45°33' W 122°42'40104.6
2017-Apr-20 02:26N 46°10' W 123°03'0 0.1
2017-Apr-20 02:22N 46°10' W 123°03'214784.7
2017-Apr-20 02:22N 45°52' W 122°48'324116.4
2017-Apr-20 02:22N 46°12' W 123°23'491006.3
2017-Apr-20 02:19N 45°33' W 122°42'40120.0
2017-Apr-20 01:59N 46°10' W 123°03'0 0.9
2017-Apr-20 01:58N 46°10' W 123°03'21394.6
2017-Apr-20 01:55N 45°52' W 122°48'193314.3
2017-Apr-20 01:55N 45°33' W 122°42'4943777.0
2017-Apr-20 01:55N 46°12' W 123°23'1432.3
2017-Apr-20 01:29N 46°10' W 123°03'0 0.8
2017-Apr-20 01:28N 46°10' W 123°03'215887.5
2017-Apr-20 01:28N 45°52' W 122°48'19349.9
2017-Apr-20 01:25N 45°33' W 122°42'4958369.3
2017-Apr-20 01:25N 46°12' W 123°23'1432.2
2017-Apr-20 00:59N 46°10' W 123°03'0 1.0
2017-Apr-20 00:58N 46°10' W 123°03'141435.5
2017-Apr-20 00:58N 46°12' W 123°23'32724.9
2017-Apr-20 00:55N 45°52' W 122°48'2148.3
2017-Apr-20 00:29N 46°10' W 123°03'0 1.0
2017-Apr-20 00:28N 46°10' W 123°03'21394.6
2017-Apr-20 00:25N 45°52' W 122°48'32556.8
2017-Apr-20 00:22N 46°12' W 123°23'1435.9
2017-Apr-19 23:58N 46°10' W 123°03'215468.3
2017-Apr-19 23:58N 45°52' W 122°48'324268.9
2017-Apr-19 23:58N 46°12' W 123°23'14170.3
2017-Apr-19 23:53N 46°10' W 123°03'0 0.0
2017-Apr-19 23:29N 46°10' W 123°03'0 0.9
2017-Apr-19 23:28N 46°10' W 123°03'141322.2
2017-Apr-19 23:28N 46°12' W 123°23'32748.4
2017-Apr-19 23:25N 45°52' W 122°48'2148.3
2017-Apr-19 22:59N 46°10' W 123°03'0 0.9
2017-Apr-19 22:58N 46°10' W 123°03'215103.7
2017-Apr-19 22:58N 45°52' W 122°48'32125.0
2017-Apr-19 22:43N 46°12' W 123°23'1460.2
2017-Apr-19 22:29N 46°10' W 123°03'21344.8
2017-Apr-19 22:25N 45°52' W 122°48'32554.1
2017-Apr-19 22:22N 46°12' W 123°23'14361.5
2017-Apr-19 22:19N 46°10' W 123°03'0 0.0
2017-Apr-19 21:59N 46°10' W 123°03'0 1.0
2017-Apr-19 21:58N 46°10' W 123°03'21137.7
2017-Apr-19 21:49N 45°52' W 122°48'32124.6
2017-Apr-19 21:34N 46°12' W 123°23'14156.5
2017-Apr-19 21:28N 46°10' W 123°03'0 0.1
2017-Apr-19 21:26N 46°10' W 123°03'211913.4
2017-Apr-19 21:25N 45°52' W 122°48'323974.5
2017-Apr-19 21:25N 46°12' W 123°23'49162.9
2017-Apr-19 21:07N 45°33' W 122°42'40300.2
2017-Apr-19 20:59N 46°10' W 123°03'14773.0
2017-Apr-19 20:58N 46°12' W 123°23'32773.6
2017-Apr-19 20:55N 45°52' W 122°48'21461.2
2017-Apr-19 20:53N 46°10' W 123°03'40361.2
2017-Apr-19 20:46N 45°33' W 122°42'40138.5
2017-Apr-19 20:29N 46°10' W 123°03'214503.3
2017-Apr-19 20:28N 45°52' W 122°48'21531.5
2017-Apr-19 20:26N 46°10' W 123°03'402485.1
2017-Apr-19 20:25N 45°33' W 122°42'49485.1
2017-Apr-19 20:19N 46°12' W 123°23'1441.1
2017-Apr-19 19:58N 46°10' W 123°03'21390.6
2017-Apr-19 19:55N 45°52' W 122°48'193026.1
2017-Apr-19 19:55N 45°33' W 122°42'4943777.0
2017-Apr-19 19:55N 46°12' W 123°23'14170.3
2017-Apr-19 19:50N 46°10' W 123°03'0 0.0
2017-Apr-19 19:28N 46°10' W 123°03'215468.3
2017-Apr-19 19:28N 45°52' W 122°48'193480.1
2017-Apr-19 19:28N 45°33' W 122°42'4925015.4
2017-Apr-19 19:28N 46°12' W 123°23'14425.8
2017-Apr-19 19:26N 46°10' W 123°03'0 0.0
2017-Apr-19 18:56N 46°10' W 123°03'0 1.0
2017-Apr-19 18:55N 46°10' W 123°03'215103.7
2017-Apr-19 18:55N 45°52' W 122°48'193480.1
2017-Apr-19 18:55N 45°33' W 122°42'49884.4
2017-Apr-19 18:52N 46°12' W 123°23'1436.8
2017-Apr-19 18:29N 46°10' W 123°03'0 1.1
2017-Apr-19 18:29N 46°10' W 123°03'215103.7
2017-Apr-19 18:28N 45°52' W 122°48'322680.5
2017-Apr-19 18:28N 46°12' W 123°23'491080.9
2017-Apr-19 18:25N 45°33' W 122°42'4092.3
2017-Apr-19 17:59N 46°10' W 123°03'0 1.1
2017-Apr-19 17:59N 46°10' W 123°03'214784.7
2017-Apr-19 17:58N 45°52' W 122°48'322881.5
2017-Apr-19 17:58N 46°12' W 123°23'49199.2
2017-Apr-19 17:43N 45°33' W 122°42'40166.6
2017-Apr-19 17:29N 46°10' W 123°03'214784.7
2017-Apr-19 17:28N 45°52' W 122°48'322881.8
2017-Apr-19 17:28N 46°12' W 123°23'14478.6
2017-Apr-19 17:26N 46°10' W 123°03'402528.7
2017-Apr-19 17:25N 45°33' W 122°42'4091.1
2017-Apr-19 16:58N 46°10' W 123°03'21398.7
2017-Apr-19 16:55N 45°52' W 122°48'192577.8
2017-Apr-19 16:55N 45°33' W 122°42'401201.2
2017-Apr-19 16:53N 46°10' W 123°03'14688.3
2017-Apr-19 16:52N 46°12' W 123°23'1436.8
2017-Apr-19 16:29N 46°10' W 123°03'0 1.3
2017-Apr-19 16:29N 46°10' W 123°03'403352.5
2017-Apr-19 16:28N 45°33' W 122°42'4910944.2
2017-Apr-19 16:28N 46°12' W 123°23'32360.2
2017-Apr-19 16:22N 45°52' W 122°48'2154.5
2017-Apr-19 15:59N 46°10' W 123°03'0 1.1
2017-Apr-19 15:59N 46°10' W 123°03'403603.5
2017-Apr-19 15:58N 45°33' W 122°42'4910299.4
2017-Apr-19 15:58N 46°12' W 123°23'32835.2
2017-Apr-19 15:55N 45°52' W 122°48'1942.3
2017-Apr-19 15:28N 45°33' W 122°42'4910300.5
2017-Apr-19 15:28N 46°12' W 123°23'14474.0
2017-Apr-19 15:26N 46°10' W 123°03'0 1.4
2017-Apr-19 15:26N 46°10' W 123°03'213827.8
2017-Apr-19 15:25N 45°52' W 122°48'2148.3
2017-Apr-19 14:59N 46°10' W 123°03'212068.6
2017-Apr-19 14:58N 45°52' W 122°48'323033.2
2017-Apr-19 14:58N 46°12' W 123°23'491067.7
2017-Apr-19 14:55N 45°33' W 122°42'401044.6
2017-Apr-19 14:53N 46°10' W 123°03'0 0.0
2017-Apr-19 14:26N 46°10' W 123°03'213061.5
2017-Apr-19 14:25N 45°52' W 122°48'193314.3
2017-Apr-19 14:25N 45°33' W 122°42'4935018.1
2017-Apr-19 14:25N 46°12' W 123°23'14422.2
2017-Apr-19 14:23N 46°10' W 123°03'0 0.0
2017-Apr-19 13:29N 46°10' W 123°03'0 0.1
2017-Apr-19 13:26N 46°10' W 123°03'403604.0
2017-Apr-19 13:25N 45°33' W 122°42'4910300.5
2017-Apr-19 13:25N 46°12' W 123°23'32359.1
2017-Apr-19 13:19N 45°52' W 122°48'3295.3
2017-Apr-19 12:59N 46°12' W 123°23'143865.1
2017-Apr-19 12:59N 46°10' W 123°03'0 1.4
2017-Apr-19 12:59N 46°10' W 123°03'213827.8
2017-Apr-19 12:58N 45°52' W 122°48'1975.5
2017-Apr-19 12:43N 45°33' W 122°42'49211.0
2017-Apr-19 12:29N 46°12' W 123°23'144187.2
2017-Apr-19 12:29N 46°10' W 123°03'212068.6
2017-Apr-19 12:28N 45°52' W 122°48'21478.5
2017-Apr-19 12:26N 46°10' W 123°03'4097.4
2017-Apr-19 12:01N 45°33' W 122°42'401201.2
2017-Apr-19 11:59N 46°10' W 123°03'14297.3
2017-Apr-19 11:56N 46°12' W 123°23'322260.0
2017-Apr-19 11:55N 45°52' W 122°48'193313.3
2017-Apr-19 11:55N 45°33' W 122°42'40450.4
2017-Apr-19 11:50N 46°10' W 123°03'1441.0
2017-Apr-19 11:29N 46°12' W 123°23'141477.7
2017-Apr-19 11:29N 46°10' W 123°03'213827.8
2017-Apr-19 11:28N 45°52' W 122°48'19342.9
2017-Apr-19 11:25N 45°33' W 122°42'40477.3
2017-Apr-19 11:20N 46°10' W 123°03'1440.4
2017-Apr-19 10:59N 46°12' W 123°23'143349.8
2017-Apr-19 10:59N 46°10' W 123°03'0 1.4
2017-Apr-19 10:59N 46°10' W 123°03'213479.8
2017-Apr-19 10:58N 45°52' W 122°48'1963.2
2017-Apr-19 10:40N 45°33' W 122°42'40217.7
2017-Apr-19 10:29N 46°10' W 123°03'212014.1
2017-Apr-19 10:28N 45°52' W 122°48'19344.6
2017-Apr-19 10:25N 45°33' W 122°42'401060.0
2017-Apr-19 10:23N 46°10' W 123°03'14337.2
2017-Apr-19 10:20N 46°12' W 123°23'0 0.0
2017-Apr-19 09:59N 46°12' W 123°23'143140.4
2017-Apr-19 09:59N 46°10' W 123°03'0 1.4
2017-Apr-19 09:59N 46°10' W 123°03'213645.5
2017-Apr-19 09:58N 45°52' W 122°48'19181.7
2017-Apr-19 09:52N 45°33' W 122°42'40104.4
2017-Apr-19 09:29N 46°10' W 123°03'0 1.8
2017-Apr-19 09:29N 46°10' W 123°03'403066.8
2017-Apr-19 09:28N 45°33' W 122°42'491733.6
2017-Apr-19 09:26N 46°12' W 123°23'322022.1
2017-Apr-19 09:25N 45°52' W 122°48'2148.4
2017-Apr-19 08:59N 46°10' W 123°03'0 1.5
2017-Apr-19 08:59N 46°10' W 123°03'212944.5
2017-Apr-19 08:58N 45°52' W 122°48'32172.3
2017-Apr-19 08:47N 46°12' W 123°23'49285.6
2017-Apr-19 08:37N 45°33' W 122°42'49375.7
2017-Apr-19 08:29N 46°12' W 123°23'144567.9
2017-Apr-19 08:29N 46°10' W 123°03'0 1.4
2017-Apr-19 08:29N 46°10' W 123°03'213189.8
2017-Apr-19 08:28N 45°52' W 122°48'19346.3
2017-Apr-19 08:25N 45°33' W 122°42'49113.0
2017-Apr-19 07:59N 46°12' W 123°23'14141.9
2017-Apr-19 07:53N 46°10' W 123°03'0 1.1
2017-Apr-19 07:53N 46°10' W 123°03'402443.0
2017-Apr-19 07:52N 45°33' W 122°42'19206.0
2017-Apr-19 07:46N 45°52' W 122°48'2163.5
2017-Apr-19 07:26N 46°10' W 123°03'0 1.5
2017-Apr-19 07:26N 46°10' W 123°03'211866.8
2017-Apr-19 07:25N 45°52' W 122°48'193663.2
2017-Apr-19 07:25N 45°33' W 122°42'49614.4
2017-Apr-19 07:20N 46°12' W 123°23'0 0.0
2017-Apr-19 06:59N 46°12' W 123°23'143349.8
2017-Apr-19 06:59N 46°10' W 123°03'0 2.0
2017-Apr-19 06:59N 46°10' W 123°03'212469.5
2017-Apr-19 06:58N 45°52' W 122°48'1923193.4
2017-Apr-19 06:58N 45°33' W 122°42'49100.2
2017-Apr-19 06:29N 46°12' W 123°23'142093.5
2017-Apr-19 06:29N 46°10' W 123°03'212944.5
2017-Apr-19 06:28N 45°52' W 122°48'21542.8
2017-Apr-19 06:26N 46°10' W 123°03'402324.5
2017-Apr-19 06:25N 45°33' W 122°42'49113.1
2017-Apr-19 05:59N 46°12' W 123°23'492466.3
2017-Apr-19 05:58N 45°33' W 122°42'401181.5
2017-Apr-19 05:56N 46°10' W 123°03'0 1.7
2017-Apr-19 05:56N 46°10' W 123°03'21379.0
2017-Apr-19 05:52N 45°52' W 122°48'2154.5
2017-Apr-19 05:29N 46°10' W 123°03'14297.3
2017-Apr-19 05:26N 46°12' W 123°23'142009.7
2017-Apr-19 05:26N 46°10' W 123°03'213328.5
2017-Apr-19 05:25N 45°52' W 122°48'2148.0
2017-Apr-19 04:59N 46°10' W 123°03'14330.5
2017-Apr-19 04:56N 46°12' W 123°23'143865.1
2017-Apr-19 04:56N 46°10' W 123°03'21191.8
2017-Apr-19 04:49N 45°52' W 122°48'1993.8
2017-Apr-19 04:37N 45°33' W 122°42'40300.3
2017-Apr-19 04:29N 46°10' W 123°03'0 1.5
2017-Apr-19 04:29N 46°10' W 123°03'213328.5
2017-Apr-19 04:28N 45°52' W 122°48'32900.5
2017-Apr-19 04:26N 46°12' W 123°23'49285.6
2017-Apr-19 04:16N 45°33' W 122°42'40140.9
2017-Apr-19 03:59N 46°10' W 123°03'0 1.8
2017-Apr-19 03:59N 46°10' W 123°03'213062.2
2017-Apr-19 03:58N 45°52' W 122°48'32879.8
2017-Apr-19 03:56N 46°12' W 123°23'492466.3
2017-Apr-19 03:55N 45°33' W 122°42'49113.2
2017-Apr-19 03:29N 46°12' W 123°23'143589.0
2017-Apr-19 03:29N 46°10' W 123°03'0 2.2
2017-Apr-19 03:29N 46°10' W 123°03'212835.4
2017-Apr-19 03:28N 45°52' W 122°48'19342.8
2017-Apr-19 03:25N 45°33' W 122°42'49113.3
2017-Apr-19 02:59N 46°12' W 123°23'143140.4
2017-Apr-19 02:59N 46°10' W 123°03'0 2.0
2017-Apr-19 02:59N 46°10' W 123°03'213062.2
2017-Apr-19 02:58N 45°52' W 122°48'19344.5
2017-Apr-19 02:55N 45°33' W 122°42'49113.1
2017-Apr-19 02:29N 46°12' W 123°23'142392.5
2017-Apr-19 02:29N 46°10' W 123°03'0 0.1
2017-Apr-19 02:26N 46°10' W 123°03'212319.3
2017-Apr-19 02:25N 45°52' W 122°48'19341.2
2017-Apr-19 02:22N 45°33' W 122°42'40104.4
2017-Apr-19 01:59N 46°10' W 123°03'0 2.0
2017-Apr-19 01:59N 46°10' W 123°03'212944.5
2017-Apr-19 01:58N 45°52' W 122°48'19182.2
2017-Apr-19 01:52N 45°33' W 122°42'49270.2
2017-Apr-19 01:41N 46°12' W 123°23'0 0.0
2017-Apr-19 01:29N 46°12' W 123°23'142184.5
2017-Apr-19 01:29N 46°10' W 123°03'21371.6
2017-Apr-19 01:25N 45°52' W 122°48'21542.8
2017-Apr-19 01:23N 46°10' W 123°03'40595.6
2017-Apr-19 01:19N 45°33' W 122°42'40120.1
2017-Apr-19 00:59N 46°10' W 123°03'0 1.8
2017-Apr-19 00:59N 46°10' W 123°03'403067.2
2017-Apr-19 00:58N 45°33' W 122°42'19443.3
2017-Apr-19 00:55N 45°52' W 122°48'32234.3
2017-Apr-19 00:47N 46°12' W 123°23'1446.1
2017-Apr-19 00:29N 46°10' W 123°03'0 0.1
2017-Apr-19 00:26N 46°10' W 123°03'21366.3
2017-Apr-19 00:22N 45°52' W 122°48'193162.7
2017-Apr-19 00:22N 45°33' W 122°42'491636.4
2017-Apr-19 00:20N 46°12' W 123°23'0 0.0
2017-Apr-18 23:53N 46°12' W 123°23'142184.5
2017-Apr-18 23:53N 46°10' W 123°03'0 0.0
2017-Apr-18 23:41N 46°10' W 123°03'402443.0
2017-Apr-18 23:40N 45°33' W 122°42'40218.1
2017-Apr-18 23:29N 46°10' W 123°03'0 2.0
2017-Apr-18 23:29N 46°10' W 123°03'40187.7
2017-Apr-18 23:16N 45°33' W 122°42'49618.7
2017-Apr-18 23:11N 46°12' W 123°23'32194.0
2017-Apr-18 23:01N 45°52' W 122°48'32879.8
2017-Apr-18 22:59N 46°12' W 123°23'143589.0
2017-Apr-18 22:59N 46°10' W 123°03'212251.1
2017-Apr-18 22:58N 45°52' W 122°48'21490.7
2017-Apr-18 22:56N 46°10' W 123°03'40352.5
2017-Apr-18 22:49N 45°33' W 122°42'40120.1
2017-Apr-18 22:29N 46°10' W 123°03'0 2.2
2017-Apr-18 22:29N 46°10' W 123°03'40127.8
2017-Apr-18 22:10N 45°33' W 122°42'491621.4
2017-Apr-18 22:08N 46°12' W 123°23'32503.3
2017-Apr-18 22:04N 45°52' W 122°48'21235.5
2017-Apr-18 21:59N 46°10' W 123°03'0 2.4
2017-Apr-18 21:59N 46°10' W 123°03'14318.0
2017-Apr-18 21:56N 46°12' W 123°23'322452.3
2017-Apr-18 21:55N 45°52' W 122°48'19339.5
2017-Apr-18 21:52N 45°33' W 122°42'40104.4
2017-Apr-18 21:29N 46°10' W 123°03'0 2.7
2017-Apr-18 21:29N 46°10' W 123°03'212639.9
2017-Apr-18 21:28N 45°52' W 122°48'193026.1
2017-Apr-18 21:28N 45°33' W 122°42'491652.0
2017-Apr-18 21:26N 46°12' W 123°23'1430.6
2017-Apr-18 20:59N 46°10' W 123°03'402882.8
2017-Apr-18 20:58N 45°33' W 122°42'401181.3
2017-Apr-18 20:56N 46°10' W 123°03'212068.6
2017-Apr-18 20:55N 45°52' W 122°48'2148.3
2017-Apr-18 20:29N 46°10' W 123°03'0 2.7
2017-Apr-18 20:29N 46°10' W 123°03'212734.1
2017-Apr-18 20:28N 45°52' W 122°48'32886.6
2017-Apr-18 20:26N 46°12' W 123°23'49694.9
2017-Apr-18 20:22N 45°33' W 122°42'40104.4
2017-Apr-18 19:59N 46°10' W 123°03'0 2.4
2017-Apr-18 19:59N 46°10' W 123°03'21366.3
2017-Apr-18 19:55N 45°52' W 122°48'194094.2
2017-Apr-18 19:55N 45°33' W 122°42'4092.1
2017-Apr-18 19:29N 46°10' W 123°03'0 3.6
2017-Apr-18 19:29N 46°10' W 123°03'21361.0
2017-Apr-18 19:25N 45°52' W 122°48'32237.1
2017-Apr-18 19:17N 46°12' W 123°23'492334.8
2017-Apr-18 19:16N 45°33' W 122°42'1965.8
2017-Apr-18 18:58N 45°52' W 122°48'193026.1
2017-Apr-18 18:58N 45°33' W 122°42'401117.5
2017-Apr-18 18:56N 46°10' W 123°03'14293.8
2017-Apr-18 18:53N 46°12' W 123°23'1425123.3
2017-Apr-18 18:53N 46°10' W 123°03'0 0.0
2017-Apr-18 18:29N 46°10' W 123°03'0 0.9
2017-Apr-18 18:29N 46°10' W 123°03'402362.9
2017-Apr-18 18:28N 45°33' W 122°42'491700.1
2017-Apr-18 18:26N 46°12' W 123°23'322095.6
2017-Apr-18 18:25N 45°52' W 122°48'2149.0
2017-Apr-18 17:59N 46°10' W 123°03'0 1.0
2017-Apr-18 17:59N 46°10' W 123°03'402620.3
2017-Apr-18 17:58N 45°33' W 122°42'491606.3
2017-Apr-18 17:56N 46°12' W 123°23'322174.7
2017-Apr-18 17:55N 45°52' W 122°48'0 0.0
2017-Apr-18 17:28N 45°52' W 122°48'21638.0
2017-Apr-18 17:26N 46°10' W 123°03'0 0.9
2017-Apr-18 17:26N 46°10' W 123°03'402442.7
2017-Apr-18 17:25N 45°33' W 122°42'49603.8
2017-Apr-18 17:20N 46°12' W 123°23'1440.3
2017-Apr-18 16:59N 46°10' W 123°03'143588.8
2017-Apr-18 16:59N 46°12' W 123°23'32507.8
2017-Apr-18 16:55N 45°52' W 122°48'193025.2
2017-Apr-18 16:55N 45°33' W 122°42'401191.1
2017-Apr-18 16:53N 46°10' W 123°03'40104.7
2017-Apr-18 16:30N 45°33' W 122°42'403516.1
2017-Apr-18 16:29N 46°10' W 123°03'145582.6
2017-Apr-18 16:29N 46°12' W 123°23'322305.2
2017-Apr-18 16:28N 45°52' W 122°48'21239.2
2017-Apr-18 16:23N 46°10' W 123°03'0 0.0
2017-Apr-18 15:59N 46°10' W 123°03'143864.9
2017-Apr-18 15:59N 46°12' W 123°23'143865.1
2017-Apr-18 15:59N 46°10' W 123°03'212251.1
2017-Apr-18 15:58N 45°52' W 122°48'2144.0
2017-Apr-18 15:29N 46°10' W 123°03'401501.7
2017-Apr-18 15:28N 45°33' W 122°42'401322.4
2017-Apr-18 15:26N 46°10' W 123°03'212186.8
2017-Apr-18 15:25N 45°52' W 122°48'32873.2
2017-Apr-18 15:23N 46°12' W 123°23'1435.2
2017-Apr-18 14:59N 46°10' W 123°03'211255.0
2017-Apr-18 14:58N 45°52' W 122°48'32893.5
2017-Apr-18 14:56N 46°12' W 123°23'143140.4
2017-Apr-18 14:56N 46°10' W 123°03'402059.1
2017-Apr-18 14:55N 45°33' W 122°42'4093.2
2017-Apr-18 14:29N 46°10' W 123°03'401947.5
2017-Apr-18 14:28N 45°33' W 122°42'19486.6
2017-Apr-18 14:25N 45°52' W 122°48'21256.0
2017-Apr-18 14:20N 46°10' W 123°03'1434.7
2017-Apr-18 13:56N 46°12' W 123°23'49102.4
2017-Apr-18 13:28N 45°33' W 122°42'401779.7
2017-Apr-18 13:26N 46°10' W 123°03'143588.8
2017-Apr-18 13:26N 46°12' W 123°23'146280.8
2017-Apr-18 13:26N 46°10' W 123°03'211913.4
2017-Apr-18 13:25N 45°52' W 122°48'3273.3
2017-Apr-18 12:59N 46°12' W 123°23'144567.9
2017-Apr-18 12:59N 46°10' W 123°03'0 0.1
2017-Apr-18 12:56N 46°10' W 123°03'211275.9
2017-Apr-18 12:55N 45°52' W 122°48'19119.8
2017-Apr-18 12:46N 45°33' W 122°42'40147.1
2017-Apr-18 12:29N 46°10' W 123°03'145582.9
2017-Apr-18 12:29N 46°12' W 123°23'142791.7
2017-Apr-18 12:29N 46°10' W 123°03'402058.8
2017-Apr-18 12:28N 45°33' W 122°42'19479.9
2017-Apr-18 12:25N 45°52' W 122°48'1942.0
2017-Apr-18 11:58N 45°33' W 122°42'491945.6
2017-Apr-18 11:56N 46°12' W 123°23'142955.5
2017-Apr-18 11:56N 46°10' W 123°03'212319.3
2017-Apr-18 11:55N 45°52' W 122°48'21527.7
2017-Apr-18 11:53N 46°10' W 123°03'0 0.0
2017-Apr-18 11:29N 46°10' W 123°03'010.8
2017-Apr-18 11:29N 46°10' W 123°03'212251.1
2017-Apr-18 11:28N 45°52' W 122°48'19320.8
2017-Apr-18 11:25N 45°33' W 122°42'491967.5
2017-Apr-18 11:23N 46°12' W 123°23'1434.5
2017-Apr-18 10:59N 46°10' W 123°03'0 7.2
2017-Apr-18 10:59N 46°10' W 123°03'402151.6
2017-Apr-18 10:58N 45°33' W 122°42'491843.2
2017-Apr-18 10:56N 46°12' W 123°23'322174.5
2017-Apr-18 10:55N 45°52' W 122°48'0 0.0
2017-Apr-18 10:28N 45°52' W 122°48'21524.2
2017-Apr-18 10:26N 46°10' W 123°03'0 5.4
2017-Apr-18 10:26N 46°10' W 123°03'14145.6
2017-Apr-18 10:20N 46°12' W 123°23'492036.1
2017-Apr-18 10:19N 45°33' W 122°42'40121.6
2017-Apr-18 09:59N 46°10' W 123°03'211962.0
2017-Apr-18 09:58N 45°52' W 122°48'32937.0
2017-Apr-18 09:56N 46°12' W 123°23'14131.5
2017-Apr-18 09:50N 46°10' W 123°03'0 0.0
2017-Apr-18 09:29N 46°10' W 123°03'212319.9
2017-Apr-18 09:28N 45°52' W 122°48'32879.8
2017-Apr-18 09:26N 46°12' W 123°23'14259.0
2017-Apr-18 09:23N 46°10' W 123°03'40333.6
2017-Apr-18 09:16N 45°33' W 122°42'40143.1
2017-Apr-18 08:59N 46°10' W 123°03'212251.6
2017-Apr-18 08:58N 45°52' W 122°48'191831.1
2017-Apr-18 08:58N 45°33' W 122°42'491862.7
2017-Apr-18 08:56N 46°12' W 123°23'14259.0
2017-Apr-18 08:53N 46°10' W 123°03'0 0.0
2017-Apr-18 08:29N 46°10' W 123°03'212126.0
2017-Apr-18 08:28N 45°52' W 122°48'192046.5
2017-Apr-18 08:28N 45°33' W 122°42'401242.6
2017-Apr-18 08:26N 46°10' W 123°03'14308.2
2017-Apr-18 08:23N 46°12' W 123°23'0 0.0
2017-Apr-18 07:59N 46°12' W 123°23'142512.2
2017-Apr-18 07:59N 46°10' W 123°03'212469.5
2017-Apr-18 07:58N 45°52' W 122°48'19314.8
2017-Apr-18 07:55N 45°33' W 122°42'40511.1
2017-Apr-18 07:50N 46°10' W 123°03'0 0.0
2017-Apr-18 07:29N 46°10' W 123°03'211913.9
2017-Apr-18 07:28N 45°52' W 122°48'32879.8
2017-Apr-18 07:26N 46°12' W 123°23'145024.7
2017-Apr-18 07:26N 46°10' W 123°03'402059.1
2017-Apr-18 07:25N 45°33' W 122°42'49113.6
2017-Apr-18 06:59N 46°12' W 123°23'145025.0
2017-Apr-18 06:59N 46°10' W 123°03'402059.1
2017-Apr-18 06:58N 45°33' W 122°42'19493.6
2017-Apr-18 06:55N 45°52' W 122°48'3272.4
2017-Apr-18 06:29N 46°12' W 123°23'323842.0
2017-Apr-18 06:28N 45°52' W 122°48'191740.0
2017-Apr-18 06:28N 45°33' W 122°42'40511.2
2017-Apr-18 06:23N 46°10' W 123°03'  
Track history (hours):
 
Tides and Currents Weather Stations Pressure Air Temp Water Temp Dewpoint Dewpoint Depression Visibility Wind Speed Wind Dir Waves Ship Positions

Zarling

Owner: Clean Rivers Co-op, Portland, OR. More information available from US FCC via Universal Licensing System.

Last reported at 2017-Apr-28 06:00 UTC. Time now 2017-Apr-28 06:19 UTC.
Position N 45°52' W 122°48'.

Length 12 m.

Type: Pollution control. MMSI: 3699126.

Date/timePositionNaut miles runAvg speedWind from/ knotsBaromVisibWave heightAir tempDewpointWater temp
2017-Apr-28 06:00N 45°52' W 122°48'211500.7
2017-Apr-28 05:59N 46°10' W 123°03'401847.9
2017-Apr-28 05:58N 45°33' W 122°42'4014415.9
2017-Apr-28 05:58N 46°10' W 123°03'1499.3
2017-Apr-28 05:49N 46°12' W 123°23'3299.8
2017-Apr-28 05:30N 45°52' W 122°48'211471.9
2017-Apr-28 05:29N 46°10' W 123°03'14930.5
2017-Apr-28 05:28N 46°12' W 123°23'497613.4
2017-Apr-28 05:28N 45°33' W 122°42'4016017.6
2017-Apr-28 05:28N 46°10' W 123°03'2146.1
2017-Apr-28 05:00N 45°52' W 122°48'211471.5
2017-Apr-28 04:59N 46°10' W 123°03'401871.9
2017-Apr-28 04:58N 45°33' W 122°42'4013105.3
2017-Apr-28 04:58N 46°10' W 123°03'14348.9
2017-Apr-28 04:55N 46°12' W 123°23'3275.9
2017-Apr-28 04:30N 45°52' W 122°48'211530.7
2017-Apr-28 04:29N 46°10' W 123°03'14948.0
2017-Apr-28 04:28N 46°12' W 123°23'49850.0
2017-Apr-28 04:25N 45°33' W 122°42'40762.7
2017-Apr-28 04:22N 46°10' W 123°03'0 0.0
2017-Apr-28 03:59N 46°10' W 123°03'401921.8
2017-Apr-28 03:58N 45°33' W 122°42'4016017.6
2017-Apr-28 03:58N 46°10' W 123°03'14337.2
2017-Apr-28 03:55N 46°12' W 123°23'321516.6
2017-Apr-28 03:54N 45°52' W 122°48'2151.3
2017-Apr-28 03:29N 46°10' W 123°03'401871.9
2017-Apr-28 03:28N 45°33' W 122°42'4018019.8
2017-Apr-28 03:28N 46°10' W 123°03'21343.3
2017-Apr-28 03:24N 45°52' W 122°48'32405.8
2017-Apr-28 03:19N 46°12' W 123°23'3299.6
2017-Apr-28 03:00N 45°52' W 122°48'321108.3
2017-Apr-28 02:58N 46°12' W 123°23'141477.7
2017-Apr-28 02:58N 46°10' W 123°03'0 0.2
2017-Apr-28 02:56N 46°10' W 123°03'401824.5
2017-Apr-28 02:55N 45°33' W 122°42'0 0.0
2017-Apr-28 02:28N 45°33' W 122°42'4020594.1
2017-Apr-28 02:28N 46°10' W 123°03'0 0.2
2017-Apr-28 02:26N 46°10' W 123°03'21588.7
2017-Apr-28 02:24N 45°52' W 122°48'32411.6
2017-Apr-28 02:19N 46°12' W 123°23'3299.3
2017-Apr-28 02:00N 45°52' W 122°48'21334.2
2017-Apr-28 01:56N 46°10' W 123°03'401871.7
2017-Apr-28 01:55N 45°33' W 122°42'4013103.5
2017-Apr-28 01:55N 46°10' W 123°03'14339.5
2017-Apr-28 01:52N 46°12' W 123°23'3286.3
2017-Apr-28 01:30N 45°52' W 122°48'211500.7
2017-Apr-28 01:29N 46°10' W 123°03'401847.9
2017-Apr-28 01:28N 45°33' W 122°42'4024026.4
2017-Apr-28 01:28N 46°10' W 123°03'1435.8
2017-Apr-28 01:04N 46°12' W 123°23'32445.0
2017-Apr-28 01:00N 45°52' W 122°48'211500.7
2017-Apr-28 00:59N 46°10' W 123°03'401847.9
2017-Apr-28 00:58N 45°33' W 122°42'491144.5
2017-Apr-28 00:55N 46°12' W 123°23'14127.2
2017-Apr-28 00:49N 46°10' W 123°03'0 0.0
2017-Apr-28 00:29N 46°10' W 123°03'401871.9
2017-Apr-28 00:28N 45°33' W 122°42'4020594.1
2017-Apr-28 00:28N 46°10' W 123°03'211739.9
2017-Apr-28 00:27N 45°52' W 122°48'321087.4
2017-Apr-28 00:25N 46°12' W 123°23'3276.1
2017-Apr-28 00:00N 45°52' W 122°48'21332.8
2017-Apr-27 23:56N 46°10' W 123°03'14948.0
2017-Apr-27 23:55N 46°12' W 123°23'497295.4
2017-Apr-27 23:55N 45°33' W 122°42'40770.8
2017-Apr-27 23:52N 46°10' W 123°03'0 0.0
2017-Apr-27 23:29N 46°10' W 123°03'14866.3
2017-Apr-27 23:28N 46°12' W 123°23'141860.9
2017-Apr-27 23:28N 46°10' W 123°03'211628.8
2017-Apr-27 23:27N 45°52' W 122°48'19142.0
2017-Apr-27 23:19N 45°33' W 122°42'40122.3
2017-Apr-27 22:59N 46°10' W 123°03'14913.6
2017-Apr-27 22:58N 46°12' W 123°23'497004.3
2017-Apr-27 22:58N 45°33' W 122°42'4024026.4
2017-Apr-27 22:58N 46°10' W 123°03'211664.3
2017-Apr-27 22:57N 45°52' W 122°48'2145.8
2017-Apr-27 22:29N 46°10' W 123°03'141004.9
2017-Apr-27 22:28N 46°12' W 123°23'321440.7
2017-Apr-27 22:27N 45°52' W 122°48'21580.0
2017-Apr-27 22:25N 46°10' W 123°03'40833.3
2017-Apr-27 22:22N 45°33' W 122°42'1953.0
2017-Apr-27 22:00N 45°52' W 122°48'21571.3
2017-Apr-27 21:58N 46°10' W 123°03'0 0.2
2017-Apr-27 21:56N 46°10' W 123°03'401871.9
2017-Apr-27 21:55N 45°33' W 122°42'49524.3
2017-Apr-27 21:49N 46°12' W 123°23'3299.5
2017-Apr-27 21:30N 45°52' W 122°48'211471.9
2017-Apr-27 21:29N 46°10' W 123°03'401871.9
2017-Apr-27 21:28N 45°33' W 122°42'49524.3
2017-Apr-27 21:22N 46°12' W 123°23'14235.9
2017-Apr-27 21:19N 46°10' W 123°03'2158.6
2017-Apr-27 20:57N 45°52' W 122°48'321108.3
2017-Apr-27 20:55N 46°12' W 123°23'497613.4
2017-Apr-27 20:55N 45°33' W 122°42'401413.1
2017-Apr-27 20:53N 46°10' W 123°03'0 0.0
2017-Apr-27 20:46N 46°10' W 123°03'0 0.0
2017-Apr-27 20:29N 46°10' W 123°03'0 0.3
2017-Apr-27 20:28N 46°10' W 123°03'40202.4
2017-Apr-27 20:16N 45°33' W 122°42'491108.2
2017-Apr-27 20:13N 46°12' W 123°23'321516.6
2017-Apr-27 20:12N 45°52' W 122°48'0 0.0
2017-Apr-27 20:00N 45°52' W 122°48'321097.7
2017-Apr-27 19:58N 46°12' W 123°23'14402.0
2017-Apr-27 19:56N 46°10' W 123°03'401871.9
2017-Apr-27 19:55N 45°33' W 122°42'4020594.1
2017-Apr-27 19:55N 46°10' W 123°03'2151.5
2017-Apr-27 19:30N 45°52' W 122°48'321002.3
2017-Apr-27 19:28N 46°12' W 123°23'4913469.8
2017-Apr-27 19:28N 45°33' W 122°42'4036039.6
2017-Apr-27 19:28N 46°10' W 123°03'0 0.0
2017-Apr-27 19:20N 46°10' W 123°03'2163.0
2017-Apr-27 19:00N 45°52' W 122°48'321011.1
2017-Apr-27 18:58N 46°12' W 123°23'4913468.5
2017-Apr-27 18:58N 45°33' W 122°42'401399.2
2017-Apr-27 18:56N 46°10' W 123°03'0 0.0
2017-Apr-27 18:49N 46°10' W 123°03'2167.9
2017-Apr-27 18:30N 45°52' W 122°48'21580.0
2017-Apr-27 18:28N 46°10' W 123°03'0 0.2
2017-Apr-27 18:26N 46°10' W 123°03'14203.4
2017-Apr-27 18:22N 46°12' W 123°23'4915918.9
2017-Apr-27 18:22N 45°33' W 122°42'40105.8
2017-Apr-27 17:59N 46°10' W 123°03'401871.9
2017-Apr-27 17:58N 45°33' W 122°42'191313.2
2017-Apr-27 17:57N 45°52' W 122°48'21580.0
2017-Apr-27 17:55N 46°10' W 123°03'14146.5
2017-Apr-27 17:49N 46°12' W 123°23'0 0.0
2017-Apr-27 17:28N 46°12' W 123°23'4914592.3
2017-Apr-27 17:28N 45°33' W 122°42'40144158.5
2017-Apr-27 17:28N 46°10' W 123°03'0 0.2
2017-Apr-27 17:26N 46°10' W 123°03'21593.3
2017-Apr-27 17:24N 45°52' W 122°48'0 0.0
2017-Apr-27 17:00N 45°52' W 122°48'211562.0
2017-Apr-27 16:59N 46°10' W 123°03'401847.9
2017-Apr-27 16:58N 45°33' W 122°42'4036039.6
2017-Apr-27 16:58N 46°10' W 123°03'14300.9
2017-Apr-27 16:55N 46°12' W 123°23'3276.7
2017-Apr-27 16:30N 45°52' W 122°48'19539.4
2017-Apr-27 16:28N 45°33' W 122°42'40144138.4
2017-Apr-27 16:28N 46°10' W 123°03'0 0.2
2017-Apr-27 16:26N 46°10' W 123°03'14728.2
2017-Apr-27 16:25N 46°12' W 123°23'0 0.0
2017-Apr-27 15:58N 46°12' W 123°23'321800.9
2017-Apr-27 15:57N 45°52' W 122°48'211562.0
2017-Apr-27 15:56N 46°10' W 123°03'0 0.3
2017-Apr-27 15:55N 46°10' W 123°03'40269.0
2017-Apr-27 15:46N 45°33' W 122°42'1973.0
2017-Apr-27 15:30N 45°52' W 122°48'321002.3
2017-Apr-27 15:28N 46°12' W 123°23'143349.5
2017-Apr-27 15:28N 46°10' W 123°03'0 0.2
2017-Apr-27 15:26N 46°10' W 123°03'40554.4
2017-Apr-27 15:22N 45°33' W 122°42'1953.1
2017-Apr-27 15:00N 45°52' W 122°48'211530.7
2017-Apr-27 14:59N 46°10' W 123°03'401824.5
2017-Apr-27 14:58N 45°33' W 122°42'491067.7
2017-Apr-27 14:55N 46°12' W 123°23'14253.8
2017-Apr-27 14:52N 46°10' W 123°03'4044.5
2017-Apr-27 13:58N 45°33' W 122°42'40144158.5
2017-Apr-27 13:58N 46°10' W 123°03'211159.7
2017-Apr-27 13:57N 45°52' W 122°48'212068.1
2017-Apr-27 13:56N 46°10' W 123°03'14749.9
2017-Apr-27 13:55N 46°12' W 123°23'3276.0
2017-Apr-27 13:30N 45°52' W 122°48'212186.2
2017-Apr-27 13:29N 46°10' W 123°03'14203.4
2017-Apr-27 13:25N 46°12' W 123°23'4915917.3
2017-Apr-27 13:25N 45°33' W 122°42'4048046.1
2017-Apr-27 13:25N 46°10' W 123°03'2150.9
2017-Apr-27 13:00N 45°52' W 122°48'212319.3
2017-Apr-27 12:59N 46°10' W 123°03'401757.8
2017-Apr-27 12:58N 45°33' W 122°42'4072079.3
2017-Apr-27 12:58N 46°10' W 123°03'14304.5
2017-Apr-27 12:55N 46°12' W 123°23'1432.3
2017-Apr-27 12:29N 46°10' W 123°03'14728.3
2017-Apr-27 12:28N 46°12' W 123°23'146280.8
2017-Apr-27 12:28N 46°10' W 123°03'211142.6
2017-Apr-27 12:27N 45°52' W 122°48'19621.4
2017-Apr-27 12:25N 45°33' W 122°42'0 0.0
2017-Apr-27 11:58N 45°33' W 122°42'191038.8
2017-Apr-27 11:57N 45°52' W 122°48'21689.7
2017-Apr-27 11:55N 46°10' W 123°03'14143.6
2017-Apr-27 11:49N 46°12' W 123°23'14105.6
2017-Apr-27 11:41N 46°10' W 123°03'0 0.0
2017-Apr-27 11:29N 46°10' W 123°03'0 0.3
2017-Apr-27 11:28N 46°10' W 123°03'40144158.5
2017-Apr-27 11:28N 45°33' W 122°42'191070.8
2017-Apr-27 11:27N 45°52' W 122°48'32248.4
2017-Apr-27 11:19N 46°12' W 123°23'3299.6
2017-Apr-27 11:00N 45°52' W 122°48'212126.0
2017-Apr-27 10:59N 46°10' W 123°03'14761.3
2017-Apr-27 10:58N 46°12' W 123°23'49470.7
2017-Apr-27 10:52N 45°33' W 122°42'40400.4
2017-Apr-27 10:46N 46°10' W 123°03'2179.3
2017-Apr-27 10:30N 45°52' W 122°48'212125.5
2017-Apr-27 10:29N 46°10' W 123°03'0 0.3
2017-Apr-27 10:28N 46°10' W 123°03'4072079.3
2017-Apr-27 10:28N 45°33' W 122°42'491042.3
2017-Apr-27 10:25N 46°12' W 123°23'0 0.0
2017-Apr-27 09:58N 46°12' W 123°23'147177.6
2017-Apr-27 09:58N 46°10' W 123°03'211159.7
2017-Apr-27 09:57N 45°52' W 122°48'212125.5
2017-Apr-27 09:56N 46°10' W 123°03'401779.5
2017-Apr-27 09:55N 45°33' W 122°42'4093.5
2017-Apr-27 09:29N 46°10' W 123°03'14738.9
2017-Apr-27 09:28N 46°12' W 123°23'145582.6
2017-Apr-27 09:28N 46°10' W 123°03'21180.1
2017-Apr-27 09:21N 45°52' W 122°48'19234.3
2017-Apr-27 09:16N 45°33' W 122°42'40144.0
2017-Apr-27 08:59N 46°10' W 123°03'14738.9
2017-Apr-27 08:58N 46°12' W 123°23'146280.4
2017-Apr-27 08:58N 46°10' W 123°03'40787.8
2017-Apr-27 08:55N 45°33' W 122°42'191087.5
2017-Apr-27 08:54N 45°52' W 122°48'0 0.0
2017-Apr-27 08:30N 45°52' W 122°48'321119.2
2017-Apr-27 08:28N 46°12' W 123°23'145024.6
2017-Apr-27 08:28N 46°10' W 123°03'0 0.1
2017-Apr-27 08:23N 46°10' W 123°03'2154.5
2017-Apr-27 08:00N 45°52' W 122°48'212068.6
2017-Apr-27 07:59N 46°10' W 123°03'14749.9
2017-Apr-27 07:58N 46°12' W 123°23'146280.4
2017-Apr-27 07:58N 46°10' W 123°03'4072069.2
2017-Apr-27 07:58N 45°33' W 122°42'1941.3
2017-Apr-27 07:30N 45°52' W 122°48'321141.2
2017-Apr-27 07:28N 46°12' W 123°23'4913469.8
2017-Apr-27 07:28N 45°33' W 122°42'401427.1
2017-Apr-27 07:26N 46°10' W 123°03'0 0.1
2017-Apr-27 07:22N 46°10' W 123°03'1435.0
2017-Apr-27 06:58N 46°12' W 123°23'147177.6
2017-Apr-27 06:58N 46°10' W 123°03'211125.8
2017-Apr-27 06:57N 45°52' W 122°48'19600.0
2017-Apr-27 06:55N 45°33' W 122°42'401413.1
2017-Apr-27 06:53N 46°10' W 123°03'2154.6
2017-Apr-27 06:30N 45°52' W 122°48'212126.0
2017-Apr-27 06:29N 46°10' W 123°03'401824.5
2017-Apr-27 06:28N 45°33' W 122°42'491036.1
2017-Apr-27 06:25N 46°12' W 123°23'14137.3
2017-Apr-27 06:19N 46°10' W 123°03'0 0.0
2017-Apr-27 05:59N 46°10' W 123°03'0 0.3
2017-Apr-27 05:58N 46°10' W 123°03'211125.8
2017-Apr-27 05:57N 45°52' W 122°48'321164.2
2017-Apr-27 05:55N 46°12' W 123°23'49315.5
2017-Apr-27 05:46N 45°33' W 122°42'40134.1
2017-Apr-27 05:28N 46°10' W 123°03'211078.3
2017-Apr-27 05:27N 45°52' W 122°48'212186.8
2017-Apr-27 05:26N 46°10' W 123°03'14773.0
2017-Apr-27 05:25N 46°12' W 123°23'4911673.9
2017-Apr-27 05:25N 45°33' W 122°42'49108.8
2017-Apr-27 04:58N 46°12' W 123°23'1412560.8
2017-Apr-27 04:58N 46°10' W 123°03'40779.2
2017-Apr-27 04:55N 45°33' W 122°42'191023.5
2017-Apr-27 04:54N 45°52' W 122°48'212186.8
2017-Apr-27 04:53N 46°10' W 123°03'2154.5
2017-Apr-27 04:30N 45°52' W 122°48'212186.2
2017-Apr-27 04:29N 46°10' W 123°03'14738.9
2017-Apr-27 04:28N 46°12' W 123°23'145024.3
2017-Apr-27 04:28N 46°10' W 123°03'40796.5
2017-Apr-27 04:25N 45°33' W 122°42'1946.2
2017-Apr-27 04:00N 45°52' W 122°48'212126.0
2017-Apr-27 03:59N 46°10' W 123°03'14749.9
2017-Apr-27 03:58N 46°12' W 123°23'49239.2
2017-Apr-27 03:46N 45°33' W 122°42'40819.0
2017-Apr-27 03:43N 46°10' W 123°03'2197.0
2017-Apr-27 03:30N 45°52' W 122°48'212014.1
2017-Apr-27 03:29N 46°10' W 123°03'0 0.3
2017-Apr-27 03:28N 46°10' W 123°03'4036039.6
2017-Apr-27 03:28N 45°33' W 122°42'49503.2
2017-Apr-27 03:22N 46°12' W 123°23'0 0.0
2017-Apr-27 02:58N 46°12' W 123°23'148373.9
2017-Apr-27 02:58N 46°10' W 123°03'211063.0
2017-Apr-27 02:57N 45°52' W 122°48'19605.4
2017-Apr-27 02:55N 45°33' W 122°42'401427.1
2017-Apr-27 02:53N 46°10' W 123°03'2154.6
2017-Apr-27 02:30N 45°52' W 122°48'21265.8
2017-Apr-27 02:25N 46°10' W 123°03'0 0.2
2017-Apr-27 02:23N 46°10' W 123°03'14761.3
2017-Apr-27 02:22N 46°12' W 123°23'4917510.8
2017-Apr-27 02:22N 45°33' W 122°42'40105.9
2017-Apr-27 01:59N 46°10' W 123°03'14707.7
2017-Apr-27 01:58N 46°12' W 123°23'321536.6
2017-Apr-27 01:57N 45°52' W 122°48'21689.5
2017-Apr-27 01:55N 46°10' W 123°03'40800.8
2017-Apr-27 01:52N 45°33' W 122°42'1952.3
2017-Apr-27 01:30N 45°52' W 122°48'321108.3
2017-Apr-27 01:28N 46°12' W 123°23'4917510.8
2017-Apr-27 01:28N 45°33' W 122°42'40819.1
2017-Apr-27 01:25N 46°10' W 123°03'0 0.0
2017-Apr-27 01:17N 46°10' W 123°03'2173.4
2017-Apr-27 01:00N 45°52' W 122°48'212186.8
2017-Apr-27 00:59N 46°10' W 123°03'14761.3
2017-Apr-27 00:58N 46°12' W 123°23'14268.7
2017-Apr-27 00:55N 46°10' W 123°03'40775.0
2017-Apr-27 00:52N 45°33' W 122°42'1952.5
2017-Apr-27 00:30N 45°52' W 122°48'212014.1
2017-Apr-27 00:29N 46°10' W 123°03'0 0.3
2017-Apr-27 00:28N 46°10' W 123°03'4028831.7
2017-Apr-27 00:28N 45°33' W 122°42'491042.3
2017-Apr-27 00:25N 46°12' W 123°23'3275.9
2017-Apr-27 00:00N 45°52' W 122°48'212068.6
2017-Apr-26 23:59N 46°10' W 123°03'14797.6
2017-Apr-26 23:58N 46°12' W 123°23'145582.6
2017-Apr-26 23:58N 46°10' W 123°03'4024026.4
2017-Apr-26 23:58N 45°33' W 122°42'1941.3
2017-Apr-26 23:30N 45°52' W 122°48'212068.6
2017-Apr-26 23:29N 46°10' W 123°03'0 0.3
2017-Apr-26 23:28N 46°10' W 123°03'4028831.7
2017-Apr-26 23:28N 45°33' W 122°42'49331.0
2017-Apr-26 23:19N 46°12' W 123°23'3299.6
2017-Apr-26 23:00N 45°52' W 122°48'19610.5
2017-Apr-26 22:58N 45°33' W 122°42'401399.4
2017-Apr-26 22:56N 46°10' W 123°03'0 0.1
2017-Apr-26 22:52N 46°10' W 123°03'14142.3
2017-Apr-26 22:46N 46°12' W 123°23'32118.0
2017-Apr-26 22:30N 45°52' W 122°48'212068.6
2017-Apr-26 22:29N 46°10' W 123°03'40556.5
2017-Apr-26 22:25N 45°33' W 122°42'491042.3
2017-Apr-26 22:22N 46°12' W 123°23'14271.6
2017-Apr-26 22:19N 46°10' W 123°03'0 0.0
2017-Apr-26 21:59N 46°10' W 123°03'14761.3
2017-Apr-26 21:58N 46°12' W 123°23'1416747.7
2017-Apr-26 21:58N 46°10' W 123°03'40762.7
2017-Apr-26 21:55N 45°33' W 122°42'191054.6
2017-Apr-26 21:54N 45°52' W 122°48'0 0.0
2017-Apr-26 21:30N 45°52' W 122°48'212068.6
2017-Apr-26 21:29N 46°10' W 123°03'14761.3
2017-Apr-26 21:28N 46°12' W 123°23'4915918.9
2017-Apr-26 21:28N 45°33' W 122°42'40828.5
2017-Apr-26 21:25N 46°10' W 123°03'0 0.0
2017-Apr-26 20:58N 46°10' W 123°03'211034.5
2017-Apr-26 20:57N 45°52' W 122°48'19605.2
2017-Apr-26 20:55N 45°33' W 122°42'40224.9
2017-Apr-26 20:44N 46°10' W 123°03'0 0.0
2017-Apr-26 20:29N 46°10' W 123°03'0 0.3
2017-Apr-26 20:28N 46°10' W 123°03'4013103.5
2017-Apr-26 20:28N 45°33' W 122°42'19284.0
2017-Apr-26 20:24N 45°52' W 122°48'0 0.0
2017-Apr-26 20:00N 45°52' W 122°48'212068.6
2017-Apr-26 19:59N 46°10' W 123°03'0 0.3
2017-Apr-26 19:58N 46°10' W 123°03'14140.7
2017-Apr-26 19:52N 46°12' W 123°23'4913469.8
2017-Apr-26 19:52N 45°33' W 122°42'1952.5
2017-Apr-26 19:30N 45°52' W 122°48'21758.0
2017-Apr-26 19:28N 46°10' W 123°03'4010297.0
2017-Apr-26 19:28N 45°33' W 122°42'401413.1
2017-Apr-26 19:26N 46°10' W 123°03'0 0.0
2017-Apr-26 18:59N 46°10' W 123°03'14761.3
2017-Apr-26 18:58N 46°12' W 123°23'4925015.4
2017-Apr-26 18:58N 45°33' W 122°42'19953.4
2017-Apr-26 18:57N 45°52' W 122°48'21268.6
2017-Apr-26 18:52N 46°10' W 123°03'2157.5
2017-Apr-26 18:30N 45°52' W 122°48'21715.5
2017-Apr-26 18:28N 46°10' W 123°03'0 0.9
2017-Apr-26 18:28N 46°10' W 123°03'14332.8
2017-Apr-26 18:25N 46°12' W 123°23'4913469.8
2017-Apr-26 18:25N 45°33' W 122°42'1946.2
2017-Apr-26 18:00N 45°52' W 122°48'321097.7
2017-Apr-26 17:58N 46°12' W 123°23'142184.6
2017-Apr-26 17:58N 46°10' W 123°03'40863.1
2017-Apr-26 17:55N 45°33' W 122°42'40848.0
2017-Apr-26 17:52N 46°10' W 123°03'2157.3
2017-Apr-26 17:30N 45°52' W 122°48'21750.4
2017-Apr-26 17:28N 46°10' W 123°03'1416747.7
2017-Apr-26 17:28N 46°12' W 123°23'142392.7
2017-Apr-26 17:28N 46°10' W 123°03'40852.9
2017-Apr-26 17:25N 45°33' W 122°42'4089.5
2017-Apr-26 16:58N 46°10' W 123°03'211007.3
2017-Apr-26 16:57N 45°52' W 122°48'321119.0
2017-Apr-26 16:55N 46°12' W 123°23'142093.6
2017-Apr-26 16:55N 46°10' W 123°03'40204.1
2017-Apr-26 16:43N 45°33' W 122°42'1988.5
2017-Apr-26 16:30N 45°52' W 122°48'21729.1
2017-Apr-26 16:28N 46°10' W 123°03'4014415.9
2017-Apr-26 16:28N 45°33' W 122°42'4013103.5
2017-Apr-26 16:28N 46°10' W 123°03'14316.0
2017-Apr-26 16:25N 46°12' W 123°23'3276.1
2017-Apr-26 16:00N 45°52' W 122°48'21758.0
2017-Apr-26 15:58N 46°10' W 123°03'1412560.8
2017-Apr-26 15:58N 46°12' W 123°23'4915918.9
2017-Apr-26 15:58N 45°33' W 122°42'4010295.6
2017-Apr-26 15:58N 46°10' W 123°03'2145.8
2017-Apr-26 15:30N 45°52' W 122°48'21758.0
2017-Apr-26 15:28N 46°10' W 123°03'0 0.8
2017-Apr-26 15:28N 46°10' W 123°03'14326.3
2017-Apr-26 15:25N 46°12' W 123°23'49912.0
2017-Apr-26 15:22N 45°33' W 122°42'1952.5
2017-Apr-26 15:00N 45°52' W 122°48'21750.5
2017-Apr-26 14:58N 46°10' W 123°03'4012013.2
2017-Apr-26 14:58N 45°33' W 122°42'4010295.6
2017-Apr-26 14:58N 46°10' W 123°03'0 0.0
2017-Apr-26 14:28N 46°10' W 123°03'0 0.8
2017-Apr-26 14:28N 46°10' W 123°03'14326.3
2017-Apr-26 14:25N 46°12' W 123°23'4913469.8
2017-Apr-26 14:25N 45°33' W 122°42'1972.1
2017-Apr-26 14:09N 45°52' W 122°48'0 0.0
2017-Apr-26 13:30N 45°52' W 122°48'21607.4
2017-Apr-26 13:28N 46°10' W 123°03'14335.0
2017-Apr-26 13:25N 46°12' W 123°23'146280.4
2017-Apr-26 13:25N 46°10' W 123°03'40754.7
2017-Apr-26 13:22N 45°33' W 122°42'40100.9
2017-Apr-26 12:58N 46°10' W 123°03'1425121.6
2017-Apr-26 12:58N 46°12' W 123°23'4921886.3
2017-Apr-26 12:58N 45°33' W 122°42'40746.7
2017-Apr-26 12:55N 46°10' W 123°03'211417.4
2017-Apr-26 12:54N 45°52' W 122°48'0 0.0
2017-Apr-26 12:30N 45°52' W 122°48'321119.0
2017-Apr-26 12:28N 46°12' W 123°23'141932.6
2017-Apr-26 12:28N 46°10' W 123°03'40274.0
2017-Apr-26 12:19N 45°33' W 122°42'40115.7
2017-Apr-26 11:58N 46°10' W 123°03'1450243.2
2017-Apr-26 11:58N 46°12' W 123°23'4914590.9
2017-Apr-26 11:58N 45°33' W 122°42'4010294.2
2017-Apr-26 11:58N 46°10' W 123°03'21185.8
2017-Apr-26 11:51N 45°52' W 122°48'0 0.0
2017-Apr-26 11:30N 45°52' W 122°48'21765.6
2017-Apr-26 11:28N 46°10' W 123°03'1416747.7
2017-Apr-26 11:28N 46°12' W 123°23'4914592.3
2017-Apr-26 11:28N 45°33' W 122°42'4013103.5
2017-Apr-26 11:28N 46°10' W 123°03'2145.7
2017-Apr-26 11:00N 45°52' W 122°48'21765.6
2017-Apr-26 10:58N 46°10' W 123°03'0 0.7
2017-Apr-26 10:58N 46°10' W 123°03'14332.8
2017-Apr-26 10:55N 46°12' W 123°23'49470.7
2017-Apr-26 10:49N 45°33' W 122°42'1960.6
2017-Apr-26 10:30N 45°52' W 122°48'21765.6
2017-Apr-26 10:28N 46°10' W 123°03'0 0.8
2017-Apr-26 10:28N 46°10' W 123°03'1498.3
2017-Apr-26 10:19N 46°12' W 123°23'499728.2
2017-Apr-26 10:19N 45°33' W 122°42'40116.0
2017-Apr-26 09:58N 46°10' W 123°03'148373.9
2017-Apr-26 09:58N 46°12' W 123°23'4921888.5
2017-Apr-26 09:58N 45°33' W 122°42'191054.6
2017-Apr-26 09:57N 45°52' W 122°48'21602.7
2017-Apr-26 09:55N 46°10' W 123°03'0 0.0
2017-Apr-26 09:28N 46°10' W 123°03'1425121.6
2017-Apr-26 09:28N 46°12' W 123°23'141861.0
2017-Apr-26 09:28N 46°10' W 123°03'21329.9
2017-Apr-26 09:24N 45°52' W 122°48'19146.8
2017-Apr-26 09:16N 45°33' W 122°42'1972.3
2017-Apr-26 09:00N 45°52' W 122°48'21750.5
2017-Apr-26 08:58N 46°10' W 123°03'1412560.8
2017-Apr-26 08:58N 46°12' W 123°23'142009.9
2017-Apr-26 08:58N 46°10' W 123°03'40416.5
2017-Apr-26 08:52N 45°33' W 122°42'1952.6
2017-Apr-26 08:30N 45°52' W 122°48'21773.3
2017-Apr-26 08:28N 46°10' W 123°03'0 0.7
2017-Apr-26 08:28N 46°10' W 123°03'40868.3
2017-Apr-26 08:25N 45°33' W 122°42'49501.7
2017-Apr-26 08:19N 46°12' W 123°23'1440.0
2017-Apr-26 07:58N 46°10' W 123°03'1416747.7
2017-Apr-26 07:58N 46°12' W 123°23'14245.1
2017-Apr-26 07:55N 46°10' W 123°03'211500.7
2017-Apr-26 07:54N 45°52' W 122°48'19105.9
2017-Apr-26 07:43N 45°33' W 122°42'1988.7
2017-Apr-26 07:30N 45°52' W 122°48'21273.4
2017-Apr-26 07:25N 46°10' W 123°03'409609.2
2017-Apr-26 07:25N 45°33' W 122°42'40746.7
2017-Apr-26 07:22N 46°10' W 123°03'14150.4
2017-Apr-26 07:16N 46°12' W 123°23'32117.9
2017-Apr-26 07:00N 45°52' W 122°48'21773.3
2017-Apr-26 06:58N 46°10' W 123°03'409610.6
2017-Apr-26 06:58N 45°33' W 122°42'4010295.6
2017-Apr-26 06:58N 46°10' W 123°03'14149.5
2017-Apr-26 06:52N 46°12' W 123°23'3286.3
2017-Apr-26 06:30N 45°52' W 122°48'21602.7
2017-Apr-26 06:28N 46°10' W 123°03'0 0.1
2017-Apr-26 06:25N 46°10' W 123°03'1425121.6
2017-Apr-26 06:25N 46°12' W 123°23'4913469.8
2017-Apr-26 06:25N 45°33' W 122°42'1946.4
2017-Apr-26 06:00N 45°52' W 122°48'321097.6
2017-Apr-26 05:58N 46°12' W 123°23'49921.5
2017-Apr-26 05:55N 45°33' W 122°42'409607.9
2017-Apr-26 05:55N 46°10' W 123°03'0 0.1
2017-Apr-26 05:52N 46°10' W 123°03'2157.0
2017-Apr-26 05:30N 45°52' W 122°48'21781.2
2017-Apr-26 05:28N 46°10' W 123°03'1416747.7
2017-Apr-26 05:28N 46°12' W 123°23'49239.2
2017-Apr-26 05:16N 45°33' W 122°42'40758.5
2017-Apr-26 05:13N 46°10' W 123°03'0 0.0
2017-Apr-26 04:58N 46°10' W 123°03'1410048.6
2017-Apr-26 04:58N 46°12' W 123°23'141932.6
2017-Apr-26 04:58N 46°10' W 123°03'21329.9
2017-Apr-26 04:54N 45°52' W 122°48'1968.6
2017-Apr-26 04:37N 45°33' W 122°42'40276.2
2017-Apr-26 04:28N 46°10' W 123°03'1410048.6
2017-Apr-26 04:28N 46°12' W 123°23'142093.6
2017-Apr-26 04:28N 46°10' W 123°03'21328.5
2017-Apr-26 04:24N 45°52' W 122°48'19146.5
2017-Apr-26 04:16N 45°33' W 122°42'1972.0
2017-Apr-26 04:00N 45°52' W 122°48'21797.5
2017-Apr-26 03:58N 46°10' W 123°03'1410048.6
2017-Apr-26 03:58N 46°12' W 123°23'14245.1
2017-Apr-26 03:55N 46°10' W 123°03'40873.6
2017-Apr-26 03:52N 45°33' W 122°42'1952.5
2017-Apr-26 03:30N 45°52' W 122°48'321077.2
2017-Apr-26 03:28N 46°12' W 123°23'4915918.9
2017-Apr-26 03:28N 45°33' W 122°42'4011087.6
2017-Apr-26 03:28N 46°10' W 123°03'0 0.1
2017-Apr-26 03:25N 46°10' W 123°03'2150.2
2017-Apr-26 03:00N 45°52' W 122°48'21773.3
2017-Apr-26 02:58N 46°10' W 123°03'1416747.7
2017-Apr-26 02:58N 46°12' W 123°23'4914592.3
2017-Apr-26 02:58N 45°33' W 122°42'4010295.6
2017-Apr-26 02:58N 46°10' W 123°03'2145.8
2017-Apr-26 02:30N 45°52' W 122°48'21781.2
2017-Apr-26 02:28N 46°10' W 123°03'0 0.7
2017-Apr-26 02:28N 46°10' W 123°03'14330.6
2017-Apr-26 02:25N 46°12' W 123°23'49473.2
2017-Apr-26 02:19N 45°33' W 122°42'1960.6
2017-Apr-26 02:00N 45°52' W 122°48'321129.9
2017-Apr-26 01:58N 46°12' W 123°23'141932.6
2017-Apr-26 01:58N 46°10' W 123°03'0 0.1
2017-Apr-26 01:55N 46°10' W 123°03'40260.6
2017-Apr-26 01:46N 45°33' W 122°42'1971.5
2017-Apr-26 01:30N 45°52' W 122°48'19615.8
2017-Apr-26 01:28N 45°33' W 122°42'409607.9
2017-Apr-26 01:28N 46°10' W 123°03'0 0.1
2017-Apr-26 01:25N 46°10' W 123°03'1410048.6
2017-Apr-26 01:25N 46°12' W 123°23'1431.1
2017-Apr-26 00:58N 46°10' W 123°03'407587.3
2017-Apr-26 00:58N 45°33' W 122°42'4012011.5
2017-Apr-26 00:58N 46°10' W 123°03'211417.4
2017-Apr-26 00:57N 45°52' W 122°48'321130.0
2017-Apr-26 00:55N 46°12' W 123°23'3275.9
2017-Apr-26 00:30N 45°52' W 122°48'19615.9
2017-Apr-26 00:28N 45°33' W 122°42'4012011.5
2017-Apr-26 00:28N 46°10' W 123°03'0 0.1
2017-Apr-26 00:25N 46°10' W 123°03'1450243.2
2017-Apr-26 00:25N 46°12' W 123°23'3275.7
2017-Apr-26 00:00N 45°52' W 122°48'21814.4
2017-Apr-25 23:58N 46°10' W 123°03'146280.4
2017-Apr-25 23:58N 46°12' W 123°23'49921.6
2017-Apr-25 23:55N 45°33' W 122°42'4010295.6
2017-Apr-25 23:55N 46°10' W 123°03'2151.3
2017-Apr-25 23:30N 45°52' W 122°48'32407.3
2017-Apr-25 23:25N 46°12' W 123°23'4914590.9
2017-Apr-25 23:25N 45°33' W 122°42'4014411.8
2017-Apr-25 23:25N 46°10' W 123°03'0 0.1
2017-Apr-25 23:22N 46°10' W 123°03'1434.7
2017-Apr-25 22:58N 46°12' W 123°23'4935018.1
2017-Apr-25 22:58N 45°33' W 122°42'408477.5
2017-Apr-25 22:58N 46°10' W 123°03'21328.5
2017-Apr-25 22:54N 45°52' W 122°48'21797.5
2017-Apr-25 22:52N 46°10' W 123°03'2157.0
2017-Apr-25 22:30N 45°52' W 122°48'321097.7
2017-Apr-25 22:28N 46°12' W 123°23'4917510.8
2017-Apr-25 22:28N 45°33' W 122°42'409609.2
2017-Apr-25 22:28N 46°10' W 123°03'0 0.2
2017-Apr-25 22:25N 46°10' W 123°03'2150.2
2017-Apr-25 22:00N 45°52' W 122°48'321077.2
2017-Apr-25 21:58N 46°12' W 123°23'4919456.4
2017-Apr-25 21:58N 45°33' W 122°42'40261.6
2017-Apr-25 21:49N 46°10' W 123°03'0 0.1
2017-Apr-25 21:46N 46°10' W 123°03'2177.6
2017-Apr-25 21:30N 45°52' W 122°48'21805.9
2017-Apr-25 21:28N 46°10' W 123°03'144186.9
2017-Apr-25 21:28N 46°12' W 123°23'4917510.8
2017-Apr-25 21:28N 45°33' W 122°42'40259.7
2017-Apr-25 21:19N 46°10' W 123°03'2167.7
2017-Apr-25 21:00N 45°52' W 122°48'21823.2
2017-Apr-25 20:58N 46°10' W 123°03'407207.9
2017-Apr-25 20:58N 45°33' W 122°42'491048.6
2017-Apr-25 20:55N 46°12' W 123°23'141794.5
2017-Apr-25 20:55N 46°10' W 123°03'2151.3
2017-Apr-25 20:30N 45°52' W 122°48'21823.2
2017-Apr-25 20:28N 46°10' W 123°03'145024.3
2017-Apr-25 20:28N 46°12' W 123°23'142009.9
2017-Apr-25 20:28N 46°10' W 123°03'40873.4
2017-Apr-25 20:25N 45°33' W 122°42'1946.2
2017-Apr-25 20:00N 45°52' W 122°48'21823.2
2017-Apr-25 19:58N 46°10' W 123°03'407586.2
2017-Apr-25 19:58N 45°33' W 122°42'409007.4
2017-Apr-25 19:58N 46°10' W 123°03'14324.2
2017-Apr-25 19:55N 46°12' W 123°23'49107.4
2017-Apr-25 19:28N 45°33' W 122°42'191038.5
2017-Apr-25 19:27N 45°52' W 122°48'21860.2
2017-Apr-25 19:25N 46°10' W 123°03'0 0.6
2017-Apr-25 19:25N 46°10' W 123°03'14149.5
2017-Apr-25 19:19N 46°12' W 123°23'3299.6
2017-Apr-25 19:00N 45°52' W 122°48'321141.2
2017-Apr-25 18:58N 46°12' W 123°23'4913469.8
2017-Apr-25 18:58N 45°33' W 122°42'40746.8
2017-Apr-25 18:55N 46°10' W 123°03'0 0.1
2017-Apr-25 18:49N 46°10' W 123°03'2165.5
2017-Apr-25 18:30N 45°52' W 122°48'321141.2
2017-Apr-25 18:28N 46°12' W 123°23'142009.9
2017-Apr-25 18:28N 46°10' W 123°03'0 0.1
2017-Apr-25 18:25N 46°10' W 123°03'40720.8
2017-Apr-25 18:22N 45°33' W 122°42'40101.7
2017-Apr-25 17:58N 46°10' W 123°03'406864.7
2017-Apr-25 17:58N 45°33' W 122°42'4010295.6
2017-Apr-25 17:58N 46°10' W 123°03'211471.9
2017-Apr-25 17:57N 45°52' W 122°48'321141.2
2017-Apr-25 17:55N 46°12' W 123°23'1431.2
2017-Apr-25 17:28N 46°10' W 123°03'406267.8
2017-Apr-25 17:28N 45°33' W 122°42'191070.8
2017-Apr-25 17:27N 45°52' W 122°48'321119.0
2017-Apr-25 17:25N 46°12' W 123°23'142283.9
2017-Apr-25 17:25N 46°10' W 123°03'0 0.0
2017-Apr-25 16:58N 46°10' W 123°03'0 0.6
2017-Apr-25 16:58N 46°10' W 123°03'211530.7
2017-Apr-25 16:57N 45°52' W 122°48'19599.8
2017-Apr-25 16:55N 45°33' W 122°42'49332.9
2017-Apr-25 16:46N 46°12' W 123°23'32117.7
2017-Apr-25 16:30N 45°52' W 122°48'21841.3
2017-Apr-25 16:28N 46°10' W 123°03'406006.6
2017-Apr-25 16:28N 45°33' W 122°42'491087.6
2017-Apr-25 16:25N 46°12' W 123°23'141674.9
2017-Apr-25 16:25N 46°10' W 123°03'2151.3
2017-Apr-25 16:00N 45°52' W 122°48'21870.0
2017-Apr-25 15:58N 46°10' W 123°03'405339.2
2017-Apr-25 15:58N 45°33' W 122°42'491054.9
2017-Apr-25 15:55N 46°12' W 123°23'141861.0
2017-Apr-25 15:55N 46°10' W 123°03'2151.3
2017-Apr-25 15:30N 45°52' W 122°48'21841.3
2017-Apr-25 15:28N 46°10' W 123°03'144567.6
2017-Apr-25 15:28N 46°12' W 123°23'142093.6
2017-Apr-25 15:28N 46°10' W 123°03'40858.0
2017-Apr-25 15:25N 45°33' W 122°42'4090.4
2017-Apr-25 14:58N 46°10' W 123°03'405766.3
2017-Apr-25 14:58N 45°33' W 122°42'4014413.8
2017-Apr-25 14:58N 46°10' W 123°03'211366.4
2017-Apr-25 14:57N 45°52' W 122°48'321188.1
2017-Apr-25 14:55N 46°12' W 123°23'3275.7
2017-Apr-25 14:30N 45°52' W 122°48'321130.0
2017-Apr-25 14:28N 46°12' W 123°23'141861.0
2017-Apr-25 14:28N 46°10' W 123°03'40275.1
2017-Apr-25 14:19N 45°33' W 122°42'40101.7
2017-Apr-25 13:55N 46°10' W 123°03'2150.0
2017-Apr-25 13:30N 45°52' W 122°48'19610.5
2017-Apr-25 13:28N 45°33' W 122°42'40918.2
2017-Apr-25 13:25N 46°10' W 123°03'0 0.6
2017-Apr-25 13:25N 46°10' W 123°03'14150.4
2017-Apr-25 13:19N 46°12' W 123°23'3299.5
2017-Apr-25 13:00N 45°52' W 122°48'21850.6
2017-Apr-25 12:58N 46°10' W 123°03'143140.2
2017-Apr-25 12:58N 46°12' W 123°23'4929184.7
2017-Apr-25 12:58N 45°33' W 122°42'409008.7
2017-Apr-25 12:58N 46°10' W 123°03'2145.8
2017-Apr-25 12:30N 45°52' W 122°48'21832.1
2017-Apr-25 12:28N 46°10' W 123°03'405543.8
2017-Apr-25 12:28N 45°33' W 122°42'4011086.0
2017-Apr-25 12:28N 46°10' W 123°03'14324.2
2017-Apr-25 12:25N 46°12' W 123°23'3276.1
2017-Apr-25 12:00N 45°52' W 122°48'21870.0
2017-Apr-25 11:58N 46°10' W 123°03'143140.2
2017-Apr-25 11:58N 46°12' W 123°23'4914592.3
2017-Apr-25 11:58N 45°33' W 122°42'40385.4
2017-Apr-25 11:52N 46°10' W 123°03'2158.5
2017-Apr-25 11:30N 45°52' W 122°48'21841.3
2017-Apr-25 11:28N 46°10' W 123°03'405339.2
2017-Apr-25 11:28N 45°33' W 122°42'4011087.6
2017-Apr-25 11:28N 46°10' W 123°03'14335.0
2017-Apr-25 11:25N 46°12' W 123°23'3267.7
2017-Apr-25 10:57N 45°52' W 122°48'21880.0
2017-Apr-25 10:55N 46°10' W 123°03'0 0.5
2017-Apr-25 10:55N 46°10' W 123°03'14328.4
2017-Apr-25 10:52N 46°12' W 123°23'4915918.9
2017-Apr-25 10:52N 45°33' W 122°42'49122.4
2017-Apr-25 10:28N 46°12' W 123°23'142283.9
2017-Apr-25 10:28N 46°10' W 123°03'21327.1
2017-Apr-25 10:24N 45°52' W 122°48'21870.0
2017-Apr-25 10:22N 46°10' W 123°03'405766.3
2017-Apr-25 10:22N 45°33' W 122°42'40101.9
2017-Apr-25 09:58N 46°10' W 123°03'143588.8
2017-Apr-25 09:58N 46°12' W 123°23'141932.6
2017-Apr-25 09:58N 46°10' W 123°03'211444.1
2017-Apr-25 09:57N 45°52' W 122°48'1950.7
2017-Apr-25 09:34N 45°33' W 122°42'40432.9
2017-Apr-25 09:28N 46°10' W 123°03'21832.1
2017-Apr-25 09:27N 45°52' W 122°48'21597.9
2017-Apr-25 09:25N 46°10' W 123°03'14322.1
2017-Apr-25 09:22N 46°12' W 123°23'4917510.8
2017-Apr-25 09:22N 45°33' W 122°42'1952.6
2017-Apr-25 09:00N 45°52' W 122°48'21841.3
2017-Apr-25 08:58N 46°10' W 123°03'14257.7
2017-Apr-25 08:55N 46°12' W 123°23'4915917.3
2017-Apr-25 08:55N 45°33' W 122°42'4012009.9
2017-Apr-25 08:55N 46°10' W 123°03'2151.3
2017-Apr-25 08:30N 45°52' W 122°48'321087.4
2017-Apr-25 08:28N 46°12' W 123°23'4919454.5
2017-Apr-25 08:28N 45°33' W 122°42'4011086.0
2017-Apr-25 08:28N 46°10' W 123°03'0 0.2
2017-Apr-25 08:25N 46°10' W 123°03'2150.1
2017-Apr-25 08:00N 45°52' W 122°48'321097.7
2017-Apr-25 07:58N 46°12' W 123°23'14146.1
2017-Apr-25 07:52N 46°10' W 123°03'0 0.5
2017-Apr-25 07:52N 46°10' W 123°03'0 0.0
2017-Apr-25 07:28N 46°10' W 123°03'211500.7
2017-Apr-25 07:27N 45°52' W 122°48'21284.6
2017-Apr-25 07:22N 46°10' W 123°03'143588.8
2017-Apr-25 07:22N 46°12' W 123°23'49470.7
2017-Apr-25 07:16N 45°33' W 122°42'49163.8
2017-Apr-25 06:58N 46°12' W 123°23'144186.9
2017-Apr-25 06:58N 46°10' W 123°03'0 1.8
2017-Apr-25 06:58N 46°10' W 123°03'21329.9
2017-Apr-25 06:54N 45°52' W 122°48'1958.3
2017-Apr-25 06:34N 45°33' W 122°42'49497.5
2017-Apr-25 06:28N 46°12' W 123°23'14260.3
2017-Apr-25 06:25N 46°10' W 123°03'0 2.4
2017-Apr-25 06:25N 46°10' W 123°03'211471.5
2017-Apr-25 06:24N 45°52' W 122°48'19600.0
2017-Apr-25 06:22N 45°33' W 122°42'1952.6
2017-Apr-25 06:00N 45°52' W 122°48'19610.4
2017-Apr-25 05:58N 45°33' W 122°42'4072069.2
2017-Apr-25 05:58N 46°10' W 123°03'14299.1
2017-Apr-25 05:55N 46°12' W 123°23'14246.3
2017-Apr-25 05:52N 46°10' W 123°03'2158.4
2017-Apr-25 05:30N 45°52' W 122°48'19605.2
2017-Apr-25 05:28N 45°33' W 122°42'409008.7
2017-Apr-25 05:28N 46°10' W 123°03'14335.0
2017-Apr-25 05:25N 46°12' W 123°23'14259.0
2017-Apr-25 05:22N 46°10' W 123°03'0 0.0
2017-Apr-25 04:58N 46°10' W 123°03'211214.9
2017-Apr-25 04:57N 45°52' W 122°48'32405.8
2017-Apr-25 04:52N 46°12' W 123°23'142009.9
2017-Apr-25 04:52N 46°10' W 123°03'40274.0
2017-Apr-25 04:43N 45°33' W 122°42'1988.5
2017-Apr-25 04:30N 45°52' W 122°48'321097.7
2017-Apr-25 04:28N 46°12' W 123°23'4917509.0
2017-Apr-25 04:28N 45°33' W 122°42'409607.9
2017-Apr-25 04:28N 46°10' W 123°03'0 0.1
2017-Apr-25 04:25N 46°10' W 123°03'2150.8
2017-Apr-25 04:00N 45°52' W 122°48'321108.3
2017-Apr-25 03:58N 46°12' W 123°23'144567.6
2017-Apr-25 03:58N 46°10' W 123°03'0 1.5
2017-Apr-25 03:58N 46°10' W 123°03'2145.8
2017-Apr-25 03:30N 45°52' W 122°48'321119.0
2017-Apr-25 03:28N 46°12' W 123°23'14243.9
2017-Apr-25 03:25N 46°10' W 123°03'0 0.1
2017-Apr-25 03:22N 46°10' W 123°03'40133.6
2017-Apr-25 03:04N 45°33' W 122°42'40399.3
2017-Apr-25 02:58N 46°10' W 123°03'211196.2
2017-Apr-25 02:57N 45°52' W 122°48'21597.9
2017-Apr-25 02:55N 46°10' W 123°03'14324.2
2017-Apr-25 02:52N 46°12' W 123°23'3276.0
2017-Apr-25 02:27N 45°52' W 122°48'321097.7
2017-Apr-25 02:25N 46°12' W 123°23'142093.6
2017-Apr-25 02:25N 46°10' W 123°03'0 0.1
2017-Apr-25 02:19N 46°10' W 123°03'0 0.0
2017-Apr-25 01:55N 46°10' W 123°03'14324.2
2017-Apr-25 01:52N 46°12' W 123°23'144567.6
2017-Apr-25 01:52N 46°10' W 123°03'211142.6
2017-Apr-25 01:51N 45°52' W 122°48'2155.8
2017-Apr-25 01:28N 46°10' W 123°03'211125.8
2017-Apr-25 01:27N 45°52' W 122°48'321141.2
2017-Apr-25 01:25N 46°12' W 123°23'141932.6
2017-Apr-25 01:25N 46°10' W 123°03'40868.3
2017-Apr-25 01:22N 45°33' W 122°42'0 0.0
2017-Apr-25 00:58N 45°33' W 122°42'191087.5
2017-Apr-25 00:57N 45°52' W 122°48'21911.4
2017-Apr-25 00:55N 46°10' W 123°03'14256.3
2017-Apr-25 00:52N 46°12' W 123°23'14240.4
2017-Apr-25 00:49N 46°10' W 123°03'40115.8
2017-Apr-25 00:28N 45°33' W 122°42'409609.2
2017-Apr-25 00:28N 46°10' W 123°03'211530.7
2017-Apr-25 00:27N 45°52' W 122°48'321130.0
2017-Apr-25 00:25N 46°12' W 123°23'14147.3
2017-Apr-25 00:19N 46°10' W 123°03'0 0.0
2017-Apr-24 23:58N 46°10' W 123°03'404804.6
2017-Apr-24 23:58N 45°33' W 122°42'4013101.7
2017-Apr-24 23:58N 46°10' W 123°03'211417.4
2017-Apr-24 23:57N 45°52' W 122°48'32251.1
2017-Apr-24 23:49N 46°12' W 123°23'1435.2
2017-Apr-24 23:25N 46°10' W 123°03'0 0.5
2017-Apr-24 23:25N 46°10' W 123°03'14150.9
2017-Apr-24 23:19N 46°12' W 123°23'32448.5
2017-Apr-24 23:15N 45°52' W 122°48'19234.3
2017-Apr-24 23:10N 45°33' W 122°42'0 0.0
2017-Apr-24 22:58N 45°33' W 122°42'401008.0
2017-Apr-24 22:55N 46°10' W 123°03'0 0.4
2017-Apr-24 22:55N 46°10' W 123°03'211444.1
2017-Apr-24 22:54N 45°52' W 122°48'3297.4
2017-Apr-24 22:34N 46°12' W 123°23'32446.7
2017-Apr-24 22:30N 45°52' W 122°48'21933.6
2017-Apr-24 22:28N 46°10' W 123°03'142392.5
2017-Apr-24 22:28N 46°12' W 123°23'4915918.9
2017-Apr-24 22:28N 45°33' W 122°42'4012011.5
2017-Apr-24 22:28N 46°10' W 123°03'2145.7
2017-Apr-24 22:00N 45°52' W 122°48'19610.5
2017-Apr-24 21:58N 45°33' W 122°42'4010295.6
2017-Apr-24 21:58N 46°10' W 123°03'0 0.2
2017-Apr-24 21:55N 46°10' W 123°03'14253.8
2017-Apr-24 21:52N 46°12' W 123°23'3286.1
2017-Apr-24 21:30N 45°52' W 122°48'321141.2
2017-Apr-24 21:28N 46°12' W 123°23'144186.9
2017-Apr-24 21:28N 46°10' W 123°03'0 0.0
2017-Apr-24 21:19N 46°10' W 123°03'40852.8
2017-Apr-24 21:16N 45°33' W 122°42'1972.1
2017-Apr-24 21:00N 45°52' W 122°48'21689.7
2017-Apr-24 20:58N 46°10' W 123°03'4036034.6
2017-Apr-24 20:58N 45°33' W 122°42'491042.2
2017-Apr-24 20:55N 46°12' W 123°23'14130.2
2017-Apr-24 20:49N 46°10' W 123°03'2167.6
2017-Apr-24 20:30N 45°52' W 122°48'321130.0
2017-Apr-24 20:28N 46°12' W 123°23'1410048.6
2017-Apr-24 20:28N 46°10' W 123°03'0 1.1
2017-Apr-24 20:28N 46°10' W 123°03'40272.5
2017-Apr-24 20:19N 45°33' W 122°42'1960.8
2017-Apr-24 20:00N 45°52' W 122°48'21696.0
2017-Apr-24 19:58N 46°10' W 123°03'14290.4
2017-Apr-24 19:55N 46°12' W 123°23'142184.6
2017-Apr-24 19:55N 46°10' W 123°03'40858.0
2017-Apr-24 19:52N 45°33' W 122°42'40105.7
2017-Apr-24 19:29N 46°10' W 123°03'401921.8
2017-Apr-24 19:28N 45°33' W 122°42'191054.6
2017-Apr-24 19:27N 45°52' W 122°48'321108.3
2017-Apr-24 19:25N 46°12' W 123°23'14137.3
2017-Apr-24 19:19N 46°10' W 123°03'2166.5
2017-Apr-24 19:00N 45°52' W 122°48'19621.4
2017-Apr-24 18:58N 45°33' W 122°42'401171.9
2017-Apr-24 18:56N 46°10' W 123°03'14123.5
2017-Apr-24 18:49N 46°12' W 123°23'148373.9
2017-Apr-24 18:49N 46°10' W 123°03'2157.6
2017-Apr-24 18:27N 45°52' W 122°48'19605.2
2017-Apr-24 18:25N 45°33' W 122°42'401181.5
2017-Apr-24 18:23N 46°10' W 123°03'141069.1
2017-Apr-24 18:22N 46°12' W 123°23'146280.4
2017-Apr-24 18:22N 46°10' W 123°03'0 0.0
2017-Apr-24 17:59N 46°10' W 123°03'14219.4
2017-Apr-24 17:55N 46°12' W 123°23'4912507.7
2017-Apr-24 17:55N 45°33' W 122°42'191087.5
2017-Apr-24 17:54N 45°52' W 122°48'21708.9
2017-Apr-24 17:52N 46°10' W 123°03'2157.5
2017-Apr-24 17:30N 45°52' W 122°48'321141.2
2017-Apr-24 17:28N 46°12' W 123°23'145024.3
2017-Apr-24 17:28N 46°10' W 123°03'0 0.2
2017-Apr-24 17:26N 46°10' W 123°03'402217.5
2017-Apr-24 17:25N 45°33' W 122°42'4092.4
2017-Apr-24 16:59N 46°10' W 123°03'141004.9
2017-Apr-24 16:58N 46°12' W 123°23'1410048.6
2017-Apr-24 16:58N 46°10' W 123°03'211078.3
2017-Apr-24 16:57N 45°52' W 122°48'0 0.0
2017-Apr-24 16:30N 45°52' W 122°48'321108.1
2017-Apr-24 16:28N 46°12' W 123°23'147177.6
2017-Apr-24 16:28N 46°10' W 123°03'0 0.0
2017-Apr-24 16:20N 46°10' W 123°03'4085.8
2017-Apr-24 15:52N 45°33' W 122°42'191054.6
2017-Apr-24 15:51N 45°52' W 122°48'211297.2
2017-Apr-24 15:50N 46°10' W 123°03'0 0.4
2017-Apr-24 15:49N 46°10' W 123°03'14288.8
2017-Apr-24 15:46N 46°12' W 123°23'32117.9
2017-Apr-24 15:30N 45°52' W 122°48'321164.2
2017-Apr-24 15:28N 46°12' W 123°23'4910300.5
2017-Apr-24 15:28N 45°33' W 122°42'401008.1
2017-Apr-24 15:25N 46°10' W 123°03'0 0.1
2017-Apr-24 15:23N 46°10' W 123°03'2155.3
2017-Apr-24 15:00N 45°52' W 122°48'211391.6
2017-Apr-24 14:59N 46°10' W 123°03'0 0.9
2017-Apr-24 14:58N 46°10' W 123°03'404003.8
2017-Apr-24 14:58N 45°33' W 122°42'491036.0
2017-Apr-24 14:55N 46°12' W 123°23'1431.9
2017-Apr-24 14:29N 46°10' W 123°03'141225.5
2017-Apr-24 14:28N 46°12' W 123°23'144567.6
2017-Apr-24 14:28N 46°10' W 123°03'21306.2
2017-Apr-24 14:24N 45°52' W 122°48'19600.0
2017-Apr-24 14:22N 45°33' W 122°42'4045.4
2017-Apr-24 13:29N 46°10' W 123°03'0 0.9
2017-Apr-24 13:28N 46°10' W 123°03'141932.4
2017-Apr-24 13:28N 46°12' W 123°23'321477.5
2017-Apr-24 13:27N 45°52' W 122°48'19605.2
2017-Apr-24 13:25N 45°33' W 122°42'1946.3
2017-Apr-24 13:00N 45°52' W 122°48'211342.8
2017-Apr-24 12:59N 46°10' W 123°03'0 1.0
2017-Apr-24 12:58N 46°10' W 123°03'141932.4
2017-Apr-24 12:58N 46°12' W 123°23'4915918.9
2017-Apr-24 12:58N 45°33' W 122°42'1941.4
2017-Apr-24 12:30N 45°52' W 122°48'211319.6
2017-Apr-24 12:29N 46°10' W 123°03'0 1.1
2017-Apr-24 12:29N 46°10' W 123°03'141794.4
2017-Apr-24 12:28N 46°12' W 123°23'49472.0
2017-Apr-24 12:22N 45°33' W 122°42'1952.5
2017-Apr-24 12:00N 45°52' W 122°48'321097.7
2017-Apr-24 11:58N 46°12' W 123°23'4935021.6
2017-Apr-24 11:58N 45°33' W 122°42'40471.0
2017-Apr-24 11:53N 46°10' W 123°03'0 0.1
2017-Apr-24 11:49N 46°10' W 123°03'2166.4
2017-Apr-24 11:30N 45°52' W 122°48'211391.6
2017-Apr-24 11:29N 46°10' W 123°03'40598.1
2017-Apr-24 11:25N 45°33' W 122°42'40853.0
2017-Apr-24 11:22N 46°10' W 123°03'14279.1
2017-Apr-24 11:19N 46°12' W 123°23'3299.8
2017-Apr-24 11:00N 45°52' W 122°48'21325.7
2017-Apr-24 10:56N 46°10' W 123°03'141116.6
2017-Apr-24 10:55N 46°12' W 123°23'147177.6
2017-Apr-24 10:55N 46°10' W 123°03'4016015.4
2017-Apr-24 10:55N 45°33' W 122°42'49109.0
2017-Apr-24 10:28N 46°12' W 123°23'1410048.6
2017-Apr-24 10:28N 46°10' W 123°03'21302.6
2017-Apr-24 10:24N 45°52' W 122°48'211366.7
2017-Apr-24 10:23N 46°10' W 123°03'402485.1
2017-Apr-24 10:22N 45°33' W 122°42'1952.5
2017-Apr-24 10:00N 45°52' W 122°48'321119.0
2017-Apr-24 09:58N 46°12' W 123°23'1450243.2
2017-Apr-24 09:58N 46°10' W 123°03'4014415.9
2017-Apr-24 09:58N 45°33' W 122°42'401181.5
2017-Apr-24 09:56N 46°10' W 123°03'2148.9
2017-Apr-24 09:30N 45°52' W 122°48'211391.6
2017-Apr-24 09:29N 46°10' W 123°03'0 1.0
2017-Apr-24 09:28N 46°10' W 123°03'403895.6
2017-Apr-24 09:28N 45°33' W 122°42'491054.8
2017-Apr-24 09:25N 46°12' W 123°23'3275.8
2017-Apr-24 09:00N 45°52' W 122°48'211391.2
2017-Apr-24 08:59N 46°10' W 123°03'0 1.1
2017-Apr-24 08:59N 46°10' W 123°03'14248.7
2017-Apr-24 08:55N 46°12' W 123°23'49190.9
2017-Apr-24 08:40N 45°33' W 122°42'40217.4
2017-Apr-24 08:29N 46°10' W 123°03'0 1.2
2017-Apr-24 08:29N 46°10' W 123°03'21729.1
2017-Apr-24 08:27N 45°52' W 122°48'321130.0
2017-Apr-24 08:25N 46°12' W 123°23'3275.9
2017-Apr-24 08:00N 45°52' W 122°48'211391.6
2017-Apr-24 07:59N 46°10' W 123°03'0 1.2
2017-Apr-24 07:59N 46°10' W 123°03'141674.8
2017-Apr-24 07:58N 46°12' W 123°23'49317.8
2017-Apr-24 07:49N 45°33' W 122°42'40120.0
2017-Apr-24 07:29N 46°10' W 123°03'0 0.5
2017-Apr-24 07:28N 46°10' W 123°03'211020.7
2017-Apr-24 07:27N 45°52' W 122°48'321130.0
2017-Apr-24 07:25N 46°12' W 123°23'4910944.2
2017-Apr-24 07:25N 45°33' W 122°42'1946.2
2017-Apr-24 07:00N 45°52' W 122°48'211342.8
2017-Apr-24 06:59N 46°10' W 123°03'141092.3
2017-Apr-24 06:58N 46°12' W 123°23'1450243.2
2017-Apr-24 06:58N 46°10' W 123°03'4012013.2
2017-Apr-24 06:58N 45°33' W 122°42'1941.4
2017-Apr-24 06:30N 45°52' W 122°48'211275.6
2017-Apr-24 06:29N 46°10' W 123°03'14220.4
2017-Apr-24 06:25N 46°12' W 123°23'14282.3
2017-Apr-24 06:22N 46°10' W 123°03'40387.5
2017-Apr-24 06:16N 45°33' W 122°42'1972.3
2017-Apr-24 06:00N 45°52' W 122°48'211391.2
2017-Apr-24 05:59N 46°10' W 123°03'0 0.1
2017-Apr-24 05:55N 46°10' W 123°03'40743.0
2017-Apr-24 05:52N 45°33' W 122°42'491042.2
2017-Apr-24 05:49N 46°12' W 123°23'1441.4
2017-Apr-24 05:29N 46°10' W 123°03'141046.8
2017-Apr-24 05:28N 46°12' W 123°23'321516.6
2017-Apr-24 05:27N 45°52' W 122°48'19236.7
2017-Apr-24 05:22N 45°33' W 122°42'40858.0
2017-Apr-24 05:19N 46°10' W 123°03'0 0.0
2017-Apr-24 04:59N 46°10' W 123°03'0 0.5
2017-Apr-24 04:58N 46°10' W 123°03'211007.3
2017-Apr-24 04:57N 45°52' W 122°48'1983.3
2017-Apr-24 04:43N 45°33' W 122°42'491024.0
2017-Apr-24 04:40N 46°12' W 123°23'1474.9
2017-Apr-24 04:29N 46°10' W 123°03'0 0.5
2017-Apr-24 04:28N 46°10' W 123°03'4013105.3
2017-Apr-24 04:28N 45°33' W 122°42'49503.2
2017-Apr-24 04:22N 46°12' W 123°23'1428.6
2017-Apr-24 03:53N 46°10' W 123°03'0 0.5
2017-Apr-24 03:52N 46°10' W 123°03'1450243.2
2017-Apr-24 03:52N 46°12' W 123°23'321477.7
2017-Apr-24 03:51N 45°52' W 122°48'0 0.0
2017-Apr-24 03:30N 45°52' W 122°48'211366.7
2017-Apr-24 03:29N 46°10' W 123°03'141092.3
2017-Apr-24 03:28N 46°12' W 123°23'14279.1
2017-Apr-24 03:25N 46°10' W 123°03'0 0.0
2017-Apr-24 02:59N 46°10' W 123°03'402485.1
2017-Apr-24 02:58N 45°33' W 122°42'191038.8
2017-Apr-24 02:57N 45°52' W 122°48'21773.3
2017-Apr-24 02:55N 46°10' W 123°03'1416747.7
2017-Apr-24 02:55N 46°12' W 123°23'1432.0
2017-Apr-24 02:29N 46°10' W 123°03'0 0.5
2017-Apr-24 02:28N 46°10' W 123°03'1412560.8
2017-Apr-24 02:28N 46°12' W 123°23'49317.2
2017-Apr-24 02:19N 45°33' W 122°42'19285.2
2017-Apr-24 02:15N 45°52' W 122°48'2176.4
2017-Apr-24 01:58N 46°10' W 123°03'1416747.7
2017-Apr-24 01:58N 46°12' W 123°23'14380.7
2017-Apr-24 01:56N 46°10' W 123°03'0 0.0
2017-Apr-24 01:22N 46°10' W 123°03'0 0.2
2017-Apr-24 01:20N 46°10' W 123°03'2174.9
2017-Apr-24 01:03N 45°52' W 122°48'21325.7
2017-Apr-24 00:59N 46°10' W 123°03'0 0.5
2017-Apr-24 00:58N 46°10' W 123°03'21969.1
2017-Apr-24 00:57N 45°52' W 122°48'19146.2
2017-Apr-24 00:49N 45°33' W 122°42'491061.3
2017-Apr-24 00:46N 46°12' W 123°23'32117.9
2017-Apr-24 00:30N 45°52' W 122°48'211342.8
2017-Apr-24 00:29N 46°10' W 123°03'0 0.5
2017-Apr-24 00:28N 46°10' W 123°03'148373.9
2017-Apr-24 00:28N 46°12' W 123°23'49477.1
2017-Apr-24 00:22N 45°33' W 122°42'40100.9
2017-Apr-23 23:58N 46°10' W 123°03'14273.1
2017-Apr-23 23:55N 46°12' W 123°23'4917510.8
2017-Apr-23 23:55N 45°33' W 122°42'191070.8
2017-Apr-23 23:54N 45°52' W 122°48'211391.6
2017-Apr-23 23:53N 46°10' W 123°03'0 0.0
2017-Apr-23 23:29N 46°10' W 123°03'21632.5
2017-Apr-23 23:27N 45°52' W 122°48'21789.2
2017-Apr-23 23:25N 46°10' W 123°03'40720.7
2017-Apr-23 23:22N 45°33' W 122°42'491054.8
2017-Apr-23 23:19N 46°12' W 123°23'3299.4
2017-Apr-23 23:00N 45°52' W 122°48'211530.7
2017-Apr-23 22:59N 46°10' W 123°03'0 0.4
2017-Apr-23 22:58N 46°10' W 123°03'4013105.3
2017-Apr-23 22:58N 45°33' W 122°42'491042.3
2017-Apr-23 22:55N 46°12' W 123°23'3275.8
2017-Apr-23 22:30N 45°52' W 122°48'211391.6
2017-Apr-23 22:29N 46°10' W 123°03'0 0.5
2017-Apr-23 22:28N 46°10' W 123°03'1412560.8
2017-Apr-23 22:28N 46°12' W 123°23'49470.7
2017-Apr-23 22:22N 45°33' W 122°42'1952.5
2017-Apr-23 22:00N 45°52' W 122°48'21781.2
2017-Apr-23 21:58N 46°10' W 123°03'1410048.6
2017-Apr-23 21:58N 46°12' W 123°23'14375.0
2017-Apr-23 21:56N 46°10' W 123°03'0 0.0
2017-Apr-23 21:29N 46°10' W 123°03'0 0.5
2017-Apr-23 21:28N 46°10' W 123°03'1412560.8
2017-Apr-23 21:28N 46°12' W 123°23'1425.4
2017-Apr-23 20:55N 46°10' W 123°03'1450243.2
2017-Apr-23 20:55N 46°12' W 123°23'49902.5
2017-Apr-23 20:52N 45°33' W 122°42'1960.8
2017-Apr-23 20:33N 45°52' W 122°48'211366.7
2017-Apr-23 20:32N 46°10' W 123°03'21622.3
2017-Apr-23 20:30N 45°52' W 122°48'211342.8
2017-Apr-23 20:29N 46°10' W 123°03'141046.8
2017-Apr-23 20:28N 46°12' W 123°23'4915917.3
2017-Apr-23 20:28N 45°33' W 122°42'40884.3
2017-Apr-23 20:25N 46°10' W 123°03'0 0.0
2017-Apr-23 19:59N 46°10' W 123°03'141025.4
2017-Apr-23 19:58N 46°12' W 123°23'4917510.8
2017-Apr-23 19:58N 45°33' W 122°42'191038.8
2017-Apr-23 19:57N 45°52' W 122°48'21805.9
2017-Apr-23 19:55N 46°10' W 123°03'2150.2
2017-Apr-23 19:30N 45°52' W 122°48'211444.1
2017-Apr-23 19:29N 46°10' W 123°03'0 0.5
2017-Apr-23 19:28N 46°10' W 123°03'1450243.2
2017-Apr-23 19:28N 46°12' W 123°23'4911673.9
2017-Apr-23 19:28N 45°33' W 122°42'1941.3
2017-Apr-23 19:00N 45°52' W 122°48'211366.7
2017-Apr-23 18:59N 46°10' W 123°03'0 0.5
2017-Apr-23 18:58N 46°10' W 123°03'409009.9
2017-Apr-23 18:58N 45°33' W 122°42'491048.6
2017-Apr-23 18:55N 46°12' W 123°23'49107.2
2017-Apr-23 18:28N 45°33' W 122°42'191070.8
2017-Apr-23 18:27N 45°52' W 122°48'321119.0
2017-Apr-23 18:25N 46°12' W 123°23'14377.8
2017-Apr-23 18:23N 46°10' W 123°03'0 0.1
2017-Apr-23 18:19N 46°10' W 123°03'40112.9
2017-Apr-23 17:58N 45°33' W 122°42'191122.6
2017-Apr-23 17:57N 45°52' W 122°48'211342.8
2017-Apr-23 17:56N 46°10' W 123°03'141046.8
2017-Apr-23 17:55N 46°12' W 123°23'14142.7
2017-Apr-23 17:49N 46°10' W 123°03'0 0.0
2017-Apr-23 17:29N 46°10' W 123°03'0 0.5
2017-Apr-23 17:28N 46°10' W 123°03'408008.8
2017-Apr-23 17:28N 45°33' W 122°42'191070.8
2017-Apr-23 17:27N 45°52' W 122°48'32248.4
2017-Apr-23 17:19N 46°12' W 123°23'3299.6
2017-Apr-23 17:00N 45°52' W 122°48'211342.4
2017-Apr-23 16:59N 46°10' W 123°03'0 0.1
2017-Apr-23 16:55N 46°10' W 123°03'1416747.7
2017-Apr-23 16:55N 46°12' W 123°23'49902.5
2017-Apr-23 16:52N 45°33' W 122°42'1952.6
2017-Apr-23 16:30N 45°52' W 122°48'211275.6
2017-Apr-23 16:29N 46°10' W 123°03'0 0.0
2017-Apr-23 16:20N 46°10' W 123°03'141395.6
2017-Apr-23 16:19N 46°12' W 123°23'49912.0
2017-Apr-23 16:16N 45°33' W 122°42'1972.2
2017-Apr-23 16:00N 45°52' W 122°48'19615.9
2017-Apr-23 15:58N 45°33' W 122°42'401092.1
2017-Apr-23 15:56N 46°10' W 123°03'141395.6
2017-Apr-23 15:55N 46°12' W 123°23'14377.8
2017-Apr-23 15:53N 46°10' W 123°03'2155.1
2017-Apr-23 15:30N 45°52' W 122°48'211366.7
2017-Apr-23 15:29N 46°10' W 123°03'402620.7
2017-Apr-23 15:28N 45°33' W 122°42'401092.1
2017-Apr-23 15:26N 46°10' W 123°03'141357.9
2017-Apr-23 15:25N 46°12' W 123°23'3275.9
2017-Apr-23 15:00N 45°52' W 122°48'211366.4
2017-Apr-23 14:59N 46°10' W 123°03'0 2.2
2017-Apr-23 14:59N 46°10' W 123°03'141288.3
2017-Apr-23 14:58N 46°12' W 123°23'4917510.8
2017-Apr-23 14:58N 45°33' W 122°42'4082.6
2017-Apr-23 14:29N 46°10' W 123°03'0 0.0
2017-Apr-23 13:59N 46°10' W 123°03'141092.3
2017-Apr-23 13:58N 46°12' W 123°23'4911672.7
2017-Apr-23 13:58N 45°33' W 122°42'19163.4
2017-Apr-23 13:51N 45°52' W 122°48'0 0.0
2017-Apr-23 13:30N 45°52' W 122°48'211443.7
2017-Apr-23 13:29N 46°10' W 123°03'141092.3
2017-Apr-23 13:28N 46°12' W 123°23'4911672.7
2017-Apr-23 13:28N 45°33' W 122°42'40462.0
2017-Apr-23 13:23N 46°10' W 123°03'0 0.0
2017-Apr-23 12:58N 46°10' W 123°03'144567.6
2017-Apr-23 12:58N 46°12' W 123°23'4917510.8
2017-Apr-23 12:58N 45°33' W 122°42'19163.4
2017-Apr-23 12:51N 45°52' W 122°48'21184.9
2017-Apr-23 12:44N 46°10' W 123°03'2190.6
2017-Apr-23 12:30N 45°52' W 122°48'211319.6
2017-Apr-23 12:29N 46°10' W 123°03'0 0.1
2017-Apr-23 12:25N 46°10' W 123°03'40717.2
2017-Apr-23 12:22N 45°33' W 122°42'491042.4
2017-Apr-23 12:19N 46°12' W 123°23'1440.2
2017-Apr-23 11:58N 46°10' W 123°03'146281.2
2017-Apr-23 11:58N 46°12' W 123°23'4914592.3
2017-Apr-23 11:58N 45°33' W 122°42'191070.5
2017-Apr-23 11:57N 45°52' W 122°48'21184.4
2017-Apr-23 11:50N 46°10' W 123°03'0 0.0
2017-Apr-23 11:29N 46°10' W 123°03'0 0.1
2017-Apr-23 11:25N 46°10' W 123°03'21880.0
2017-Apr-23 11:24N 45°52' W 122°48'32413.1
2017-Apr-23 11:19N 46°12' W 123°23'1441.4
2017-Apr-23 10:59N 46°10' W 123°03'0 0.6
2017-Apr-23 10:58N 46°10' W 123°03'144567.6
2017-Apr-23 10:58N 46°12' W 123°23'321496.9
2017-Apr-23 10:57N 45°52' W 122°48'3247.2
2017-Apr-23 10:16N 46°12' W 123°23'321536.8
2017-Apr-23 10:15N 45°52' W 122°48'211391.6
2017-Apr-23 10:14N 46°10' W 123°03'0 0.1
2017-Apr-23 10:10N 46°10' W 123°03'40713.7
2017-Apr-23 10:07N 45°33' W 122°42'40279.4
2017-Apr-23 09:58N 46°10' W 123°03'143588.8
2017-Apr-23 09:58N 46°12' W 123°23'321578.9
2017-Apr-23 09:57N 45°52' W 122°48'211391.6
2017-Apr-23 09:56N 46°10' W 123°03'40184.6
2017-Apr-23 09:43N 45°33' W 122°42'40164.0
2017-Apr-23 09:28N 46°10' W 123°03'144567.6
2017-Apr-23 09:28N 46°12' W 123°23'4915918.9
2017-Apr-23 09:28N 45°33' W 122°42'191054.6
2017-Apr-23 09:27N 45°52' W 122°48'211500.7
2017-Apr-23 09:26N 46°10' W 123°03'2148.8
2017-Apr-23 09:00N 45°52' W 122°48'211366.7
2017-Apr-23 08:59N 46°10' W 123°03'0 0.6
2017-Apr-23 08:58N 46°10' W 123°03'406267.8
2017-Apr-23 08:58N 45°33' W 122°42'491036.1
2017-Apr-23 08:55N 46°12' W 123°23'3276.1
2017-Apr-23 08:30N 45°52' W 122°48'211342.8
2017-Apr-23 08:29N 46°10' W 123°03'141116.6
2017-Apr-23 08:28N 46°12' W 123°23'4911672.7
2017-Apr-23 08:28N 45°33' W 122°42'40918.1
2017-Apr-23 08:25N 46°10' W 123°03'0 0.0
2017-Apr-23 07:59N 46°10' W 123°03'0 0.6
2017-Apr-23 07:58N 46°10' W 123°03'145582.6
2017-Apr-23 07:58N 46°12' W 123°23'4912507.7
2017-Apr-23 07:58N 45°33' W 122°42'1988.6
2017-Apr-23 07:45N 45°52' W 122°48'2177.3
2017-Apr-23 07:28N 46°10' W 123°03'405766.3
2017-Apr-23 07:28N 45°33' W 122°42'491061.3
2017-Apr-23 07:25N 46°12' W 123°23'321440.7
2017-Apr-23 07:24N 45°52' W 122°48'211471.9
2017-Apr-23 07:23N 46°10' W 123°03'0 0.0
2017-Apr-23 06:58N 46°10' W 123°03'144567.6
2017-Apr-23 06:58N 46°12' W 123°23'4914592.3
2017-Apr-23 06:58N 45°33' W 122°42'401181.5
2017-Apr-23 06:56N 46°10' W 123°03'21617.2
2017-Apr-23 06:54N 45°52' W 122°48'2151.2
2017-Apr-23 06:29N 46°10' W 123°03'0 0.6
2017-Apr-23 06:28N 46°10' W 123°03'144186.9
2017-Apr-23 06:28N 46°12' W 123°23'4915918.9
2017-Apr-23 06:28N 45°33' W 122°42'191070.8
2017-Apr-23 06:27N 45°52' W 122°48'0 0.0
2017-Apr-23 06:00N 45°52' W 122°48'211366.7
2017-Apr-23 05:59N 46°10' W 123°03'0 0.1
2017-Apr-23 05:55N 46°10' W 123°03'143588.8
2017-Apr-23 05:55N 46°12' W 123°23'4917509.0
2017-Apr-23 05:55N 45°33' W 122°42'4090.3
2017-Apr-23 05:28N 46°10' W 123°03'144186.9
2017-Apr-23 05:28N 46°12' W 123°23'4915917.3
2017-Apr-23 05:28N 45°33' W 122°42'191070.5
2017-Apr-23 05:27N 45°52' W 122°48'211391.6
2017-Apr-23 05:26N 46°10' W 123°03'2148.8
2017-Apr-23 05:00N 45°52' W 122°48'211391.6
2017-Apr-23 04:59N 46°10' W 123°03'0 0.7
2017-Apr-23 04:58N 46°10' W 123°03'143588.8
2017-Apr-23 04:58N 46°12' W 123°23'49907.2
2017-Apr-23 04:55N 45°33' W 122°42'1946.3
2017-Apr-23 04:30N 45°52' W 122°48'211417.4
2017-Apr-23 04:29N 46°10' W 123°03'0 0.6
2017-Apr-23 04:28N 46°10' W 123°03'143588.8
2017-Apr-23 04:28N 46°12' W 123°23'4914592.3
2017-Apr-23 04:28N 45°33' W 122°42'1941.3
2017-Apr-23 04:00N 45°52' W 122°48'211391.6
2017-Apr-23 03:59N 46°10' W 123°03'0 0.1
2017-Apr-23 03:52N 46°10' W 123°03'405543.8
2017-Apr-23 03:52N 45°33' W 122°42'49501.7
2017-Apr-23 03:46N 46°12' W 123°23'1447.2
2017-Apr-23 03:28N 46°10' W 123°03'405543.8
2017-Apr-23 03:28N 45°33' W 122°42'191038.5
2017-Apr-23 03:27N 45°52' W 122°48'321141.2
2017-Apr-23 03:25N 46°12' W 123°23'14380.7
2017-Apr-23 03:23N 46°10' W 123°03'2155.3
2017-Apr-23 03:00N 45°52' W 122°48'211779.9
2017-Apr-23 02:59N 46°10' W 123°03'1465.0
2017-Apr-23 02:46N 46°12' W 123°23'14293.8
2017-Apr-23 02:43N 46°10' W 123°03'40377.4
2017-Apr-23 02:37N 45°33' W 122°42'19164.2
2017-Apr-23 02:30N 45°52' W 122°48'321152.6
2017-Apr-23 02:28N 46°12' W 123°23'14366.8
2017-Apr-23 02:26N 46°10' W 123°03'0 0.5
2017-Apr-23 02:25N 46°10' W 123°03'407207.9
2017-Apr-23 02:25N 45°33' W 122°42'1946.1
2017-Apr-23 02:00N 45°52' W 122°48'211530.7
2017-Apr-23 01:59N 46°10' W 123°03'0 0.5
2017-Apr-23 01:58N 46°10' W 123°03'145024.3
2017-Apr-23 01:58N 46°12' W 123°23'3251.4
2017-Apr-23 01:21N 45°52' W 122°48'21870.0
2017-Apr-23 01:19N 46°10' W 123°03'143588.8
2017-Apr-23 01:19N 46°12' W 123°23'14380.7
2017-Apr-23 01:17N 46°10' W 123°03'40240.2
2017-Apr-23 01:07N 45°33' W 122°42'19163.4
2017-Apr-23 01:00N 45°52' W 122°48'211391.6
2017-Apr-23 00:59N 46°10' W 123°03'0 0.7
2017-Apr-23 00:58N 46°10' W 123°03'143349.5
2017-Apr-23 00:58N 46°12' W 123°23'49926.5
2017-Apr-23 00:55N 45°33' W 122°42'4092.2
2017-Apr-23 00:29N 46°10' W 123°03'0 0.7
2017-Apr-23 00:28N 46°10' W 123°03'143588.8
2017-Apr-23 00:28N 46°12' W 123°23'321496.9
2017-Apr-23 00:27N 45°52' W 122°48'19599.8
2017-Apr-23 00:25N 45°33' W 122°42'1946.3
2017-Apr-23 00:00N 45°52' W 122°48'211342.8
2017-Apr-22 23:59N 46°10' W 123°03'0 0.7
2017-Apr-22 23:58N 46°10' W 123°03'405147.8
2017-Apr-22 23:58N 45°33' W 122°42'491048.4
2017-Apr-22 23:55N 46°12' W 123°23'1431.9
2017-Apr-22 23:29N 46°10' W 123°03'0 0.7
2017-Apr-22 23:28N 46°10' W 123°03'21823.2
2017-Apr-22 23:27N 45°52' W 122°48'19627.0
2017-Apr-22 23:25N 45°33' W 122°42'491030.1
2017-Apr-22 23:22N 46°12' W 123°23'3286.1
2017-Apr-22 23:00N 45°52' W 122°48'21860.0
2017-Apr-22 22:58N 46°10' W 123°03'0 0.1
2017-Apr-22 22:56N 46°10' W 123°03'141196.3
2017-Apr-22 22:55N 46°12' W 123°23'49314.9
2017-Apr-22 22:46N 45°33' W 122°42'1972.1
2017-Apr-22 22:30N 45°52' W 122°48'211417.4
2017-Apr-22 22:29N 46°10' W 123°03'14219.4
2017-Apr-22 22:25N 46°12' W 123°23'49470.7
2017-Apr-22 22:19N 45°33' W 122°42'40948.4
2017-Apr-22 22:16N 46°10' W 123°03'2177.2
2017-Apr-22 22:00N 45°52' W 122°48'211366.7
2017-Apr-22 21:59N 46°10' W 123°03'0 0.7
2017-Apr-22 21:58N 46°10' W 123°03'143864.9
2017-Apr-22 21:58N 46°12' W 123°23'4910944.2
2017-Apr-22 21:58N 45°33' W 122°42'4082.9
2017-Apr-22 21:29N 46°10' W 123°03'0 0.6
2017-Apr-22 21:28N 46°10' W 123°03'142955.5
2017-Apr-22 21:28N 46°12' W 123°23'4917510.8
2017-Apr-22 21:28N 45°33' W 122°42'19164.2
2017-Apr-22 21:21N 45°52' W 122°48'2158.0
2017-Apr-22 20:59N 46°10' W 123°03'0 0.7
2017-Apr-22 20:58N 46°10' W 123°03'405147.8
2017-Apr-22 20:58N 45°33' W 122°42'491029.9
2017-Apr-22 20:55N 46°12' W 123°23'321496.9
2017-Apr-22 20:54N 45°52' W 122°48'0 0.0
2017-Apr-22 20:30N 45°52' W 122°48'211342.8
2017-Apr-22 20:29N 46°10' W 123°03'0 0.1
2017-Apr-22 20:25N 46°10' W 123°03'404804.6
2017-Apr-22 20:25N 45°33' W 122°42'49509.0
2017-Apr-22 20:19N 46°12' W 123°23'1440.3
2017-Apr-22 19:58N 46°10' W 123°03'404971.0
2017-Apr-22 19:58N 45°33' W 122°42'191087.5
2017-Apr-22 19:57N 45°52' W 122°48'21183.1
2017-Apr-22 19:50N 46°10' W 123°03'141322.3
2017-Apr-22 19:49N 46°12' W 123°23'3298.9
2017-Apr-22 19:30N 45°52' W 122°48'21324.3
2017-Apr-22 19:26N 46°10' W 123°03'0 0.7
2017-Apr-22 19:25N 46°10' W 123°03'143140.2
2017-Apr-22 19:25N 46°12' W 123°23'49316.7
2017-Apr-22 19:16N 45°33' W 122°42'40117.1
2017-Apr-22 18:55N 46°10' W 123°03'143349.5
2017-Apr-22 18:55N 46°12' W 123°23'4911673.9
2017-Apr-22 18:55N 45°33' W 122°42'191070.8
2017-Apr-22 18:54N 45°52' W 122°48'21327.1
2017-Apr-22 18:50N 46°10' W 123°03'2163.5
2017-Apr-22 18:30N 45°52' W 122°48'211417.4
2017-Apr-22 18:29N 46°10' W 123°03'0 0.7
2017-Apr-22 18:28N 46°10' W 123°03'40686.5
2017-Apr-22 18:25N 45°33' W 122°42'49509.0
2017-Apr-22 18:19N 46°12' W 123°23'3299.4
2017-Apr-22 18:00N 45°52' W 122°48'21290.0
2017-Apr-22 17:55N 46°10' W 123°03'142955.5
2017-Apr-22 17:55N 46°12' W 123°23'4911673.9
2017-Apr-22 17:55N 45°33' W 122°42'401201.2
2017-Apr-22 17:53N 46°10' W 123°03'0 0.0
2017-Apr-22 17:29N 46°10' W 123°03'402442.7
2017-Apr-22 17:28N 45°33' W 122°42'491023.9
2017-Apr-22 17:25N 46°12' W 123°23'321516.6
2017-Apr-22 17:24N 45°52' W 122°48'21922.4
2017-Apr-22 17:22N 46°10' W 123°03'2156.5
2017-Apr-22 17:00N 45°52' W 122°48'211319.6
2017-Apr-22 16:59N 46°10' W 123°03'0 0.8
2017-Apr-22 16:58N 46°10' W 123°03'404970.3
2017-Apr-22 16:58N 45°33' W 122°42'491054.8
2017-Apr-22 16:55N 46°12' W 123°23'3275.8
2017-Apr-22 16:30N 45°52' W 122°48'211471.9
2017-Apr-22 16:29N 46°10' W 123°03'141004.9
2017-Apr-22 16:28N 46°12' W 123°23'14314.0
2017-Apr-22 16:25N 46°10' W 123°03'404367.8
2017-Apr-22 16:25N 45°33' W 122°42'4092.4
2017-Apr-22 15:59N 46°10' W 123°03'0 0.8
2017-Apr-22 15:58N 46°10' W 123°03'142644.4
2017-Apr-22 15:58N 46°12' W 123°23'49902.6
2017-Apr-22 15:55N 45°33' W 122°42'191087.5
2017-Apr-22 15:54N 45°52' W 122°48'0 0.0
2017-Apr-22 15:30N 45°52' W 122°48'21933.6
2017-Apr-22 15:28N 46°10' W 123°03'404650.3
2017-Apr-22 15:28N 45°33' W 122°42'401191.2
2017-Apr-22 15:26N 46°10' W 123°03'141092.3
2017-Apr-22 15:25N 46°12' W 123°23'1431.9
2017-Apr-22 14:59N 46°10' W 123°03'0 0.9
2017-Apr-22 14:58N 46°10' W 123°03'21765.4
2017-Apr-22 14:57N 45°52' W 122°48'321152.5
2017-Apr-22 14:55N 46°12' W 123°23'49902.6
2017-Apr-22 14:52N 45°33' W 122°42'1952.5
2017-Apr-22 14:30N 45°52' W 122°48'21945.1
2017-Apr-22 14:28N 46°10' W 123°03'404368.4
2017-Apr-22 14:28N 45°33' W 122°42'491042.3
2017-Apr-22 14:25N 46°12' W 123°23'14380.7
2017-Apr-22 14:23N 46°10' W 123°03'0 0.0
2017-Apr-22 13:29N 46°10' W 123°03'0 0.9
2017-Apr-22 13:28N 46°10' W 123°03'404240.0
2017-Apr-22 13:28N 45°33' W 122°42'191070.8
2017-Apr-22 13:27N 45°52' W 122°48'321176.1
2017-Apr-22 13:25N 46°12' W 123°23'3275.7
2017-Apr-22 13:00N 45°52' W 122°48'211417.4
2017-Apr-22 12:59N 46°10' W 123°03'0 0.8
2017-Apr-22 12:58N 46°10' W 123°03'14255.0
2017-Apr-22 12:55N 46°12' W 123°23'4910943.1
2017-Apr-22 12:55N 45°33' W 122°42'1946.2
2017-Apr-22 12:30N 45°52' W 122°48'211366.7
2017-Apr-22 12:29N 46°10' W 123°03'0 0.0
2017-Apr-22 12:28N 46°10' W 123°03'143349.8
2017-Apr-22 12:28N 46°12' W 123°23'49884.4
2017-Apr-22 12:25N 45°33' W 122°42'1946.2
2017-Apr-22 12:00N 45°52' W 122°48'21327.0
2017-Apr-22 11:56N 46°10' W 123°03'141142.0
2017-Apr-22 11:55N 46°12' W 123°23'4910300.5
2017-Apr-22 11:55N 45°33' W 122°42'40446.3
2017-Apr-22 11:49N 46°10' W 123°03'2164.8
2017-Apr-22 11:30N 45°52' W 122°48'211391.2
2017-Apr-22 11:29N 46°10' W 123°03'0 0.9
2017-Apr-22 11:28N 46°10' W 123°03'404118.8
2017-Apr-22 11:28N 45°33' W 122°42'49500.3
2017-Apr-22 11:22N 46°12' W 123°23'1436.1
2017-Apr-22 10:59N 46°10' W 123°03'21622.3
2017-Apr-22 10:57N 45°52' W 122°48'21956.9
2017-Apr-22 10:55N 46°10' W 123°03'142283.8
2017-Apr-22 10:55N 46°12' W 123°23'4911673.9
2017-Apr-22 10:55N 45°33' W 122°42'4082.8
2017-Apr-22 10:26N 46°10' W 123°03'0 0.8
2017-Apr-22 10:25N 46°10' W 123°03'142955.5
2017-Apr-22 10:25N 46°12' W 123°23'4911673.9
2017-Apr-22 10:25N 45°33' W 122°42'191071.1
2017-Apr-22 10:24N 45°52' W 122°48'0 0.0
2017-Apr-22 10:00N 45°52' W 122°48'211417.4
2017-Apr-22 09:59N 46°10' W 123°03'14221.4
2017-Apr-22 09:55N 46°12' W 123°23'4912507.7
2017-Apr-22 09:55N 45°33' W 122°42'40987.4
2017-Apr-22 09:52N 46°10' W 123°03'0 0.0
2017-Apr-22 09:28N 46°10' W 123°03'21773.3
2017-Apr-22 09:27N 45°52' W 122°48'211319.6
2017-Apr-22 09:26N 46°10' W 123°03'14837.4
2017-Apr-22 09:25N 46°12' W 123°23'49121.7
2017-Apr-22 09:01N 45°33' W 122°42'401201.2
2017-Apr-22 08:59N 46°10' W 123°03'0 0.9
2017-Apr-22 08:58N 46°10' W 123°03'141225.4
2017-Apr-22 08:58N 46°12' W 123°23'321921.0
2017-Apr-22 08:57N 45°52' W 122°48'1983.3
2017-Apr-22 08:43N 45°33' W 122°42'1988.8
2017-Apr-22 08:30N 45°52' W 122°48'211366.7
2017-Apr-22 08:29N 46°10' W 123°03'0 0.9
2017-Apr-22 08:28N 46°10' W 123°03'14228.4
2017-Apr-22 08:25N 46°12' W 123°23'49491.9
2017-Apr-22 08:19N 45°33' W 122°42'1960.8
2017-Apr-22 08:00N 45°52' W 122°48'211391.2
2017-Apr-22 07:59N 46°10' W 123°03'40608.1
2017-Apr-22 07:55N 45°33' W 122°42'4943772.6
2017-Apr-22 07:55N 46°12' W 123°23'14156.0
2017-Apr-22 07:49N 46°10' W 123°03'2164.7
2017-Apr-22 07:30N 45°52' W 122°48'32392.0
2017-Apr-22 07:25N 46°12' W 123°23'14166.9
2017-Apr-22 07:20N 46°10' W 123°03'0 0.1
2017-Apr-22 07:16N 46°10' W 123°03'40153.9
2017-Apr-22 07:01N 45°33' W 122°42'401221.5
2017-Apr-22 06:59N 46°10' W 123°03'0 0.9
2017-Apr-22 06:58N 46°10' W 123°03'21758.0
2017-Apr-22 06:57N 45°52' W 122°48'32240.1
2017-Apr-22 06:49N 46°12' W 123°23'1442.0
2017-Apr-22 06:29N 46°10' W 123°03'0 1.0
2017-Apr-22 06:28N 46°10' W 123°03'21268.6
2017-Apr-22 06:24N 45°52' W 122°48'32388.0
2017-Apr-22 06:19N 46°12' W 123°23'49162.9
2017-Apr-22 06:01N 45°33' W 122°42'191054.2
2017-Apr-22 06:00N 45°52' W 122°48'211444.1
2017-Apr-22 05:59N 46°10' W 123°03'0 0.9
2017-Apr-22 05:58N 46°10' W 123°03'14124.4
2017-Apr-22 05:52N 46°12' W 123°23'49327.3
2017-Apr-22 05:43N 45°33' W 122°42'1989.1
2017-Apr-22 05:30N 45°52' W 122°48'211297.2
2017-Apr-22 05:29N 46°10' W 123°03'0 1.0
2017-Apr-22 05:28N 46°10' W 123°03'141168.5
2017-Apr-22 05:28N 46°12' W 123°23'49195.5
2017-Apr-22 05:13N 45°33' W 122°42'40171.4
2017-Apr-22 04:59N 46°10' W 123°03'14785.1
2017-Apr-22 04:58N 46°12' W 123°23'321921.0
2017-Apr-22 04:57N 45°52' W 122°48'211006.3
2017-Apr-22 04:55N 46°10' W 123°03'403695.0
2017-Apr-22 04:55N 45°33' W 122°42'4092.5
2017-Apr-22 04:29N 46°10' W 123°03'21602.5
2017-Apr-22 04:27N 45°52' W 122°48'21301.3
2017-Apr-22 04:23N 46°10' W 123°03'14227.3
2017-Apr-22 04:19N 46°12' W 123°23'49486.4
2017-Apr-22 04:13N 45°33' W 122°42'40171.6
2017-Apr-22 03:59N 46°10' W 123°03'0 1.0
2017-Apr-22 03:58N 46°10' W 123°03'21736.1
2017-Apr-22 03:57N 45°52' W 122°48'19605.2
2017-Apr-22 03:55N 45°33' W 122°42'4935021.6
2017-Apr-22 03:55N 46°12' W 123°23'3276.9
2017-Apr-22 03:30N 45°52' W 122°48'21981.5
2017-Apr-22 03:28N 46°10' W 123°03'0 0.0
2017-Apr-22 03:17N 46°10' W 123°03'14210.2
2017-Apr-22 03:13N 46°12' W 123°23'32146.6
2017-Apr-22 03:00N 45°52' W 122°48'211391.2
2017-Apr-22 02:59N 46°10' W 123°03'14810.4
2017-Apr-22 02:58N 46°12' W 123°23'14100.9
2017-Apr-22 02:49N 46°10' W 123°03'40189.9
2017-Apr-22 02:37N 45°33' W 122°42'19163.7
2017-Apr-22 02:30N 45°52' W 122°48'211417.4
2017-Apr-22 02:29N 46°10' W 123°03'0 0.1
2017-Apr-22 02:26N 46°10' W 123°03'40359.4
2017-Apr-22 02:19N 45°33' W 122°42'4987545.2
2017-Apr-22 02:19N 46°12' W 123°23'32100.8
2017-Apr-22 02:00N 45°52' W 122°48'211063.3
2017-Apr-22 01:59N 46°10' W 123°03'141168.4
2017-Apr-22 01:58N 46°12' W 123°23'14168.0
2017-Apr-22 01:53N 46°10' W 123°03'2155.3
2017-Apr-22 01:30N 45°52' W 122°48'211366.7
2017-Apr-22 01:29N 46°10' W 123°03'0 0.1
2017-Apr-22 01:26N 46°10' W 123°03'141046.7
2017-Apr-22 01:25N 46°12' W 123°23'3276.8
2017-Apr-22 01:00N 45°52' W 122°48'211034.5
2017-Apr-22 00:59N 46°10' W 123°03'0 0.1
2017-Apr-22 00:56N 46°10' W 123°03'14823.7
2017-Apr-22 00:55N 46°12' W 123°23'49983.8
2017-Apr-22 00:52N 45°33' W 122°42'1952.5
2017-Apr-22 00:30N 45°52' W 122°48'211444.1
2017-Apr-22 00:29N 46°10' W 123°03'14203.4
2017-Apr-22 00:25N 46°12' W 123°23'14372.2
2017-Apr-22 00:23N 46°10' W 123°03'40362.2
2017-Apr-22 00:16N 45°33' W 122°42'40141.5
2017-Apr-21 23:59N 46°10' W 123°03'0 1.0
2017-Apr-21 23:59N 46°10' W 123°03'21735.9
2017-Apr-21 23:57N 45°52' W 122°48'19146.3
2017-Apr-21 23:49N 45°33' W 122°42'49241.5
2017-Apr-21 23:37N 46°12' W 123°23'14107.8
2017-Apr-21 23:29N 46°10' W 123°03'0 2.0
2017-Apr-21 23:29N 46°10' W 123°03'21622.3
2017-Apr-21 23:27N 45°52' W 122°48'0 0.0
2017-Apr-21 23:00N 45°52' W 122°48'21343.3
2017-Apr-21 22:56N 46°10' W 123°03'0 1.7
2017-Apr-21 22:56N 46°10' W 123°03'40603.1
2017-Apr-21 22:52N 45°33' W 122°42'40104.5
2017-Apr-21 22:29N 46°10' W 123°03'21612.3
2017-Apr-21 22:27N 45°52' W 122°48'211780.4
2017-Apr-21 22:26N 46°10' W 123°03'14116.6
2017-Apr-21 22:19N 46°12' W 123°23'1441.8
2017-Apr-21 21:59N 46°10' W 123°03'21612.3
2017-Apr-21 21:57N 45°52' W 122°48'211701.2
2017-Apr-21 21:56N 46°10' W 123°03'1433.1
2017-Apr-21 21:31N 46°12' W 123°23'321889.5
2017-Apr-21 21:30N 45°52' W 122°48'21324.3
2017-Apr-21 21:26N 46°10' W 123°03'14823.7
2017-Apr-21 21:25N 46°12' W 123°23'14487.8
2017-Apr-21 21:23N 46°10' W 123°03'0 0.0
2017-Apr-21 20:59N 46°10' W 123°03'211562.4
2017-Apr-21 20:58N 45°52' W 122°48'32556.8
2017-Apr-21 20:55N 46°12' W 123°23'14105.3
2017-Apr-21 20:47N 46°10' W 123°03'1444.0
2017-Apr-21 20:28N 46°12' W 123°23'14422.2
2017-Apr-21 20:26N 46°10' W 123°03'212126.0
2017-Apr-21 20:25N 45°52' W 122°48'21584.4
2017-Apr-21 20:23N 46°10' W 123°03'2151.4
2017-Apr-21 19:58N 45°52' W 122°48'21531.5
2017-Apr-21 19:56N 46°10' W 123°03'14118.5
2017-Apr-21 19:49N 46°12' W 123°23'14177.5
2017-Apr-21 19:44N 46°10' W 123°03'0 0.0
2017-Apr-21 19:29N 46°10' W 123°03'0 1.4
2017-Apr-21 19:29N 46°10' W 123°03'14209.4
2017-Apr-21 19:25N 46°12' W 123°23'32738.8
2017-Apr-21 19:22N 45°52' W 122°48'2154.5
2017-Apr-21 18:59N 46°10' W 123°03'212126.0
2017-Apr-21 18:58N 45°52' W 122°48'21588.9
2017-Apr-21 18:56N 46°10' W 123°03'14115.8
2017-Apr-21 18:49N 46°12' W 123°23'49243.9
2017-Apr-21 18:37N 45°33' W 122°42'40300.9
2017-Apr-21 18:29N 46°10' W 123°03'211962.5
2017-Apr-21 18:28N 45°52' W 122°48'325011.3
2017-Apr-21 18:28N 46°12' W 123°23'14469.6
2017-Apr-21 18:26N 46°10' W 123°03'40332.9
2017-Apr-21 18:19N 45°33' W 122°42'40120.2
2017-Apr-21 17:59N 46°10' W 123°03'212014.1
2017-Apr-21 17:58N 45°52' W 122°48'21481.5
2017-Apr-21 17:56N 46°10' W 123°03'14225.3
2017-Apr-21 17:52N 46°12' W 123°23'49972.8
2017-Apr-21 17:49N 45°33' W 122°42'40120.0
2017-Apr-21 17:29N 46°10' W 123°03'0 1.3
2017-Apr-21 17:29N 46°10' W 123°03'21384.7
2017-Apr-21 17:25N 45°52' W 122°48'324802.5
2017-Apr-21 17:25N 46°12' W 123°23'1432.2
2017-Apr-21 16:59N 46°10' W 123°03'0 1.4
2017-Apr-21 16:59N 46°10' W 123°03'21380.9
2017-Apr-21 16:55N 45°52' W 122°48'32203.3
2017-Apr-21 16:46N 46°12' W 123°23'1449.6
2017-Apr-21 16:29N 46°10' W 123°03'0 1.4
2017-Apr-21 16:29N 46°10' W 123°03'213062.2
2017-Apr-21 16:28N 45°52' W 122°48'324802.5
2017-Apr-21 16:28N 46°12' W 123°23'49325.5
2017-Apr-21 16:19N 45°33' W 122°42'40120.0
2017-Apr-21 15:59N 46°10' W 123°03'0 1.7
2017-Apr-21 15:59N 46°10' W 123°03'14985.2
2017-Apr-21 15:58N 46°12' W 123°23'32225.6
2017-Apr-21 15:49N 45°52' W 122°48'1993.7
2017-Apr-21 15:37N 45°33' W 122°42'40300.3
2017-Apr-21 15:29N 46°10' W 123°03'14773.0
2017-Apr-21 15:28N 46°12' W 123°23'14380.6
2017-Apr-21 15:26N 46°10' W 123°03'213645.5
2017-Apr-21 15:25N 45°52' W 122°48'2148.3
2017-Apr-21 14:59N 46°10' W 123°03'0 2.2
2017-Apr-21 14:59N 46°10' W 123°03'213061.5
2017-Apr-21 14:58N 45°52' W 122°48'192784.9
2017-Apr-21 14:58N 45°33' W 122°42'49951.7
2017-Apr-21 14:55N 46°12' W 123°23'1432.1
2017-Apr-21 14:29N 46°10' W 123°03'14913.5
2017-Apr-21 14:28N 46°12' W 123°23'14422.2
2017-Apr-21 14:26N 46°10' W 123°03'212551.2
2017-Apr-21 14:25N 45°52' W 122°48'2122.6
2017-Apr-21 13:29N 46°10' W 123°03'0 1.8
2017-Apr-21 13:29N 46°10' W 123°03'403133.4
2017-Apr-21 13:28N 45°33' W 122°42'4929181.7
2017-Apr-21 13:28N 46°12' W 123°23'32748.4
2017-Apr-21 13:25N 45°52' W 122°48'2148.0
2017-Apr-21 12:59N 46°10' W 123°03'213189.8
2017-Apr-21 12:58N 45°52' W 122°48'193480.1
2017-Apr-21 12:58N 45°33' W 122°42'4987554.0
2017-Apr-21 12:58N 46°12' W 123°23'14415.3
2017-Apr-21 12:56N 46°10' W 123°03'0 0.0
2017-Apr-21 12:29N 46°10' W 123°03'0 1.8
2017-Apr-21 12:29N 46°10' W 123°03'213062.2
2017-Apr-21 12:28N 45°52' W 122°48'193163.7
2017-Apr-21 12:28N 45°33' W 122°42'49951.7
2017-Apr-21 12:25N 46°12' W 123°23'1432.4
2017-Apr-21 11:59N 46°10' W 123°03'211822.3
2017-Apr-21 11:58N 45°52' W 122°48'324268.9
2017-Apr-21 11:58N 46°12' W 123°23'14395.6
2017-Apr-21 11:56N 46°10' W 123°03'403066.8
2017-Apr-21 11:55N 45°33' W 122°42'4092.3
2017-Apr-21 11:29N 46°10' W 123°03'212468.9
2017-Apr-21 11:28N 45°52' W 122°48'21475.5
2017-Apr-21 11:26N 46°10' W 123°03'403203.5
2017-Apr-21 11:25N 45°33' W 122°42'49951.7
2017-Apr-21 11:22N 46°12' W 123°23'1436.2
2017-Apr-21 10:59N 46°10' W 123°03'403133.9
2017-Apr-21 10:58N 45°33' W 122°42'4935021.6
2017-Apr-21 10:58N 46°12' W 123°23'1476.5
2017-Apr-21 10:47N 46°10' W 123°03'21349.4
2017-Apr-21 10:43N 45°52' W 122°48'2188.8
2017-Apr-21 10:29N 46°10' W 123°03'402485.1
2017-Apr-21 10:28N 45°33' W 122°42'49936.4
2017-Apr-21 10:25N 46°12' W 123°23'14395.6
2017-Apr-21 10:23N 46°10' W 123°03'21371.6
2017-Apr-21 10:19N 45°52' W 122°48'2162.6
2017-Apr-21 09:59N 46°10' W 123°03'212068.6
2017-Apr-21 09:58N 45°52' W 122°48'19348.0
2017-Apr-21 09:55N 45°33' W 122°42'4935021.6
2017-Apr-21 09:55N 46°12' W 123°23'14507.5
2017-Apr-21 09:53N 46°10' W 123°03'0 0.0
2017-Apr-21 09:29N 46°10' W 123°03'0 1.1
2017-Apr-21 09:29N 46°10' W 123°03'211962.5
2017-Apr-21 09:28N 45°52' W 122°48'324268.9
2017-Apr-21 09:28N 46°12' W 123°23'1428.9
2017-Apr-21 08:59N 46°10' W 123°03'0 2.0
2017-Apr-21 08:59N 46°10' W 123°03'213062.2
2017-Apr-21 08:58N 45°52' W 122°48'32562.2
2017-Apr-21 08:55N 46°12' W 123°23'49326.1
2017-Apr-21 08:46N 45°33' W 122°42'40141.6
2017-Apr-21 08:29N 46°10' W 123°03'0 1.7
2017-Apr-21 08:29N 46°10' W 123°03'212944.5
2017-Apr-21 08:28N 45°52' W 122°48'324433.1
2017-Apr-21 08:28N 46°12' W 123°23'1429.0
2017-Apr-21 07:59N 46°10' W 123°03'0 0.1
2017-Apr-21 07:56N 46°10' W 123°03'14598.1
2017-Apr-21 07:55N 46°12' W 123°23'32345.1
2017-Apr-21 07:49N 45°52' W 122°48'19344.5
2017-Apr-21 07:46N 45°33' W 122°42'40141.3
2017-Apr-21 07:29N 46°10' W 123°03'0 2.4
2017-Apr-21 07:29N 46°10' W 123°03'141069.0
2017-Apr-21 07:28N 46°12' W 123°23'4958369.3
2017-Apr-21 07:28N 45°33' W 122°42'19206.5
2017-Apr-21 07:22N 45°52' W 122°48'2154.7
2017-Apr-21 06:59N 46°10' W 123°03'211962.5
2017-Apr-21 06:58N 45°52' W 122°48'323842.0
2017-Apr-21 06:58N 46°12' W 123°23'1449.2
2017-Apr-21 06:41N 46°10' W 123°03'0 0.0
2017-Apr-21 06:29N 46°10' W 123°03'0 1.5
2017-Apr-21 06:29N 46°10' W 123°03'21131.7
2017-Apr-21 06:19N 45°52' W 122°48'32104.2
2017-Apr-21 06:01N 46°12' W 123°23'14425.8
2017-Apr-21 05:59N 46°10' W 123°03'0 2.2
2017-Apr-21 05:59N 46°10' W 123°03'14966.2
2017-Apr-21 05:58N 46°12' W 123°23'32223.4
2017-Apr-21 05:49N 45°52' W 122°48'2162.6
2017-Apr-21 05:29N 46°10' W 123°03'0 0.1
2017-Apr-21 05:26N 46°10' W 123°03'212469.5
2017-Apr-21 05:25N 45°52' W 122°48'324802.5
2017-Apr-21 05:25N 46°12' W 123°23'49983.7
2017-Apr-21 05:22N 45°33' W 122°42'40104.5
2017-Apr-21 04:59N 46°10' W 123°03'0 2.0
2017-Apr-21 04:59N 46°10' W 123°03'402941.6
2017-Apr-21 04:58N 45°33' W 122°42'4929181.7
2017-Apr-21 04:58N 46°12' W 123°23'32225.1
2017-Apr-21 04:49N 45°52' W 122°48'2162.6
2017-Apr-21 04:29N 46°10' W 123°03'0 2.2
2017-Apr-21 04:29N 46°10' W 123°03'402942.0
2017-Apr-21 04:28N 45°33' W 122°42'19437.7
2017-Apr-21 04:25N 45°52' W 122°48'324268.9
2017-Apr-21 04:25N 46°12' W 123°23'1432.1
2017-Apr-21 03:59N 46°10' W 123°03'14866.3
2017-Apr-21 03:58N 46°12' W 123°23'14171.5
2017-Apr-21 03:53N 46°10' W 123°03'212014.1
2017-Apr-21 03:52N 45°52' W 122°48'2154.6
2017-Apr-21 03:29N 46°10' W 123°03'211913.4
2017-Apr-21 03:28N 45°52' W 122°48'21256.0
2017-Apr-21 03:23N 46°10' W 123°03'14570.9
2017-Apr-21 03:22N 46°12' W 123°23'1437.1
2017-Apr-21 02:59N 46°10' W 123°03'0 0.1
2017-Apr-21 02:56N 46°10' W 123°03'14210.2
2017-Apr-21 02:52N 46°12' W 123°23'1437.2
2017-Apr-21 02:29N 46°10' W 123°03'0 0.8
2017-Apr-21 02:29N 46°10' W 123°03'21193.8
2017-Apr-21 02:22N 45°52' W 122°48'32203.3
2017-Apr-21 02:13N 46°12' W 123°23'1461.8
2017-Apr-21 01:59N 46°10' W 123°03'14584.2
2017-Apr-21 01:58N 46°12' W 123°23'14422.2
2017-Apr-21 01:56N 46°10' W 123°03'0 0.0
2017-Apr-21 01:29N 46°10' W 123°03'0 0.9
2017-Apr-21 01:29N 46°10' W 123°03'211962.5
2017-Apr-21 01:28N 45°52' W 122°48'324433.1
2017-Apr-21 01:28N 46°12' W 123°23'49162.6
2017-Apr-21 01:10N 45°33' W 122°42'40217.7
2017-Apr-21 00:59N 46°10' W 123°03'0 3.6
2017-Apr-21 00:59N 46°10' W 123°03'212469.5
2017-Apr-21 00:58N 45°52' W 122°48'193314.3
2017-Apr-21 00:58N 45°33' W 122°42'4929184.7
2017-Apr-21 00:58N 46°12' W 123°23'1429.0
2017-Apr-21 00:29N 46°10' W 123°03'211962.5
2017-Apr-21 00:28N 45°52' W 122°48'193313.3
2017-Apr-21 00:28N 45°33' W 122°42'40472.6
2017-Apr-21 00:23N 46°10' W 123°03'14866.3
2017-Apr-21 00:22N 46°12' W 123°23'1436.3
2017-Apr-20 23:59N 46°10' W 123°03'21362.7
2017-Apr-20 23:55N 45°52' W 122°48'325010.7
2017-Apr-20 23:55N 46°12' W 123°23'14104.5
2017-Apr-20 23:47N 46°10' W 123°03'0 0.0
2017-Apr-20 23:29N 46°10' W 123°03'212639.9
2017-Apr-20 23:28N 45°52' W 122°48'324116.4
2017-Apr-20 23:28N 46°12' W 123°23'14425.8
2017-Apr-20 23:26N 46°10' W 123°03'40150.6
2017-Apr-20 23:10N 45°33' W 122°42'40216.5
2017-Apr-20 22:59N 46°10' W 123°03'402574.3
2017-Apr-20 22:58N 45°33' W 122°42'19440.5
2017-Apr-20 22:55N 45°52' W 122°48'21238.4
2017-Apr-20 22:50N 46°10' W 123°03'14785.1
2017-Apr-20 22:49N 46°12' W 123°23'3293.4
2017-Apr-20 22:28N 45°52' W 122°48'193164.7
2017-Apr-20 22:28N 45°33' W 122°42'401172.0
2017-Apr-20 22:26N 46°10' W 123°03'14866.3
2017-Apr-20 22:25N 46°12' W 123°23'14425.8
2017-Apr-20 22:23N 46°10' W 123°03'0 0.0
2017-Apr-20 21:59N 46°10' W 123°03'212469.5
2017-Apr-20 21:58N 45°52' W 122°48'192900.1
2017-Apr-20 21:58N 45°33' W 122°42'401221.5
2017-Apr-20 21:56N 46°10' W 123°03'14204.3
2017-Apr-20 21:52N 46°12' W 123°23'1436.5
2017-Apr-20 21:29N 46°10' W 123°03'0 4.3
2017-Apr-20 21:29N 46°10' W 123°03'212469.5
2017-Apr-20 21:28N 45°52' W 122°48'19348.0
2017-Apr-20 21:25N 45°33' W 122°42'4925015.4
2017-Apr-20 21:25N 46°12' W 123°23'3272.4
2017-Apr-20 20:58N 45°52' W 122°48'324115.9
2017-Apr-20 20:58N 46°12' W 123°23'14169.2
2017-Apr-20 20:53N 46°10' W 123°03'0 0.1
2017-Apr-20 20:50N 46°10' W 123°03'40618.6
2017-Apr-20 20:46N 45°33' W 122°42'40141.0
2017-Apr-20 20:29N 46°10' W 123°03'0 5.4
2017-Apr-20 20:29N 46°10' W 123°03'212392.4
2017-Apr-20 20:28N 45°52' W 122°48'324433.1
2017-Apr-20 20:28N 46°12' W 123°23'49326.1
2017-Apr-20 20:19N 45°33' W 122°42'1956.3
2017-Apr-20 19:58N 45°52' W 122°48'192899.2
2017-Apr-20 19:58N 45°33' W 122°42'4987545.2
2017-Apr-20 19:58N 46°12' W 123°23'14169.2
2017-Apr-20 19:53N 46°10' W 123°03'0 0.1
2017-Apr-20 19:50N 46°10' W 123°03'0 0.0
2017-Apr-20 19:29N 46°10' W 123°03'402528.7
2017-Apr-20 19:28N 45°33' W 122°42'40471.1
2017-Apr-20 19:23N 46°10' W 123°03'14212.9
2017-Apr-20 19:19N 46°12' W 123°23'32343.0
2017-Apr-20 19:13N 45°52' W 122°48'2188.6
2017-Apr-20 18:59N 46°10' W 123°03'0 7.2
2017-Apr-20 18:59N 46°10' W 123°03'212319.9
2017-Apr-20 18:58N 45°52' W 122°48'193314.3
2017-Apr-20 18:58N 45°33' W 122°42'4935021.6
2017-Apr-20 18:58N 46°12' W 123°23'1429.0
2017-Apr-20 18:29N 46°10' W 123°03'402402.0
2017-Apr-20 18:28N 45°33' W 122°42'19437.6
2017-Apr-20 18:25N 45°52' W 122°48'32203.3
2017-Apr-20 18:16N 46°12' W 123°23'1449.5
2017-Apr-20 17:59N 46°10' W 123°03'021.6
2017-Apr-20 17:59N 46°10' W 123°03'402529.1
2017-Apr-20 17:58N 45°33' W 122°42'19440.5
2017-Apr-20 17:55N 45°52' W 122°48'324116.4
2017-Apr-20 17:55N 46°12' W 123°23'3272.4
2017-Apr-20 17:28N 45°52' W 122°48'192783.2
2017-Apr-20 17:28N 45°33' W 122°42'401211.1
2017-Apr-20 17:26N 46°10' W 123°03'14810.4
2017-Apr-20 17:25N 46°12' W 123°23'14104.7
2017-Apr-20 17:17N 46°10' W 123°03'1429.9
2017-Apr-20 16:49N 46°12' W 123°23'14415.2
2017-Apr-20 16:47N 46°10' W 123°03'0 0.1
2017-Apr-20 16:44N 46°10' W 123°03'0 0.0
2017-Apr-20 16:29N 46°10' W 123°03'14205.9
2017-Apr-20 16:25N 46°12' W 123°23'32345.1
2017-Apr-20 16:19N 45°52' W 122°48'19124.3
2017-Apr-20 16:10N 45°33' W 122°42'40218.1
2017-Apr-20 15:59N 46°10' W 123°03'021.6
2017-Apr-20 15:59N 46°10' W 123°03'219569.5
2017-Apr-20 15:59N 45°52' W 122°48'32494.7
2017-Apr-20 15:55N 46°12' W 123°23'49983.8
2017-Apr-20 15:52N 45°33' W 122°42'40104.4
2017-Apr-20 15:29N 46°10' W 123°03'212069.1
2017-Apr-20 15:28N 45°52' W 122°48'32567.8
2017-Apr-20 15:25N 46°12' W 123°23'14418.7
2017-Apr-20 15:23N 46°10' W 123°03'40345.6
2017-Apr-20 15:16N 45°33' W 122°42'40140.7
2017-Apr-20 14:59N 46°10' W 123°03'021.6
2017-Apr-20 14:59N 46°10' W 123°03'21356.1
2017-Apr-20 14:55N 45°52' W 122°48'324433.1
2017-Apr-20 14:55N 46°12' W 123°23'49195.4
2017-Apr-20 14:40N 45°33' W 122°42'4058.5
2017-Apr-20 13:59N 46°10' W 123°03'21359.3
2017-Apr-20 13:55N 45°52' W 122°48'192783.2
2017-Apr-20 13:55N 45°33' W 122°42'4958363.5
2017-Apr-20 13:55N 46°12' W 123°23'14105.1
2017-Apr-20 13:47N 46°10' W 123°03'0 0.0
2017-Apr-20 13:29N 46°10' W 123°03'212068.6
2017-Apr-20 13:28N 45°52' W 122°48'324269.4
2017-Apr-20 13:28N 46°12' W 123°23'14169.8
2017-Apr-20 13:23N 46°10' W 123°03'40151.0
2017-Apr-20 13:07N 45°33' W 122°42'40297.2
2017-Apr-20 12:59N 46°10' W 123°03'14866.3
2017-Apr-20 12:58N 46°12' W 123°23'4987545.2
2017-Apr-20 12:58N 45°33' W 122°42'19443.2
2017-Apr-20 12:55N 45°52' W 122°48'21535.2
2017-Apr-20 12:53N 46°10' W 123°03'0 0.0
2017-Apr-20 12:29N 46°10' W 123°03'402217.5
2017-Apr-20 12:28N 45°33' W 122°42'4943777.0
2017-Apr-20 12:28N 46°12' W 123°23'14169.2
2017-Apr-20 12:23N 46°10' W 123°03'212187.3
2017-Apr-20 12:22N 45°52' W 122°48'2154.6
2017-Apr-20 11:59N 46°10' W 123°03'010.8
2017-Apr-20 11:59N 46°10' W 123°03'212068.6
2017-Apr-20 11:58N 45°52' W 122°48'193480.1
2017-Apr-20 11:58N 45°33' W 122°42'4935021.6
2017-Apr-20 11:58N 46°12' W 123°23'1428.9
2017-Apr-20 11:29N 46°10' W 123°03'0 0.7
2017-Apr-20 11:28N 46°10' W 123°03'405338.5
2017-Apr-20 11:28N 45°33' W 122°42'4987545.2
2017-Apr-20 11:28N 46°12' W 123°23'32729.5
2017-Apr-20 11:25N 45°52' W 122°48'2147.5
2017-Apr-20 10:58N 46°10' W 123°03'21402.9
2017-Apr-20 10:55N 45°52' W 122°48'324802.5
2017-Apr-20 10:55N 46°12' W 123°23'14425.8
2017-Apr-20 10:53N 46°10' W 123°03'40600.6
2017-Apr-20 10:49N 45°33' W 122°42'1956.2
2017-Apr-20 10:28N 45°52' W 122°48'21550.6
2017-Apr-20 10:26N 46°10' W 123°03'0 0.8
2017-Apr-20 10:25N 46°10' W 123°03'141322.2
2017-Apr-20 10:25N 46°12' W 123°23'49163.0
2017-Apr-20 10:07N 45°33' W 122°42'40298.4
2017-Apr-20 09:59N 46°10' W 123°03'0 0.8
2017-Apr-20 09:58N 46°10' W 123°03'2110933.9
2017-Apr-20 09:58N 45°52' W 122°48'324432.5
2017-Apr-20 09:58N 46°12' W 123°23'49983.8
2017-Apr-20 09:55N 45°33' W 122°42'1943.6
2017-Apr-20 09:28N 45°52' W 122°48'324116.4
2017-Apr-20 09:28N 46°12' W 123°23'14425.8
2017-Apr-20 09:26N 46°10' W 123°03'402528.7
2017-Apr-20 09:25N 45°33' W 122°42'40967.5
2017-Apr-20 09:22N 46°10' W 123°03'0 0.0
2017-Apr-20 08:59N 46°10' W 123°03'212391.8
2017-Apr-20 08:59N 45°52' W 122°48'213328.5
2017-Apr-20 08:58N 46°10' W 123°03'14297.3
2017-Apr-20 08:56N 46°12' W 123°23'49118.0
2017-Apr-20 08:31N 45°33' W 122°42'491636.5
2017-Apr-20 08:29N 46°12' W 123°23'143865.1
2017-Apr-20 08:29N 46°10' W 123°03'0 0.7
2017-Apr-20 08:28N 46°10' W 123°03'2110936.5
2017-Apr-20 08:28N 45°52' W 122°48'19346.3
2017-Apr-20 08:25N 45°33' W 122°42'4092.4
2017-Apr-20 07:59N 46°10' W 123°03'212069.1
2017-Apr-20 07:58N 45°52' W 122°48'196960.1
2017-Apr-20 07:58N 45°33' W 122°42'4919456.4
2017-Apr-20 07:58N 46°12' W 123°23'14395.6
2017-Apr-20 07:56N 46°10' W 123°03'0 0.0
2017-Apr-20 07:29N 46°10' W 123°03'212014.1
2017-Apr-20 07:28N 45°52' W 122°48'215468.3
2017-Apr-20 07:28N 46°10' W 123°03'144186.9
2017-Apr-20 07:28N 46°12' W 123°23'3265.0
2017-Apr-20 06:58N 45°52' W 122°48'21531.4
2017-Apr-20 06:56N 46°10' W 123°03'14851.6
2017-Apr-20 06:55N 46°12' W 123°23'14344.1
2017-Apr-20 06:52N 46°10' W 123°03'0 0.0
2017-Apr-20 06:28N 46°10' W 123°03'218506.2
2017-Apr-20 06:28N 45°52' W 122°48'21531.5
2017-Apr-20 06:26N 46°10' W 123°03'14823.7
2017-Apr-20 06:25N 46°12' W 123°23'1432.2
2017-Apr-20 05:59N 46°10' W 123°03'0 0.9
2017-Apr-20 05:58N 46°10' W 123°03'215102.5
2017-Apr-20 05:58N 45°52' W 122°48'32570.5
2017-Apr-20 05:55N 46°12' W 123°23'1432.2
2017-Apr-20 05:29N 46°10' W 123°03'0 6.3
2017-Apr-20 05:28N 46°10' W 123°03'141326.1
2017-Apr-20 05:28N 46°12' W 123°23'32748.4
2017-Apr-20 05:25N 45°52' W 122°48'1993.6
2017-Apr-20 05:13N 45°33' W 122°42'40171.8
2017-Apr-20 04:59N 46°10' W 123°03'0 6.3
2017-Apr-20 04:58N 46°10' W 123°03'215461.5
2017-Apr-20 04:58N 45°52' W 122°48'324801.9
2017-Apr-20 04:58N 46°12' W 123°23'49194.8
2017-Apr-20 04:43N 45°33' W 122°42'40171.6
2017-Apr-20 04:29N 46°10' W 123°03'212186.8
2017-Apr-20 04:28N 45°52' W 122°48'192899.2
2017-Apr-20 04:28N 45°33' W 122°42'4929181.7
2017-Apr-20 04:28N 46°12' W 123°23'14359.9
2017-Apr-20 04:25N 46°10' W 123°03'0 0.1
2017-Apr-20 03:59N 46°10' W 123°03'0 0.9
2017-Apr-20 03:58N 46°10' W 123°03'404368.4
2017-Apr-20 03:58N 45°33' W 122°42'19443.3
2017-Apr-20 03:55N 45°52' W 122°48'325239.1
2017-Apr-20 03:55N 46°12' W 123°23'1432.1
2017-Apr-20 03:29N 46°10' W 123°03'212126.0
2017-Apr-20 03:28N 45°52' W 122°48'21458.4
2017-Apr-20 03:25N 46°10' W 123°03'141288.3
2017-Apr-20 03:25N 46°12' W 123°23'49494.6
2017-Apr-20 03:19N 45°33' W 122°42'40119.9
2017-Apr-20 02:59N 46°10' W 123°03'0 1.0
2017-Apr-20 02:58N 46°10' W 123°03'214784.7
2017-Apr-20 02:58N 45°52' W 122°48'32559.5
2017-Apr-20 02:55N 46°12' W 123°23'49490.5
2017-Apr-20 02:49N 45°33' W 122°42'40104.6
2017-Apr-20 02:26N 46°10' W 123°03'0 0.1
2017-Apr-20 02:22N 46°10' W 123°03'214784.7
2017-Apr-20 02:22N 45°52' W 122°48'324116.4
2017-Apr-20 02:22N 46°12' W 123°23'491006.3
2017-Apr-20 02:19N 45°33' W 122°42'40120.0
2017-Apr-20 01:59N 46°10' W 123°03'0 0.9
2017-Apr-20 01:58N 46°10' W 123°03'21394.6
2017-Apr-20 01:55N 45°52' W 122°48'193314.3
2017-Apr-20 01:55N 45°33' W 122°42'4943777.0
2017-Apr-20 01:55N 46°12' W 123°23'1432.3
2017-Apr-20 01:29N 46°10' W 123°03'0 0.8
2017-Apr-20 01:28N 46°10' W 123°03'215887.5
2017-Apr-20 01:28N 45°52' W 122°48'19349.9
2017-Apr-20 01:25N 45°33' W 122°42'4958369.3
2017-Apr-20 01:25N 46°12' W 123°23'1432.2
2017-Apr-20 00:59N 46°10' W 123°03'0 1.0
2017-Apr-20 00:58N 46°10' W 123°03'141435.5
2017-Apr-20 00:58N 46°12' W 123°23'32724.9
2017-Apr-20 00:55N 45°52' W 122°48'2148.3
2017-Apr-20 00:29N 46°10' W 123°03'0 1.0
2017-Apr-20 00:28N 46°10' W 123°03'21394.6
2017-Apr-20 00:25N 45°52' W 122°48'32556.8
2017-Apr-20 00:22N 46°12' W 123°23'1435.9
2017-Apr-19 23:58N 46°10' W 123°03'215468.3
2017-Apr-19 23:58N 45°52' W 122°48'324268.9
2017-Apr-19 23:58N 46°12' W 123°23'14170.3
2017-Apr-19 23:53N 46°10' W 123°03'0 0.0
2017-Apr-19 23:29N 46°10' W 123°03'0 0.9
2017-Apr-19 23:28N 46°10' W 123°03'141322.2
2017-Apr-19 23:28N 46°12' W 123°23'32748.4
2017-Apr-19 23:25N 45°52' W 122°48'2148.3
2017-Apr-19 22:59N 46°10' W 123°03'0 0.9
2017-Apr-19 22:58N 46°10' W 123°03'215103.7
2017-Apr-19 22:58N 45°52' W 122°48'32125.0
2017-Apr-19 22:43N 46°12' W 123°23'1460.2
2017-Apr-19 22:29N 46°10' W 123°03'21344.8
2017-Apr-19 22:25N 45°52' W 122°48'32554.1
2017-Apr-19 22:22N 46°12' W 123°23'14361.5
2017-Apr-19 22:19N 46°10' W 123°03'0 0.0
2017-Apr-19 21:59N 46°10' W 123°03'0 1.0
2017-Apr-19 21:58N 46°10' W 123°03'21137.7
2017-Apr-19 21:49N 45°52' W 122°48'32124.6
2017-Apr-19 21:34N 46°12' W 123°23'14156.5
2017-Apr-19 21:28N 46°10' W 123°03'0 0.1
2017-Apr-19 21:26N 46°10' W 123°03'211913.4
2017-Apr-19 21:25N 45°52' W 122°48'323974.5
2017-Apr-19 21:25N 46°12' W 123°23'49162.9
2017-Apr-19 21:07N 45°33' W 122°42'40300.2
2017-Apr-19 20:59N 46°10' W 123°03'14773.0
2017-Apr-19 20:58N 46°12' W 123°23'32773.6
2017-Apr-19 20:55N 45°52' W 122°48'21461.2
2017-Apr-19 20:53N 46°10' W 123°03'40361.2
2017-Apr-19 20:46N 45°33' W 122°42'40138.5
2017-Apr-19 20:29N 46°10' W 123°03'214503.3
2017-Apr-19 20:28N 45°52' W 122°48'21531.5
2017-Apr-19 20:26N 46°10' W 123°03'402485.1
2017-Apr-19 20:25N 45°33' W 122°42'49485.1
2017-Apr-19 20:19N 46°12' W 123°23'1441.1
2017-Apr-19 19:58N 46°10' W 123°03'21390.6
2017-Apr-19 19:55N 45°52' W 122°48'193026.1
2017-Apr-19 19:55N 45°33' W 122°42'4943777.0
2017-Apr-19 19:55N 46°12' W 123°23'14170.3
2017-Apr-19 19:50N 46°10' W 123°03'0 0.0
2017-Apr-19 19:28N 46°10' W 123°03'215468.3
2017-Apr-19 19:28N 45°52' W 122°48'193480.1
2017-Apr-19 19:28N 45°33' W 122°42'4925015.4
2017-Apr-19 19:28N 46°12' W 123°23'14425.8
2017-Apr-19 19:26N 46°10' W 123°03'0 0.0
2017-Apr-19 18:56N 46°10' W 123°03'0 1.0
2017-Apr-19 18:55N 46°10' W 123°03'215103.7
2017-Apr-19 18:55N 45°52' W 122°48'193480.1
2017-Apr-19 18:55N 45°33' W 122°42'49884.4
2017-Apr-19 18:52N 46°12' W 123°23'1436.8
2017-Apr-19 18:29N 46°10' W 123°03'0 1.1
2017-Apr-19 18:29N 46°10' W 123°03'215103.7
2017-Apr-19 18:28N 45°52' W 122°48'322680.5
2017-Apr-19 18:28N 46°12' W 123°23'491080.9
2017-Apr-19 18:25N 45°33' W 122°42'4092.3
2017-Apr-19 17:59N 46°10' W 123°03'0 1.1
2017-Apr-19 17:59N 46°10' W 123°03'214784.7
2017-Apr-19 17:58N 45°52' W 122°48'322881.5
2017-Apr-19 17:58N 46°12' W 123°23'49199.2
2017-Apr-19 17:43N 45°33' W 122°42'40166.6
2017-Apr-19 17:29N 46°10' W 123°03'214784.7
2017-Apr-19 17:28N 45°52' W 122°48'322881.8
2017-Apr-19 17:28N 46°12' W 123°23'14478.6
2017-Apr-19 17:26N 46°10' W 123°03'402528.7
2017-Apr-19 17:25N 45°33' W 122°42'4091.1
2017-Apr-19 16:58N 46°10' W 123°03'21398.7
2017-Apr-19 16:55N 45°52' W 122°48'192577.8
2017-Apr-19 16:55N 45°33' W 122°42'401201.2
2017-Apr-19 16:53N 46°10' W 123°03'14688.3
2017-Apr-19 16:52N 46°12' W 123°23'1436.8
2017-Apr-19 16:29N 46°10' W 123°03'0 1.3
2017-Apr-19 16:29N 46°10' W 123°03'403352.5
2017-Apr-19 16:28N 45°33' W 122°42'4910944.2
2017-Apr-19 16:28N 46°12' W 123°23'32360.2
2017-Apr-19 16:22N 45°52' W 122°48'2154.5
2017-Apr-19 15:59N 46°10' W 123°03'0 1.1
2017-Apr-19 15:59N 46°10' W 123°03'403603.5
2017-Apr-19 15:58N 45°33' W 122°42'4910299.4
2017-Apr-19 15:58N 46°12' W 123°23'32835.2
2017-Apr-19 15:55N 45°52' W 122°48'1942.3
2017-Apr-19 15:28N 45°33' W 122°42'4910300.5
2017-Apr-19 15:28N 46°12' W 123°23'14474.0
2017-Apr-19 15:26N 46°10' W 123°03'0 1.4
2017-Apr-19 15:26N 46°10' W 123°03'213827.8
2017-Apr-19 15:25N 45°52' W 122°48'2148.3
2017-Apr-19 14:59N 46°10' W 123°03'212068.6
2017-Apr-19 14:58N 45°52' W 122°48'323033.2
2017-Apr-19 14:58N 46°12' W 123°23'491067.7
2017-Apr-19 14:55N 45°33' W 122°42'401044.6
2017-Apr-19 14:53N 46°10' W 123°03'0 0.0
2017-Apr-19 14:26N 46°10' W 123°03'213061.5
2017-Apr-19 14:25N 45°52' W 122°48'193314.3
2017-Apr-19 14:25N 45°33' W 122°42'4935018.1
2017-Apr-19 14:25N 46°12' W 123°23'14422.2
2017-Apr-19 14:23N 46°10' W 123°03'0 0.0
2017-Apr-19 13:29N 46°10' W 123°03'0 0.1
2017-Apr-19 13:26N 46°10' W 123°03'403604.0
2017-Apr-19 13:25N 45°33' W 122°42'4910300.5
2017-Apr-19 13:25N 46°12' W 123°23'32359.1
2017-Apr-19 13:19N 45°52' W 122°48'3295.3
2017-Apr-19 12:59N 46°12' W 123°23'143865.1
2017-Apr-19 12:59N 46°10' W 123°03'0 1.4
2017-Apr-19 12:59N 46°10' W 123°03'213827.8
2017-Apr-19 12:58N 45°52' W 122°48'1975.5
2017-Apr-19 12:43N 45°33' W 122°42'49211.0
2017-Apr-19 12:29N 46°12' W 123°23'144187.2
2017-Apr-19 12:29N 46°10' W 123°03'212068.6
2017-Apr-19 12:28N 45°52' W 122°48'21478.5
2017-Apr-19 12:26N 46°10' W 123°03'4097.4
2017-Apr-19 12:01N 45°33' W 122°42'401201.2
2017-Apr-19 11:59N 46°10' W 123°03'14297.3
2017-Apr-19 11:56N 46°12' W 123°23'322260.0
2017-Apr-19 11:55N 45°52' W 122°48'193313.3
2017-Apr-19 11:55N 45°33' W 122°42'40450.4
2017-Apr-19 11:50N 46°10' W 123°03'1441.0
2017-Apr-19 11:29N 46°12' W 123°23'141477.7
2017-Apr-19 11:29N 46°10' W 123°03'213827.8
2017-Apr-19 11:28N 45°52' W 122°48'19342.9
2017-Apr-19 11:25N 45°33' W 122°42'40477.3
2017-Apr-19 11:20N 46°10' W 123°03'1440.4
2017-Apr-19 10:59N 46°12' W 123°23'143349.8
2017-Apr-19 10:59N 46°10' W 123°03'0 1.4
2017-Apr-19 10:59N 46°10' W 123°03'213479.8
2017-Apr-19 10:58N 45°52' W 122°48'1963.2
2017-Apr-19 10:40N 45°33' W 122°42'40217.7
2017-Apr-19 10:29N 46°10' W 123°03'212014.1
2017-Apr-19 10:28N 45°52' W 122°48'19344.6
2017-Apr-19 10:25N 45°33' W 122°42'401060.0
2017-Apr-19 10:23N 46°10' W 123°03'14337.2
2017-Apr-19 10:20N 46°12' W 123°23'0 0.0
2017-Apr-19 09:59N 46°12' W 123°23'143140.4
2017-Apr-19 09:59N 46°10' W 123°03'0 1.4
2017-Apr-19 09:59N 46°10' W 123°03'213645.5
2017-Apr-19 09:58N 45°52' W 122°48'19181.7
2017-Apr-19 09:52N 45°33' W 122°42'40104.4
2017-Apr-19 09:29N 46°10' W 123°03'0 1.8
2017-Apr-19 09:29N 46°10' W 123°03'403066.8
2017-Apr-19 09:28N 45°33' W 122°42'491733.6
2017-Apr-19 09:26N 46°12' W 123°23'322022.1
2017-Apr-19 09:25N 45°52' W 122°48'2148.4
2017-Apr-19 08:59N 46°10' W 123°03'0 1.5
2017-Apr-19 08:59N 46°10' W 123°03'212944.5
2017-Apr-19 08:58N 45°52' W 122°48'32172.3
2017-Apr-19 08:47N 46°12' W 123°23'49285.6
2017-Apr-19 08:37N 45°33' W 122°42'49375.7
2017-Apr-19 08:29N 46°12' W 123°23'144567.9
2017-Apr-19 08:29N 46°10' W 123°03'0 1.4
2017-Apr-19 08:29N 46°10' W 123°03'213189.8
2017-Apr-19 08:28N 45°52' W 122°48'19346.3
2017-Apr-19 08:25N 45°33' W 122°42'49113.0
2017-Apr-19 07:59N 46°12' W 123°23'14141.9
2017-Apr-19 07:53N 46°10' W 123°03'0 1.1
2017-Apr-19 07:53N 46°10' W 123°03'402443.0
2017-Apr-19 07:52N 45°33' W 122°42'19206.0
2017-Apr-19 07:46N 45°52' W 122°48'2163.5
2017-Apr-19 07:26N 46°10' W 123°03'0 1.5
2017-Apr-19 07:26N 46°10' W 123°03'211866.8
2017-Apr-19 07:25N 45°52' W 122°48'193663.2
2017-Apr-19 07:25N 45°33' W 122°42'49614.4
2017-Apr-19 07:20N 46°12' W 123°23'0 0.0
2017-Apr-19 06:59N 46°12' W 123°23'143349.8
2017-Apr-19 06:59N 46°10' W 123°03'0 2.0
2017-Apr-19 06:59N 46°10' W 123°03'212469.5
2017-Apr-19 06:58N 45°52' W 122°48'1923193.4
2017-Apr-19 06:58N 45°33' W 122°42'49100.2
2017-Apr-19 06:29N 46°12' W 123°23'142093.5
2017-Apr-19 06:29N 46°10' W 123°03'212944.5
2017-Apr-19 06:28N 45°52' W 122°48'21542.8
2017-Apr-19 06:26N 46°10' W 123°03'402324.5
2017-Apr-19 06:25N 45°33' W 122°42'49113.1
2017-Apr-19 05:59N 46°12' W 123°23'492466.3
2017-Apr-19 05:58N 45°33' W 122°42'401181.5
2017-Apr-19 05:56N 46°10' W 123°03'0 1.7
2017-Apr-19 05:56N 46°10' W 123°03'21379.0
2017-Apr-19 05:52N 45°52' W 122°48'2154.5
2017-Apr-19 05:29N 46°10' W 123°03'14297.3
2017-Apr-19 05:26N 46°12' W 123°23'142009.7
2017-Apr-19 05:26N 46°10' W 123°03'213328.5
2017-Apr-19 05:25N 45°52' W 122°48'2148.0
2017-Apr-19 04:59N 46°10' W 123°03'14330.5
2017-Apr-19 04:56N 46°12' W 123°23'143865.1
2017-Apr-19 04:56N 46°10' W 123°03'21191.8
2017-Apr-19 04:49N 45°52' W 122°48'1993.8
2017-Apr-19 04:37N 45°33' W 122°42'40300.3
2017-Apr-19 04:29N 46°10' W 123°03'0 1.5
2017-Apr-19 04:29N 46°10' W 123°03'213328.5
2017-Apr-19 04:28N 45°52' W 122°48'32900.5
2017-Apr-19 04:26N 46°12' W 123°23'49285.6
2017-Apr-19 04:16N 45°33' W 122°42'40140.9
2017-Apr-19 03:59N 46°10' W 123°03'0 1.8
2017-Apr-19 03:59N 46°10' W 123°03'213062.2
2017-Apr-19 03:58N 45°52' W 122°48'32879.8
2017-Apr-19 03:56N 46°12' W 123°23'492466.3
2017-Apr-19 03:55N 45°33' W 122°42'49113.2
2017-Apr-19 03:29N 46°12' W 123°23'143589.0
2017-Apr-19 03:29N 46°10' W 123°03'0 2.2
2017-Apr-19 03:29N 46°10' W 123°03'212835.4
2017-Apr-19 03:28N 45°52' W 122°48'19342.8
2017-Apr-19 03:25N 45°33' W 122°42'49113.3
2017-Apr-19 02:59N 46°12' W 123°23'143140.4
2017-Apr-19 02:59N 46°10' W 123°03'0 2.0
2017-Apr-19 02:59N 46°10' W 123°03'213062.2
2017-Apr-19 02:58N 45°52' W 122°48'19344.5
2017-Apr-19 02:55N 45°33' W 122°42'49113.1
2017-Apr-19 02:29N 46°12' W 123°23'142392.5
2017-Apr-19 02:29N 46°10' W 123°03'0 0.1
2017-Apr-19 02:26N 46°10' W 123°03'212319.3
2017-Apr-19 02:25N 45°52' W 122°48'19341.2
2017-Apr-19 02:22N 45°33' W 122°42'40104.4
2017-Apr-19 01:59N 46°10' W 123°03'0 2.0
2017-Apr-19 01:59N 46°10' W 123°03'212944.5
2017-Apr-19 01:58N 45°52' W 122°48'19182.2
2017-Apr-19 01:52N 45°33' W 122°42'49270.2
2017-Apr-19 01:41N 46°12' W 123°23'0 0.0
2017-Apr-19 01:29N 46°12' W 123°23'142184.5
2017-Apr-19 01:29N 46°10' W 123°03'21371.6
2017-Apr-19 01:25N 45°52' W 122°48'21542.8
2017-Apr-19 01:23N 46°10' W 123°03'40595.6
2017-Apr-19 01:19N 45°33' W 122°42'40120.1
2017-Apr-19 00:59N 46°10' W 123°03'0 1.8
2017-Apr-19 00:59N 46°10' W 123°03'403067.2
2017-Apr-19 00:58N 45°33' W 122°42'19443.3
2017-Apr-19 00:55N 45°52' W 122°48'32234.3
2017-Apr-19 00:47N 46°12' W 123°23'1446.1
2017-Apr-19 00:29N 46°10' W 123°03'0 0.1
2017-Apr-19 00:26N 46°10' W 123°03'21366.3
2017-Apr-19 00:22N 45°52' W 122°48'193162.7
2017-Apr-19 00:22N 45°33' W 122°42'491636.4
2017-Apr-19 00:20N 46°12' W 123°23'0 0.0
2017-Apr-18 23:53N 46°12' W 123°23'142184.5
2017-Apr-18 23:53N 46°10' W 123°03'0 0.0
2017-Apr-18 23:41N 46°10' W 123°03'402443.0
2017-Apr-18 23:40N 45°33' W 122°42'40218.1
2017-Apr-18 23:29N 46°10' W 123°03'0 2.0
2017-Apr-18 23:29N 46°10' W 123°03'40187.7
2017-Apr-18 23:16N 45°33' W 122°42'49618.7
2017-Apr-18 23:11N 46°12' W 123°23'32194.0
2017-Apr-18 23:01N 45°52' W 122°48'32879.8
2017-Apr-18 22:59N 46°12' W 123°23'143589.0
2017-Apr-18 22:59N 46°10' W 123°03'212251.1
2017-Apr-18 22:58N 45°52' W 122°48'21490.7
2017-Apr-18 22:56N 46°10' W 123°03'40352.5
2017-Apr-18 22:49N 45°33' W 122°42'40120.1
2017-Apr-18 22:29N 46°10' W 123°03'0 2.2
2017-Apr-18 22:29N 46°10' W 123°03'40127.8
2017-Apr-18 22:10N 45°33' W 122°42'491621.4
2017-Apr-18 22:08N 46°12' W 123°23'32503.3
2017-Apr-18 22:04N 45°52' W 122°48'21235.5
2017-Apr-18 21:59N 46°10' W 123°03'0 2.4
2017-Apr-18 21:59N 46°10' W 123°03'14318.0
2017-Apr-18 21:56N 46°12' W 123°23'322452.3
2017-Apr-18 21:55N 45°52' W 122°48'19339.5
2017-Apr-18 21:52N 45°33' W 122°42'40104.4
2017-Apr-18 21:29N 46°10' W 123°03'0 2.7
2017-Apr-18 21:29N 46°10' W 123°03'212639.9
2017-Apr-18 21:28N 45°52' W 122°48'193026.1
2017-Apr-18 21:28N 45°33' W 122°42'491652.0
2017-Apr-18 21:26N 46°12' W 123°23'1430.6
2017-Apr-18 20:59N 46°10' W 123°03'402882.8
2017-Apr-18 20:58N 45°33' W 122°42'401181.3
2017-Apr-18 20:56N 46°10' W 123°03'212068.6
2017-Apr-18 20:55N 45°52' W 122°48'2148.3
2017-Apr-18 20:29N 46°10' W 123°03'0 2.7
2017-Apr-18 20:29N 46°10' W 123°03'212734.1
2017-Apr-18 20:28N 45°52' W 122°48'32886.6
2017-Apr-18 20:26N 46°12' W 123°23'49694.9
2017-Apr-18 20:22N 45°33' W 122°42'40104.4
2017-Apr-18 19:59N 46°10' W 123°03'0 2.4
2017-Apr-18 19:59N 46°10' W 123°03'21366.3
2017-Apr-18 19:55N 45°52' W 122°48'194094.2
2017-Apr-18 19:55N 45°33' W 122°42'4092.1
2017-Apr-18 19:29N 46°10' W 123°03'0 3.6
2017-Apr-18 19:29N 46°10' W 123°03'21361.0
2017-Apr-18 19:25N 45°52' W 122°48'32237.1
2017-Apr-18 19:17N 46°12' W 123°23'492334.8
2017-Apr-18 19:16N 45°33' W 122°42'1965.8
2017-Apr-18 18:58N 45°52' W 122°48'193026.1
2017-Apr-18 18:58N 45°33' W 122°42'401117.5
2017-Apr-18 18:56N 46°10' W 123°03'14293.8
2017-Apr-18 18:53N 46°12' W 123°23'1425123.3
2017-Apr-18 18:53N 46°10' W 123°03'0 0.0
2017-Apr-18 18:29N 46°10' W 123°03'0 0.9
2017-Apr-18 18:29N 46°10' W 123°03'402362.9
2017-Apr-18 18:28N 45°33' W 122°42'491700.1
2017-Apr-18 18:26N 46°12' W 123°23'322095.6
2017-Apr-18 18:25N 45°52' W 122°48'2149.0
2017-Apr-18 17:59N 46°10' W 123°03'0 1.0
2017-Apr-18 17:59N 46°10' W 123°03'402620.3
2017-Apr-18 17:58N 45°33' W 122°42'491606.3
2017-Apr-18 17:56N 46°12' W 123°23'322174.7
2017-Apr-18 17:55N 45°52' W 122°48'0 0.0
2017-Apr-18 17:28N 45°52' W 122°48'21638.0
2017-Apr-18 17:26N 46°10' W 123°03'0 0.9
2017-Apr-18 17:26N 46°10' W 123°03'402442.7
2017-Apr-18 17:25N 45°33' W 122°42'49603.8
2017-Apr-18 17:20N 46°12' W 123°23'1440.3
2017-Apr-18 16:59N 46°10' W 123°03'143588.8
2017-Apr-18 16:59N 46°12' W 123°23'32507.8
2017-Apr-18 16:55N 45°52' W 122°48'193025.2
2017-Apr-18 16:55N 45°33' W 122°42'401191.1
2017-Apr-18 16:53N 46°10' W 123°03'40104.7
2017-Apr-18 16:30N 45°33' W 122°42'403516.1
2017-Apr-18 16:29N 46°10' W 123°03'145582.6
2017-Apr-18 16:29N 46°12' W 123°23'322305.2
2017-Apr-18 16:28N 45°52' W 122°48'21239.2
2017-Apr-18 16:23N 46°10' W 123°03'0 0.0
2017-Apr-18 15:59N 46°10' W 123°03'143864.9
2017-Apr-18 15:59N 46°12' W 123°23'143865.1
2017-Apr-18 15:59N 46°10' W 123°03'212251.1
2017-Apr-18 15:58N 45°52' W 122°48'2144.0
2017-Apr-18 15:29N 46°10' W 123°03'401501.7
2017-Apr-18 15:28N 45°33' W 122°42'401322.4
2017-Apr-18 15:26N 46°10' W 123°03'212186.8
2017-Apr-18 15:25N 45°52' W 122°48'32873.2
2017-Apr-18 15:23N 46°12' W 123°23'1435.2
2017-Apr-18 14:59N 46°10' W 123°03'211255.0
2017-Apr-18 14:58N 45°52' W 122°48'32893.5
2017-Apr-18 14:56N 46°12' W 123°23'143140.4
2017-Apr-18 14:56N 46°10' W 123°03'402059.1
2017-Apr-18 14:55N 45°33' W 122°42'4093.2
2017-Apr-18 14:29N 46°10' W 123°03'401947.5
2017-Apr-18 14:28N 45°33' W 122°42'19486.6
2017-Apr-18 14:25N 45°52' W 122°48'21256.0
2017-Apr-18 14:20N 46°10' W 123°03'1434.7
2017-Apr-18 13:56N 46°12' W 123°23'49102.4
2017-Apr-18 13:28N 45°33' W 122°42'401779.7
2017-Apr-18 13:26N 46°10' W 123°03'143588.8
2017-Apr-18 13:26N 46°12' W 123°23'146280.8
2017-Apr-18 13:26N 46°10' W 123°03'211913.4
2017-Apr-18 13:25N 45°52' W 122°48'3273.3
2017-Apr-18 12:59N 46°12' W 123°23'144567.9
2017-Apr-18 12:59N 46°10' W 123°03'0 0.1
2017-Apr-18 12:56N 46°10' W 123°03'211275.9
2017-Apr-18 12:55N 45°52' W 122°48'19119.8
2017-Apr-18 12:46N 45°33' W 122°42'40147.1
2017-Apr-18 12:29N 46°10' W 123°03'145582.9
2017-Apr-18 12:29N 46°12' W 123°23'142791.7
2017-Apr-18 12:29N 46°10' W 123°03'402058.8
2017-Apr-18 12:28N 45°33' W 122°42'19479.9
2017-Apr-18 12:25N 45°52' W 122°48'1942.0
2017-Apr-18 11:58N 45°33' W 122°42'491945.6
2017-Apr-18 11:56N 46°12' W 123°23'142955.5
2017-Apr-18 11:56N 46°10' W 123°03'212319.3
2017-Apr-18 11:55N 45°52' W 122°48'21527.7
2017-Apr-18 11:53N 46°10' W 123°03'0 0.0
2017-Apr-18 11:29N 46°10' W 123°03'010.8
2017-Apr-18 11:29N 46°10' W 123°03'212251.1
2017-Apr-18 11:28N 45°52' W 122°48'19320.8
2017-Apr-18 11:25N 45°33' W 122°42'491967.5
2017-Apr-18 11:23N 46°12' W 123°23'1434.5
2017-Apr-18 10:59N 46°10' W 123°03'0 7.2
2017-Apr-18 10:59N 46°10' W 123°03'402151.6
2017-Apr-18 10:58N 45°33' W 122°42'491843.2
2017-Apr-18 10:56N 46°12' W 123°23'322174.5
2017-Apr-18 10:55N 45°52' W 122°48'0 0.0
2017-Apr-18 10:28N 45°52' W 122°48'21524.2
2017-Apr-18 10:26N 46°10' W 123°03'0 5.4
2017-Apr-18 10:26N 46°10' W 123°03'14145.6
2017-Apr-18 10:20N 46°12' W 123°23'492036.1
2017-Apr-18 10:19N 45°33' W 122°42'40121.6
2017-Apr-18 09:59N 46°10' W 123°03'211962.0
2017-Apr-18 09:58N 45°52' W 122°48'32937.0
2017-Apr-18 09:56N 46°12' W 123°23'14131.5
2017-Apr-18 09:50N 46°10' W 123°03'0 0.0
2017-Apr-18 09:29N 46°10' W 123°03'212319.9
2017-Apr-18 09:28N 45°52' W 122°48'32879.8
2017-Apr-18 09:26N 46°12' W 123°23'14259.0
2017-Apr-18 09:23N 46°10' W 123°03'40333.6
2017-Apr-18 09:16N 45°33' W 122°42'40143.1
2017-Apr-18 08:59N 46°10' W 123°03'212251.6
2017-Apr-18 08:58N 45°52' W 122°48'191831.1
2017-Apr-18 08:58N 45°33' W 122°42'491862.7
2017-Apr-18 08:56N 46°12' W 123°23'14259.0
2017-Apr-18 08:53N 46°10' W 123°03'0 0.0
2017-Apr-18 08:29N 46°10' W 123°03'212126.0
2017-Apr-18 08:28N 45°52' W 122°48'192046.5
2017-Apr-18 08:28N 45°33' W 122°42'401242.6
2017-Apr-18 08:26N 46°10' W 123°03'14308.2
2017-Apr-18 08:23N 46°12' W 123°23'0 0.0
2017-Apr-18 07:59N 46°12' W 123°23'142512.2
2017-Apr-18 07:59N 46°10' W 123°03'212469.5
2017-Apr-18 07:58N 45°52' W 122°48'19314.8
2017-Apr-18 07:55N 45°33' W 122°42'40511.1
2017-Apr-18 07:50N 46°10' W 123°03'0 0.0
2017-Apr-18 07:29N 46°10' W 123°03'211913.9
2017-Apr-18 07:28N 45°52' W 122°48'32879.8
2017-Apr-18 07:26N 46°12' W 123°23'145024.7
2017-Apr-18 07:26N 46°10' W 123°03'402059.1
2017-Apr-18 07:25N 45°33' W 122°42'49113.6
2017-Apr-18 06:59N 46°12' W 123°23'145025.0
2017-Apr-18 06:59N 46°10' W 123°03'402059.1
2017-Apr-18 06:58N 45°33' W 122°42'19493.6
2017-Apr-18 06:55N 45°52' W 122°48'3272.4
2017-Apr-18 06:29N 46°12' W 123°23'323842.0
2017-Apr-18 06:28N 45°52' W 122°48'191740.0
2017-Apr-18 06:28N 45°33' W 122°42'40511.2
2017-Apr-18 06:23N 46°10' W 123°03'  

Dump ship's entire track history